Darstellungsparameter: Aktuell verwendete Einstellungen:
Skalierung der Graphiken ... ?
xyx+y,   Skalierungsfaktor:      Skalierung: Modus: x, Faktor: 1
Darstellungszeitraum ... ?
Vom - - bis: - -   Zeitraum: 21.06.2014 - 04.07.2014
Min/Max/Avg-Anzeige ... ?
Zeige MMA aktuell
Zeige MMA Monat
Zeige MMA alles
Zeige --A aktuell
Zeige --A Monat
Zeige --A alles
Keine MMA-Anzeige
MMA:
Keine MMA-Graphiken
MMA-Basis: 21.06.2014 - 04.07.2014
Quicknavigation für Darstellung... ?
Tage:      1T, 2T, 3T, 5T -1T -2T -3T -5T +1T +2T +3T +5T
Wochen: 1W, 2W, 3W -1W -2W -3W +1W +2W +3W
Monate: 1M, 3M, 6M -1M -3M -6M +1M +3M +6M
Jahre:    1J, 3J, 5J, 10J -1J -3J -5J -10J +1J +3J +5J +10J
Nutze für die Darstellung ... ?
Originaldaten oder Mittelwerte auf ...
Stundenbasis Tagesbasis Wochenbasis
Monatsbasis Jahresbasis      Datenbasis: Original-Daten
Darstellen als:
Statistik (Auto) Statistik J:M      Darstellung:
Zur Graphik,    zurück zur Übersicht aller Sensoren.
 
Tabellarische Datenbersicht: ?
 
Sensor: Nr:Datum:Temp:Abs-Feuchte:Windchill:Wind:
Aussen-T/F 1 21-06-2014 00:00:00 14.8 C 9.25 g/m*3 14.8 C 3.2 km/h
2 21-06-2014 00:05:00 14.8 C 9.25 g/m*3 14.8 C 3.2 km/h
3 21-06-2014 00:10:00 14.8 C 9.25 g/m*3 14.8 C 0 km/h
4 21-06-2014 00:15:00 14.8 C 9.25 g/m*3 14.8 C 3.2 km/h
5 21-06-2014 00:20:00 14.8 C 9.37 g/m*3 14.8 C 4.8 km/h
6 21-06-2014 00:25:00 14.8 C 9.37 g/m*3 14.8 C 4.8 km/h
7 21-06-2014 00:30:00 14.7 C 9.32 g/m*3 14.7 C 3.2 km/h
8 21-06-2014 00:35:00 14.7 C 9.44 g/m*3 14.7 C 0 km/h
9 21-06-2014 00:40:00 14.6 C 9.39 g/m*3 14.6 C 0 km/h
10 21-06-2014 00:45:00 14.4 C 9.39 g/m*3 14.4 C 0 km/h
11 21-06-2014 00:50:00 14.3 C 9.34 g/m*3 14.3 C 0 km/h
12 21-06-2014 00:55:00 14.3 C 9.34 g/m*3 14.3 C 0 km/h
13 21-06-2014 01:00:00 14.2 C 9.4 g/m*3 14.2 C 0 km/h
14 21-06-2014 01:05:00 14.2 C 9.4 g/m*3 14.2 C 0 km/h
15 21-06-2014 01:10:00 14.1 C 9.47 g/m*3 14.1 C 0 km/h
16 21-06-2014 01:15:00 14 C 9.29 g/m*3 14 C 0 km/h
17 21-06-2014 01:20:00 14 C 9.41 g/m*3 14 C 0 km/h
18 21-06-2014 01:25:00 13.9 C 9.35 g/m*3 13.9 C 1.6 km/h
19 21-06-2014 01:30:00 14 C 9.41 g/m*3 14 C 0 km/h
20 21-06-2014 01:35:00 14 C 9.29 g/m*3 14 C 8.1 km/h
21 21-06-2014 01:40:00 14.1 C 9.47 g/m*3 14.1 C 0 km/h
22 21-06-2014 01:45:00 14.1 C 9.34 g/m*3 14.1 C 3.2 km/h
23 21-06-2014 01:50:00 14.1 C 9.34 g/m*3 14.1 C 0 km/h
24 21-06-2014 01:55:00 14.1 C 9.34 g/m*3 14.1 C 0 km/h
25 21-06-2014 02:00:00 14.1 C 9.34 g/m*3 14.1 C 4.8 km/h
Sensor: Nr:Datum:Temp:Abs-Feuchte:Windchill:Wind:
Aussen-T/F 26 21-06-2014 02:05:00 14.1 C 9.34 g/m*3 14.1 C 1.6 km/h
27 21-06-2014 02:10:00 14.1 C 9.47 g/m*3 14.1 C 1.6 km/h
28 21-06-2014 02:15:00 14 C 9.41 g/m*3 14 C 3.2 km/h
29 21-06-2014 02:20:00 14 C 9.29 g/m*3 14 C 8.1 km/h
30 21-06-2014 02:25:00 14.1 C 9.34 g/m*3 14.1 C 8.1 km/h
31 21-06-2014 02:30:00 14.1 C 9.34 g/m*3 14.1 C 8.1 km/h
32 21-06-2014 02:35:00 14.1 C 9.34 g/m*3 14.1 C 3.2 km/h
33 21-06-2014 02:40:00 14 C 9.29 g/m*3 14 C 0 km/h
34 21-06-2014 02:45:00 13.9 C 9.23 g/m*3 13.9 C 4.8 km/h
35 21-06-2014 02:50:00 13.8 C 9.41 g/m*3 13.8 C 0 km/h
36 21-06-2014 02:55:00 13.8 C 9.41 g/m*3 13.8 C 0 km/h
37 21-06-2014 03:00:00 13.7 C 9.47 g/m*3 13.7 C 0 km/h
38 21-06-2014 03:05:00 13.7 C 9.35 g/m*3 13.7 C 0 km/h
39 21-06-2014 03:10:00 13.7 C 9.35 g/m*3 13.7 C 4.8 km/h
40 21-06-2014 03:15:00 13.7 C 9.24 g/m*3 13.7 C 9.7 km/h
41 21-06-2014 03:20:00 13.7 C 9.35 g/m*3 13.7 C 0 km/h
42 21-06-2014 03:25:00 13.7 C 9.35 g/m*3 13.7 C 3.2 km/h
43 21-06-2014 03:30:00 13.7 C 9.35 g/m*3 13.7 C 1.6 km/h
44 21-06-2014 03:35:00 13.7 C 9.35 g/m*3 13.7 C 1.6 km/h
45 21-06-2014 03:40:00 13.7 C 9.24 g/m*3 13.7 C 8.1 km/h
46 21-06-2014 03:45:00 13.8 C 9.29 g/m*3 13.8 C 4.8 km/h
47 21-06-2014 03:50:00 13.8 C 9.29 g/m*3 13.8 C 3.2 km/h
48 21-06-2014 03:55:00 13.8 C 9.29 g/m*3 13.8 C 6.4 km/h
49 21-06-2014 04:00:00 13.9 C 9.35 g/m*3 13.9 C 4.8 km/h
50 21-06-2014 04:05:00 13.9 C 9.35 g/m*3 13.9 C 8.1 km/h
Sensor: Nr:Datum:Temp:Abs-Feuchte:Windchill:Wind:
Aussen-T/F 51 21-06-2014 04:10:00 13.9 C 9.35 g/m*3 13.9 C 9.7 km/h
52 21-06-2014 04:15:00 13.9 C 9.47 g/m*3 13.9 C 8.1 km/h
53 21-06-2014 04:20:00 13.8 C 9.41 g/m*3 13.8 C 9.7 km/h
54 21-06-2014 04:25:00 13.7 C 9.35 g/m*3 13.7 C 4.8 km/h
55 21-06-2014 04:30:00 13.6 C 9.42 g/m*3 13.6 C 8.1 km/h
56 21-06-2014 04:35:00 13.4 C 9.3 g/m*3 13.4 C 4.8 km/h
57 21-06-2014 04:40:00 13.3 C 9.36 g/m*3 13.3 C 6.4 km/h
58 21-06-2014 04:45:00 13.2 C 9.42 g/m*3 13.2 C 0 km/h
59 21-06-2014 04:50:00 12.9 C 9.35 g/m*3 12.9 C 1.6 km/h
60 21-06-2014 04:55:00 12.8 C 9.3 g/m*3 12.8 C 1.6 km/h
61 21-06-2014 05:00:00 12.7 C 9.35 g/m*3 12.7 C 0 km/h
62 21-06-2014 05:05:00 12.7 C 9.35 g/m*3 12.7 C 4.8 km/h
63 21-06-2014 05:10:00 12.7 C 9.35 g/m*3 12.7 C 3.2 km/h
64 21-06-2014 05:15:00 12.7 C 9.35 g/m*3 12.7 C 0 km/h
65 21-06-2014 05:20:00 12.6 C 9.29 g/m*3 12.6 C 0 km/h
66 21-06-2014 05:25:00 12.4 C 9.29 g/m*3 12.4 C 1.6 km/h
67 21-06-2014 05:30:00 12.4 C 9.29 g/m*3 12.4 C 0 km/h
68 21-06-2014 05:35:00 12.4 C 9.29 g/m*3 12.4 C 1.6 km/h
69 21-06-2014 05:40:00 12.4 C 9.29 g/m*3 12.4 C 1.6 km/h
70 21-06-2014 05:45:00 12.4 C 9.29 g/m*3 12.4 C 1.6 km/h
71 21-06-2014 05:50:00 12.4 C 9.29 g/m*3 12.4 C 0 km/h
72 21-06-2014 05:55:00 12.4 C 9.29 g/m*3 12.4 C 1.6 km/h
73 21-06-2014 06:00:00 12.4 C 9.29 g/m*3 12.4 C 8.1 km/h
74 21-06-2014 06:05:00 12.4 C 9.29 g/m*3 12.4 C 8.1 km/h
75 21-06-2014 06:10:00 12.6 C 9.4 g/m*3 12.6 C 9.7 km/h
Sensor: Nr:Datum:Temp:Abs-Feuchte:Windchill:Wind:
Aussen-T/F 76 21-06-2014 06:15:00 12.6 C 9.4 g/m*3 12.6 C 8.1 km/h
77 21-06-2014 06:20:00 12.7 C 9.35 g/m*3 12.7 C 6.4 km/h
78 21-06-2014 06:25:00 12.7 C 9.35 g/m*3 12.7 C 3.2 km/h
79 21-06-2014 06:30:00 12.8 C 9.41 g/m*3 12.8 C 0 km/h
80 21-06-2014 06:35:00 12.8 C 9.41 g/m*3 12.8 C 0 km/h
81 21-06-2014 06:40:00 12.8 C 9.41 g/m*3 12.8 C 0 km/h
82 21-06-2014 06:45:00 12.9 C 9.47 g/m*3 12.9 C 0 km/h
83 21-06-2014 06:50:00 12.9 C 9.47 g/m*3 12.9 C 0 km/h
84 21-06-2014 06:55:00 13 C 9.53 g/m*3 13 C 0 km/h
85 21-06-2014 07:00:00 13 C 9.41 g/m*3 13 C 3.2 km/h
86 21-06-2014 07:05:00 13 C 9.41 g/m*3 13 C 3.2 km/h
87 21-06-2014 07:10:00 13.1 C 9.47 g/m*3 13.1 C 0 km/h
88 21-06-2014 07:15:00 13.1 C 9.47 g/m*3 13.1 C 0 km/h
89 21-06-2014 07:20:00 13.2 C 9.53 g/m*3 13.2 C 3.2 km/h
90 21-06-2014 07:25:00 13.2 C 9.53 g/m*3 13.2 C 4.8 km/h
91 21-06-2014 07:30:00 13.2 C 9.53 g/m*3 13.2 C 1.6 km/h
92 21-06-2014 07:35:00 13.3 C 9.47 g/m*3 13.3 C 1.6 km/h
93 21-06-2014 07:40:00 13.3 C 9.47 g/m*3 13.3 C 3.2 km/h
94 21-06-2014 07:45:00 13.3 C 9.47 g/m*3 13.3 C 1.6 km/h
95 21-06-2014 07:50:00 13.4 C 9.53 g/m*3 13.4 C 0 km/h
96 21-06-2014 07:55:00 13.4 C 9.53 g/m*3 13.4 C 3.2 km/h
97 21-06-2014 08:00:00 13.4 C 9.53 g/m*3 13.4 C 3.2 km/h
98 21-06-2014 08:05:00 13.5 C 9.59 g/m*3 13.5 C 1.6 km/h
99 21-06-2014 08:10:00 13.6 C 9.65 g/m*3 13.6 C 3.2 km/h
100 21-06-2014 08:15:00 13.7 C 9.59 g/m*3 13.7 C 8.1 km/h
Sensor: Nr:Datum:Temp:Abs-Feuchte:Windchill:Wind:
Aussen-T/F 101 21-06-2014 08:20:00 13.7 C 9.47 g/m*3 13.7 C 6.4 km/h
102 21-06-2014 08:25:00 13.8 C 9.53 g/m*3 13.8 C 8.1 km/h
103 21-06-2014 08:30:00 13.8 C 9.65 g/m*3 13.8 C 4.8 km/h
104 21-06-2014 08:35:00 13.9 C 9.59 g/m*3 13.9 C 8.1 km/h
105 21-06-2014 08:40:00 14.1 C 9.59 g/m*3 14.1 C 4.8 km/h
106 21-06-2014 08:45:00 14.1 C 9.59 g/m*3 14.1 C 6.4 km/h
107 21-06-2014 08:50:00 14.1 C 9.59 g/m*3 14.1 C 4.8 km/h
108 21-06-2014 08:55:00 14.2 C 9.77 g/m*3 14.2 C 4.8 km/h
109 21-06-2014 09:00:00 14.5 C 9.58 g/m*3 14.5 C 6.4 km/h
110 21-06-2014 09:05:00 14.4 C 9.52 g/m*3 14.4 C 6.4 km/h
111 21-06-2014 09:10:00 14.4 C 9.52 g/m*3 14.4 C 8.1 km/h
112 21-06-2014 09:15:00 14.4 C 9.39 g/m*3 14.4 C 9.7 km/h
113 21-06-2014 09:20:00 14.4 C 9.27 g/m*3 14.4 C 4.8 km/h
114 21-06-2014 09:25:00 14.6 C 9.51 g/m*3 14.6 C 4.8 km/h
115 21-06-2014 09:30:00 14.8 C 9.75 g/m*3 14.8 C 4.8 km/h
116 21-06-2014 09:35:00 14.9 C 9.69 g/m*3 14.9 C 8.1 km/h
117 21-06-2014 09:40:00 15 C 9.36 g/m*3 15 C 11.3 km/h
118 21-06-2014 09:45:00 15 C 9.23 g/m*3 15 C 9.7 km/h
119 21-06-2014 09:50:00 14.9 C 9.18 g/m*3 14.9 C 11.3 km/h
120 21-06-2014 09:55:00 15 C 9.36 g/m*3 15 C 6.4 km/h
121 21-06-2014 10:00:00 15.2 C 9.35 g/m*3 15.2 C 4.8 km/h
122 21-06-2014 10:05:00 15.5 C 9.52 g/m*3 15.5 C 9.7 km/h
123 21-06-2014 10:10:00 15.8 C 9.69 g/m*3 15.8 C 8.1 km/h
124 21-06-2014 10:15:00 16.1 C 9.18 g/m*3 16.1 C 11.3 km/h
125 21-06-2014 10:20:00 16.3 C 9.43 g/m*3 16.3 C 6.4 km/h
Sensor: Nr:Datum:Temp:Abs-Feuchte:Windchill:Wind:
Aussen-T/F 126 21-06-2014 10:25:00 16.3 C 9.43 g/m*3 16.3 C 9.7 km/h
127 21-06-2014 10:30:00 16.1 C 9.46 g/m*3 16.1 C 6.4 km/h
128 21-06-2014 10:35:00 15.9 C 9.34 g/m*3 15.9 C 6.4 km/h
129 21-06-2014 10:40:00 15.8 C 9.42 g/m*3 15.8 C 6.4 km/h
130 21-06-2014 10:45:00 15.8 C 9.42 g/m*3 15.8 C 4.8 km/h
131 21-06-2014 10:50:00 15.8 C 9.29 g/m*3 15.8 C 6.4 km/h
132 21-06-2014 10:55:00 15.8 C 9.15 g/m*3 15.8 C 6.4 km/h
133 21-06-2014 11:00:00 16.2 C 9.65 g/m*3 16.2 C 6.4 km/h
134 21-06-2014 11:05:00 16.8 C 9.58 g/m*3 16.8 C 9.7 km/h
135 21-06-2014 11:10:00 17.2 C 9.52 g/m*3 17.2 C 12.9 km/h
136 21-06-2014 11:15:00 17.4 C 9.04 g/m*3 17.4 C 12.9 km/h
137 21-06-2014 11:20:00 17.4 C 8.89 g/m*3 17.4 C 8.1 km/h
138 21-06-2014 11:25:00 17.3 C 8.69 g/m*3 17.3 C 9.7 km/h
139 21-06-2014 11:30:00 17.2 C 8.93 g/m*3 17.2 C 11.3 km/h
140 21-06-2014 11:35:00 17.1 C 9.03 g/m*3 17.1 C 8.1 km/h
141 21-06-2014 11:40:00 17 C 8.83 g/m*3 17 C 6.4 km/h
142 21-06-2014 11:45:00 16.8 C 8.86 g/m*3 16.8 C 9.7 km/h
143 21-06-2014 11:50:00 17 C 8.97 g/m*3 17 C 9.7 km/h
144 21-06-2014 11:55:00 17.1 C 8.88 g/m*3 17.1 C 11.3 km/h
145 21-06-2014 12:00:00 17.1 C 9.03 g/m*3 17.1 C 9.7 km/h
146 21-06-2014 12:05:00 17.1 C 8.73 g/m*3 17.1 C 11.3 km/h
147 21-06-2014 12:10:00 17.1 C 9.03 g/m*3 17.1 C 8.1 km/h
148 21-06-2014 12:15:00 17.3 C 8.99 g/m*3 17.3 C 8.1 km/h
149 21-06-2014 12:20:00 17.6 C 8.85 g/m*3 17.6 C 9.7 km/h
150 21-06-2014 12:25:00 17.8 C 8.65 g/m*3 17.8 C 9.7 km/h
Sensor: Nr:Datum:Temp:Abs-Feuchte:Windchill:Wind:
Aussen-T/F 151 21-06-2014 12:30:00 17.9 C 8.4 g/m*3 17.9 C 9.7 km/h
152 21-06-2014 12:35:00 17.9 C 8.7 g/m*3 17.9 C 11.3 km/h
153 21-06-2014 12:40:00 18.2 C 8.7 g/m*3 18.2 C 12.9 km/h
154 21-06-2014 12:45:00 18.4 C 8.49 g/m*3 18.4 C 9.7 km/h
155 21-06-2014 12:50:00 18.4 C 8.34 g/m*3 18.4 C 8.1 km/h
156 21-06-2014 12:55:00 18.3 C 8.6 g/m*3 18.3 C 12.9 km/h
157 21-06-2014 13:00:00 18.6 C 8.59 g/m*3 18.6 C 8.1 km/h
158 21-06-2014 13:05:00 19.1 C 9.18 g/m*3 19.1 C 4.8 km/h
159 21-06-2014 13:10:00 19.5 C 8.56 g/m*3 19.5 C 11.3 km/h
160 21-06-2014 13:15:00 19.4 C 9.01 g/m*3 19.4 C 11.3 km/h
161 21-06-2014 13:20:00 19.6 C 9.28 g/m*3 19.6 C 9.7 km/h
162 21-06-2014 13:25:00 19.7 C 8.83 g/m*3 19.7 C 11.3 km/h
163 21-06-2014 13:30:00 19 C 8.47 g/m*3 19 C 11.3 km/h
164 21-06-2014 13:35:00 18.7 C 8.49 g/m*3 18.7 C 11.3 km/h
165 21-06-2014 13:40:00 18.8 C 8.54 g/m*3 18.8 C 11.3 km/h
166 21-06-2014 13:45:00 19.2 C 8.74 g/m*3 19.2 C 11.3 km/h
167 21-06-2014 13:50:00 19.7 C 8.66 g/m*3 19.7 C 8.1 km/h
168 21-06-2014 13:55:00 19.7 C 8.66 g/m*3 19.7 C 11.3 km/h
169 21-06-2014 14:00:00 19.2 C 8.41 g/m*3 19.2 C 14.5 km/h
170 21-06-2014 14:05:00 19.3 C 8.46 g/m*3 19.3 C 9.7 km/h
171 21-06-2014 14:10:00 19.3 C 8.13 g/m*3 19.3 C 11.3 km/h
172 21-06-2014 14:15:00 19.7 C 8.49 g/m*3 19.7 C 12.9 km/h
173 21-06-2014 14:20:00 19.7 C 8.83 g/m*3 19.7 C 9.7 km/h
174 21-06-2014 14:25:00 20.1 C 8.52 g/m*3 20.1 C 9.7 km/h
175 21-06-2014 14:30:00 20.4 C 9.02 g/m*3 20.4 C 11.3 km/h
Sensor: Nr:Datum:Temp:Abs-Feuchte:Windchill:Wind:
Aussen-T/F 176 21-06-2014 14:35:00 20.7 C 8.82 g/m*3 20.7 C 14.5 km/h
177 21-06-2014 14:40:00 20.7 C 8.46 g/m*3 20.7 C 9.7 km/h
178 21-06-2014 14:45:00 20.6 C 8.59 g/m*3 20.6 C 11.3 km/h
179 21-06-2014 14:50:00 20.3 C 8.27 g/m*3 20.3 C 6.4 km/h
180 21-06-2014 14:55:00 20.3 C 8.62 g/m*3 20.3 C 8.1 km/h
181 21-06-2014 15:00:00 20.7 C 8.82 g/m*3 20.7 C 11.3 km/h
182 21-06-2014 15:05:00 20.8 C 8.51 g/m*3 20.8 C 9.7 km/h
183 21-06-2014 15:10:00 20.6 C 8.41 g/m*3 20.6 C 14.5 km/h
184 21-06-2014 15:15:00 20.5 C 8.72 g/m*3 20.5 C 9.7 km/h
185 21-06-2014 15:20:00 20.6 C 8.95 g/m*3 20.6 C 6.4 km/h
186 21-06-2014 15:25:00 20.6 C 8.95 g/m*3 20.6 C 9.7 km/h
187 21-06-2014 15:30:00 20.8 C 9.05 g/m*3 20.8 C 11.3 km/h
188 21-06-2014 15:35:00 20.9 C 8.56 g/m*3 20.9 C 14.5 km/h
189 21-06-2014 15:40:00 21.1 C 8.66 g/m*3 21.1 C 8.1 km/h
190 21-06-2014 15:45:00 20.9 C 8.38 g/m*3 20.9 C 8.1 km/h
191 21-06-2014 15:50:00 20.8 C 8.69 g/m*3 20.8 C 8.1 km/h
192 21-06-2014 15:55:00 21.3 C 8.57 g/m*3 21.3 C 9.7 km/h
193 21-06-2014 16:00:00 21.6 C 9.1 g/m*3 21.6 C 8.1 km/h
194 21-06-2014 16:05:00 21.7 C 8.39 g/m*3 21.7 C 9.7 km/h
195 21-06-2014 16:10:00 21.7 C 8.77 g/m*3 21.7 C 6.4 km/h
196 21-06-2014 16:15:00 21.7 C 8.58 g/m*3 21.7 C 9.7 km/h
197 21-06-2014 16:20:00 21.3 C 8.76 g/m*3 21.3 C 8.1 km/h
198 21-06-2014 16:25:00 21.4 C 8.44 g/m*3 21.4 C 12.9 km/h
199 21-06-2014 16:30:00 21.6 C 8.91 g/m*3 21.6 C 12.9 km/h
200 21-06-2014 16:35:00 21.3 C 8.57 g/m*3 21.3 C 11.3 km/h
Sensor: Nr:Datum:Temp:Abs-Feuchte:Windchill:Wind:
Aussen-T/F 201 21-06-2014 16:40:00 21.1 C 8.84 g/m*3 21.1 C 11.3 km/h
202 21-06-2014 16:45:00 21.3 C 8.76 g/m*3 21.3 C 8.1 km/h
203 21-06-2014 16:50:00 21.3 C 8.57 g/m*3 21.3 C 11.3 km/h
204 21-06-2014 16:55:00 21.2 C 9.08 g/m*3 21.2 C 8.1 km/h
205 21-06-2014 17:00:00 21.4 C 8.62 g/m*3 21.4 C 8.1 km/h
206 21-06-2014 17:05:00 21.6 C 9.1 g/m*3 21.6 C 8.1 km/h
207 21-06-2014 17:10:00 21.9 C 8.68 g/m*3 21.9 C 11.3 km/h
208 21-06-2014 17:15:00 21.8 C 8.44 g/m*3 21.8 C 8.1 km/h
209 21-06-2014 17:20:00 21.4 C 8.25 g/m*3 21.4 C 8.1 km/h
210 21-06-2014 17:25:00 20.8 C 8.15 g/m*3 20.8 C 8.1 km/h
211 21-06-2014 17:30:00 20.4 C 8.31 g/m*3 20.4 C 8.1 km/h
212 21-06-2014 17:35:00 20.8 C 8.51 g/m*3 20.8 C 8.1 km/h
213 21-06-2014 17:40:00 21.3 C 8.39 g/m*3 21.3 C 4.8 km/h
214 21-06-2014 17:45:00 21.4 C 8.44 g/m*3 21.4 C 4.8 km/h
215 21-06-2014 17:50:00 21.7 C 8.58 g/m*3 21.7 C 6.4 km/h
216 21-06-2014 17:55:00 21.9 C 8.3 g/m*3 21.9 C 6.4 km/h
217 21-06-2014 18:00:00 22.1 C 8.39 g/m*3 22.1 C 8.1 km/h
218 21-06-2014 18:05:00 22.1 C 8.59 g/m*3 22.1 C 6.4 km/h
219 21-06-2014 18:10:00 22.2 C 8.64 g/m*3 22.2 C 9.7 km/h
220 21-06-2014 18:15:00 22.3 C 8.29 g/m*3 22.3 C 9.7 km/h
221 21-06-2014 18:20:00 22.2 C 8.25 g/m*3 22.2 C 6.4 km/h
222 21-06-2014 18:25:00 21.6 C 8.16 g/m*3 21.6 C 8.1 km/h
223 21-06-2014 18:30:00 21.2 C 8.15 g/m*3 21.2 C 8.1 km/h
224 21-06-2014 18:35:00 20.8 C 8.15 g/m*3 20.8 C 8.1 km/h
225 21-06-2014 18:40:00 20.4 C 8.14 g/m*3 20.4 C 4.8 km/h
Sensor: Nr:Datum:Temp:Abs-Feuchte:Windchill:Wind:
Aussen-T/F 226 21-06-2014 18:45:00 20.3 C 8.44 g/m*3 20.3 C 3.2 km/h
227 21-06-2014 18:50:00 20.5 C 8.36 g/m*3 20.5 C 4.8 km/h
228 21-06-2014 18:55:00 21 C 8.43 g/m*3 21 C 6.4 km/h
229 21-06-2014 19:00:00 21.4 C 8.44 g/m*3 21.4 C 3.2 km/h
230 21-06-2014 19:05:00 21.8 C 8.44 g/m*3 21.8 C 9.7 km/h
231 21-06-2014 19:10:00 22.1 C 8.2 g/m*3 22.1 C 9.7 km/h
232 21-06-2014 19:15:00 22 C 8.15 g/m*3 22 C 8.1 km/h
233 21-06-2014 19:20:00 21.8 C 8.06 g/m*3 21.8 C 6.4 km/h
234 21-06-2014 19:25:00 21.6 C 8.35 g/m*3 21.6 C 9.7 km/h
235 21-06-2014 19:30:00 21.3 C 8.02 g/m*3 21.3 C 9.7 km/h
236 21-06-2014 19:35:00 21 C 8.43 g/m*3 21 C 8.1 km/h
237 21-06-2014 19:40:00 20.8 C 8.15 g/m*3 20.8 C 4.8 km/h
238 21-06-2014 19:45:00 20.6 C 8.23 g/m*3 20.6 C 6.4 km/h
239 21-06-2014 19:50:00 20.4 C 8.49 g/m*3 20.4 C 4.8 km/h
240 21-06-2014 19:55:00 20.4 C 8.31 g/m*3 20.4 C 3.2 km/h
241 21-06-2014 20:00:00 20.3 C 8.09 g/m*3 20.3 C 3.2 km/h
242 21-06-2014 20:05:00 20.3 C 8.44 g/m*3 20.3 C 4.8 km/h
243 21-06-2014 20:10:00 20.3 C 8.44 g/m*3 20.3 C 3.2 km/h
244 21-06-2014 20:15:00 20.3 C 8.62 g/m*3 20.3 C 3.2 km/h
245 21-06-2014 20:20:00 20.3 C 8.62 g/m*3 20.3 C 4.8 km/h
246 21-06-2014 20:25:00 20.2 C 8.57 g/m*3 20.2 C 4.8 km/h
247 21-06-2014 20:30:00 20.1 C 8.52 g/m*3 20.1 C 4.8 km/h
248 21-06-2014 20:35:00 19.9 C 8.59 g/m*3 19.9 C 6.4 km/h
249 21-06-2014 20:40:00 19.8 C 8.54 g/m*3 19.8 C 4.8 km/h
250 21-06-2014 20:45:00 19.8 C 8.37 g/m*3 19.8 C 4.8 km/h
Sensor: Nr:Datum:Temp:Abs-Feuchte:Windchill:Wind:
Aussen-T/F 251 21-06-2014 20:50:00 19.7 C 8.32 g/m*3 19.7 C 1.6 km/h
252 21-06-2014 20:55:00 19.6 C 8.61 g/m*3 19.6 C 3.2 km/h
253 21-06-2014 21:00:00 19.5 C 9.06 g/m*3 19.5 C 0 km/h
254 21-06-2014 21:05:00 19.2 C 9.07 g/m*3 19.2 C 0 km/h
255 21-06-2014 21:10:00 18.6 C 9.23 g/m*3 18.6 C 0 km/h
256 21-06-2014 21:15:00 18 C 9.52 g/m*3 18 C 1.6 km/h
257 21-06-2014 21:20:00 17.4 C 9.48 g/m*3 17.4 C 0 km/h
258 21-06-2014 21:25:00 17.1 C 9.46 g/m*3 17.1 C 0 km/h
259 21-06-2014 21:30:00 16.7 C 9.52 g/m*3 16.7 C 1.6 km/h
260 21-06-2014 21:35:00 16.3 C 9.3 g/m*3 16.3 C 1.6 km/h
261 21-06-2014 21:40:00 16.1 C 9.32 g/m*3 16.1 C 1.6 km/h
262 21-06-2014 21:45:00 15.9 C 9.07 g/m*3 15.9 C 1.6 km/h
263 21-06-2014 21:50:00 15.8 C 9.02 g/m*3 15.8 C 1.6 km/h
264 21-06-2014 21:55:00 15.6 C 8.91 g/m*3 15.6 C 1.6 km/h
265 21-06-2014 22:00:00 15.5 C 8.99 g/m*3 15.5 C 1.6 km/h
266 21-06-2014 22:05:00 15.4 C 9.07 g/m*3 15.4 C 0 km/h
267 21-06-2014 22:10:00 15.3 C 9.01 g/m*3 15.3 C 0 km/h
268 21-06-2014 22:15:00 15.2 C 8.96 g/m*3 15.2 C 1.6 km/h
269 21-06-2014 22:20:00 15.1 C 9.03 g/m*3 15.1 C 0 km/h
270 21-06-2014 22:25:00 15.1 C 9.03 g/m*3 15.1 C 1.6 km/h
271 21-06-2014 22:30:00 15 C 8.85 g/m*3 15 C 0 km/h
272 21-06-2014 22:35:00 14.9 C 8.92 g/m*3 14.9 C 0 km/h
273 21-06-2014 22:40:00 14.8 C 8.99 g/m*3 14.8 C 0 km/h
274 21-06-2014 22:45:00 14.7 C 9.07 g/m*3 14.7 C 0 km/h
275 21-06-2014 22:50:00 14.6 C 8.88 g/m*3 14.6 C 0 km/h
Sensor: Nr:Datum:Temp:Abs-Feuchte:Windchill:Wind:
Aussen-T/F 276 21-06-2014 22:55:00 14.5 C 8.95 g/m*3 14.5 C 0 km/h
277 21-06-2014 23:00:00 14.4 C 8.9 g/m*3 14.4 C 0 km/h
278 21-06-2014 23:05:00 14.4 C 9.15 g/m*3 14.4 C 0 km/h
279 21-06-2014 23:10:00 13.9 C 8.87 g/m*3 13.9 C 0 km/h
280 21-06-2014 23:15:00 13.8 C 8.94 g/m*3 13.8 C 0 km/h
281 21-06-2014 23:20:00 13.7 C 8.88 g/m*3 13.7 C 0 km/h
282 21-06-2014 23:25:00 13.6 C 8.94 g/m*3 13.6 C 0 km/h
283 21-06-2014 23:30:00 13.4 C 8.83 g/m*3 13.4 C 0 km/h
284 21-06-2014 23:35:00 13.2 C 8.84 g/m*3 13.2 C 0 km/h
285 21-06-2014 23:40:00 13.2 C 8.96 g/m*3 13.2 C 0 km/h
286 21-06-2014 23:45:00 13.1 C 8.9 g/m*3 13.1 C 0 km/h
287 21-06-2014 23:50:00 12.9 C 8.9 g/m*3 12.9 C 0 km/h
288 21-06-2014 23:55:00 12.8 C 8.85 g/m*3 12.8 C 0 km/h
289 22-06-2014 00:00:00 12.7 C 8.79 g/m*3 12.7 C 0 km/h
290 22-06-2014 00:05:00 12.7 C 8.91 g/m*3 12.7 C 0 km/h
291 22-06-2014 00:10:00 12.6 C 8.85 g/m*3 12.6 C 0 km/h
292 22-06-2014 00:15:00 12.6 C 8.85 g/m*3 12.6 C 0 km/h
293 22-06-2014 00:20:00 12.5 C 8.8 g/m*3 12.5 C 0 km/h
294 22-06-2014 00:25:00 12.4 C 8.85 g/m*3 12.4 C 0 km/h
295 22-06-2014 00:30:00 12.4 C 8.85 g/m*3 12.4 C 0 km/h
296 22-06-2014 00:35:00 12.3 C 8.8 g/m*3 12.3 C 0 km/h
297 22-06-2014 00:40:00 12.3 C 8.8 g/m*3 12.3 C 1.6 km/h
298 22-06-2014 00:45:00 12.2 C 8.74 g/m*3 12.2 C 1.6 km/h
299 22-06-2014 00:50:00 12.1 C 8.79 g/m*3 12.1 C 0 km/h
300 22-06-2014 00:55:00 12.1 C 8.79 g/m*3 12.1 C 1.6 km/h
Sensor: Nr:Datum:Temp:Abs-Feuchte:Windchill:Wind:
Aussen-T/F 301 22-06-2014 01:00:00 12 C 8.74 g/m*3 12 C 0 km/h
302 22-06-2014 01:05:00 11.9 C 8.79 g/m*3 11.9 C 1.6 km/h
303 22-06-2014 01:10:00 11.8 C 8.63 g/m*3 11.8 C 0 km/h
304 22-06-2014 01:15:00 11.8 C 8.74 g/m*3 11.8 C 0 km/h
305 22-06-2014 01:20:00 11.7 C 8.68 g/m*3 11.7 C 0 km/h
306 22-06-2014 01:25:00 11.7 C 8.79 g/m*3 11.7 C 0 km/h
307 22-06-2014 01:30:00 11.6 C 8.63 g/m*3 11.6 C 0 km/h
308 22-06-2014 01:35:00 11.5 C 8.68 g/m*3 11.5 C 1.6 km/h
309 22-06-2014 01:40:00 11.4 C 8.62 g/m*3 11.4 C 0 km/h
310 22-06-2014 01:45:00 11.3 C 8.57 g/m*3 11.3 C 0 km/h
311 22-06-2014 01:50:00 11.2 C 8.62 g/m*3 11.2 C 3.2 km/h
312 22-06-2014 01:55:00 11.2 C 8.62 g/m*3 11.2 C 4.8 km/h
313 22-06-2014 02:00:00 11.1 C 8.56 g/m*3 11.1 C 3.2 km/h
314 22-06-2014 02:05:00 11.1 C 8.56 g/m*3 11.1 C 0 km/h
315 22-06-2014 02:10:00 10.9 C 8.55 g/m*3 10.9 C 0 km/h
316 22-06-2014 02:15:00 10.9 C 8.55 g/m*3 10.9 C 0 km/h
317 22-06-2014 02:20:00 10.8 C 8.5 g/m*3 10.8 C 0 km/h
318 22-06-2014 02:25:00 10.8 C 8.5 g/m*3 10.8 C 0 km/h
319 22-06-2014 02:30:00 10.8 C 8.6 g/m*3 10.8 C 0 km/h
320 22-06-2014 02:35:00 10.7 C 8.55 g/m*3 10.7 C 0 km/h
321 22-06-2014 02:40:00 10.6 C 8.49 g/m*3 10.6 C 0 km/h
322 22-06-2014 02:45:00 10.6 C 8.49 g/m*3 10.6 C 0 km/h
323 22-06-2014 02:50:00 10.5 C 8.44 g/m*3 10.5 C 0 km/h
324 22-06-2014 02:55:00 10.4 C 8.38 g/m*3 10.4 C 0 km/h
325 22-06-2014 03:00:00 10.4 C 8.38 g/m*3 10.4 C 0 km/h
Sensor: Nr:Datum:Temp:Abs-Feuchte:Windchill:Wind:
Aussen-T/F 326 22-06-2014 03:05:00 10.3 C 8.43 g/m*3 10.3 C 0 km/h
327 22-06-2014 03:10:00 10.2 C 8.37 g/m*3 10.2 C 0 km/h
328 22-06-2014 03:15:00 10.2 C 8.37 g/m*3 10.2 C 0 km/h
329 22-06-2014 03:20:00 10.2 C 8.37 g/m*3 10.2 C 0 km/h
330 22-06-2014 03:25:00 10.1 C 8.42 g/m*3 10.1 C 0 km/h
331 22-06-2014 03:30:00 10.1 C 8.42 g/m*3 10.1 C 0 km/h
332 22-06-2014 03:35:00 10 C 8.36 g/m*3 10 C 0 km/h
333 22-06-2014 03:40:00 9.9 C 8.31 g/m*3 9.9 C 0 km/h
334 22-06-2014 03:45:00 9.9 C 8.31 g/m*3 9.9 C 0 km/h
335 22-06-2014 03:50:00 9.9 C 8.31 g/m*3 9.9 C 0 km/h
336 22-06-2014 03:55:00 9.8 C 8.26 g/m*3 9.8 C 0 km/h
337 22-06-2014 04:00:00 9.8 C 8.35 g/m*3 9.8 C 0 km/h
338 22-06-2014 04:05:00 9.8 C 8.35 g/m*3 9.8 C 0 km/h
339 22-06-2014 04:10:00 9.7 C 8.3 g/m*3 9.7 C 0 km/h
340 22-06-2014 04:15:00 9.7 C 8.3 g/m*3 9.7 C 0 km/h
341 22-06-2014 04:20:00 9.7 C 8.3 g/m*3 9.7 C 0 km/h
342 22-06-2014 04:25:00 9.6 C 8.24 g/m*3 9.6 C 0 km/h
343 22-06-2014 04:30:00 9.6 C 8.24 g/m*3 9.6 C 0 km/h
344 22-06-2014 04:35:00 9.4 C 8.14 g/m*3 9.4 C 0 km/h
345 22-06-2014 04:40:00 9.4 C 8.23 g/m*3 9.4 C 0 km/h
346 22-06-2014 04:45:00 9.5 C 8.28 g/m*3 9.5 C 1.6 km/h
347 22-06-2014 04:50:00 9.6 C 8.34 g/m*3 9.6 C 3.2 km/h
348 22-06-2014 04:55:00 9.6 C 8.34 g/m*3 9.6 C 1.6 km/h
349 22-06-2014 05:00:00 9.7 C 8.39 g/m*3 9.7 C 0 km/h
350 22-06-2014 05:05:00 9.7 C 8.39 g/m*3 9.7 C 1.6 km/h
Sensor: Nr:Datum:Temp:Abs-Feuchte:Windchill:Wind:
Aussen-T/F 351 22-06-2014 05:10:00 9.7 C 8.39 g/m*3 9.7 C 0 km/h
352 22-06-2014 05:15:00 9.8 C 8.44 g/m*3 9.8 C 1.6 km/h
353 22-06-2014 05:20:00 9.9 C 8.5 g/m*3 9.9 C 3.2 km/h
354 22-06-2014 05:25:00 10 C 8.46 g/m*3 10 C 0 km/h
355 22-06-2014 05:30:00 10.1 C 8.51 g/m*3 10.1 C 0 km/h
356 22-06-2014 05:35:00 10.1 C 8.51 g/m*3 10.1 C 0 km/h
357 22-06-2014 05:40:00 10 C 8.36 g/m*3 10 C 0 km/h
358 22-06-2014 05:45:00 10 C 8.36 g/m*3 10 C 0 km/h
359 22-06-2014 05:50:00 10 C 8.36 g/m*3 10 C 0 km/h
360 22-06-2014 05:55:00 10 C 8.46 g/m*3 10 C 0 km/h
361 22-06-2014 06:00:00 10 C 8.46 g/m*3 10 C 3.2 km/h
362 22-06-2014 06:05:00 10 C 8.36 g/m*3 9.37 C 6.4 km/h
363 22-06-2014 06:10:00 10.1 C 8.42 g/m*3 10.1 C 1.6 km/h
364 22-06-2014 06:15:00 10.1 C 8.42 g/m*3 10.1 C 1.6 km/h
365 22-06-2014 06:20:00 10.1 C 8.42 g/m*3 10.1 C 0 km/h
366 22-06-2014 06:25:00 10.1 C 8.51 g/m*3 10.1 C 3.2 km/h
367 22-06-2014 06:30:00 10.1 C 8.51 g/m*3 10.1 C 0 km/h
368 22-06-2014 06:35:00 10.1 C 8.51 g/m*3 10.1 C 1.6 km/h
369 22-06-2014 06:40:00 10.2 C 8.56 g/m*3 10.2 C 4.8 km/h
370 22-06-2014 06:45:00 10.2 C 8.56 g/m*3 10.2 C 1.6 km/h
371 22-06-2014 06:50:00 10.3 C 8.52 g/m*3 10.3 C 3.2 km/h
372 22-06-2014 06:55:00 10.4 C 8.58 g/m*3 10.4 C 3.2 km/h
373 22-06-2014 07:00:00 10.4 C 8.58 g/m*3 10.4 C 3.2 km/h
374 22-06-2014 07:05:00 10.5 C 8.53 g/m*3 9.95 C 6.4 km/h
375 22-06-2014 07:10:00 10.6 C 8.59 g/m*3 10.6 C 4.8 km/h
Sensor: Nr:Datum:Temp:Abs-Feuchte:Windchill:Wind:
Aussen-T/F 376 22-06-2014 07:15:00 10.6 C 8.49 g/m*3 10.6 C 3.2 km/h
377 22-06-2014 07:20:00 10.7 C 8.55 g/m*3 10.7 C 4.8 km/h
378 22-06-2014 07:25:00 10.8 C 8.6 g/m*3 10.29 C 6.4 km/h
379 22-06-2014 07:30:00 11 C 8.71 g/m*3 11 C 0 km/h
380 22-06-2014 07:35:00 11.1 C 8.76 g/m*3 11.1 C 0 km/h
381 22-06-2014 07:40:00 11.3 C 8.77 g/m*3 11.3 C 1.6 km/h
382 22-06-2014 07:45:00 11.6 C 8.83 g/m*3 11.6 C 4.8 km/h
383 22-06-2014 07:50:00 11.7 C 8.79 g/m*3 11.7 C 3.2 km/h
384 22-06-2014 07:55:00 11.9 C 8.9 g/m*3 11.9 C 6.4 km/h
385 22-06-2014 08:00:00 12 C 8.95 g/m*3 12 C 4.8 km/h
386 22-06-2014 08:05:00 12.2 C 9.06 g/m*3 12.2 C 3.2 km/h
387 22-06-2014 08:10:00 12.3 C 9.01 g/m*3 12.3 C 6.4 km/h
388 22-06-2014 08:15:00 12.4 C 9.07 g/m*3 12.4 C 3.2 km/h
389 22-06-2014 08:20:00 12.6 C 9.18 g/m*3 12.6 C 3.2 km/h
390 22-06-2014 08:25:00 12.7 C 9.24 g/m*3 12.7 C 0 km/h
391 22-06-2014 08:30:00 12.8 C 9.3 g/m*3 12.8 C 3.2 km/h
392 22-06-2014 08:35:00 12.9 C 9.35 g/m*3 12.9 C 1.6 km/h
393 22-06-2014 08:40:00 13.2 C 9.53 g/m*3 13.2 C 1.6 km/h
394 22-06-2014 08:45:00 13.6 C 9.77 g/m*3 13.6 C 0 km/h
395 22-06-2014 08:50:00 14 C 9.89 g/m*3 14 C 0 km/h
396 22-06-2014 08:55:00 14.4 C 10.14 g/m*3 14.4 C 0 km/h
397 22-06-2014 09:00:00 14.9 C 10.2 g/m*3 14.9 C 0 km/h
398 22-06-2014 09:05:00 15.3 C 10.32 g/m*3 15.3 C 1.6 km/h
399 22-06-2014 09:10:00 15.8 C 10.77 g/m*3 15.8 C 1.6 km/h
400 22-06-2014 09:15:00 16.3 C 10.68 g/m*3 16.3 C 3.2 km/h
Sensor: Nr:Datum:Temp:Abs-Feuchte:Windchill:Wind:
Aussen-T/F 401 22-06-2014 09:20:00 16.6 C 10.74 g/m*3 16.6 C 4.8 km/h
402 22-06-2014 09:25:00 16.6 C 10.74 g/m*3 16.6 C 4.8 km/h
403 22-06-2014 09:30:00 16.7 C 10.94 g/m*3 16.7 C 11.3 km/h
404 22-06-2014 09:35:00 16.8 C 10.87 g/m*3 16.8 C 6.4 km/h
405 22-06-2014 09:40:00 17 C 10.85 g/m*3 17 C 12.9 km/h
406 22-06-2014 09:45:00 17.1 C 11.21 g/m*3 17.1 C 4.8 km/h
407 22-06-2014 09:50:00 17.2 C 11.13 g/m*3 17.2 C 4.8 km/h
408 22-06-2014 09:55:00 17.4 C 11.12 g/m*3 17.4 C 6.4 km/h
409 22-06-2014 10:00:00 17.7 C 11.32 g/m*3 17.7 C 4.8 km/h
410 22-06-2014 10:05:00 17.7 C 11.01 g/m*3 17.7 C 11.3 km/h
411 22-06-2014 10:10:00 17.8 C 11.08 g/m*3 17.8 C 9.7 km/h
412 22-06-2014 10:15:00 17.9 C 10.84 g/m*3 17.9 C 8.1 km/h
413 22-06-2014 10:20:00 17.9 C 10.99 g/m*3 17.9 C 9.7 km/h
414 22-06-2014 10:25:00 17.9 C 10.99 g/m*3 17.9 C 9.7 km/h
415 22-06-2014 10:30:00 17.8 C 10.78 g/m*3 17.8 C 4.8 km/h
416 22-06-2014 10:35:00 17.8 C 11.23 g/m*3 17.8 C 3.2 km/h
417 22-06-2014 10:40:00 18.3 C 11.1 g/m*3 18.3 C 6.4 km/h
418 22-06-2014 10:45:00 18.6 C 10.98 g/m*3 18.6 C 8.1 km/h
419 22-06-2014 10:50:00 18.8 C 10.63 g/m*3 18.8 C 6.4 km/h
420 22-06-2014 10:55:00 19.1 C 10.66 g/m*3 19.1 C 4.8 km/h
421 22-06-2014 11:00:00 19.4 C 10.18 g/m*3 19.4 C 12.9 km/h
422 22-06-2014 11:05:00 19.8 C 10.25 g/m*3 19.8 C 8.1 km/h
423 22-06-2014 11:10:00 19.7 C 10.19 g/m*3 19.7 C 12.9 km/h
424 22-06-2014 11:15:00 19.6 C 10.47 g/m*3 19.6 C 8.1 km/h
425 22-06-2014 11:20:00 19.6 C 9.79 g/m*3 19.6 C 9.7 km/h
Sensor: Nr:Datum:Temp:Abs-Feuchte:Windchill:Wind:
Aussen-T/F 426 22-06-2014 11:25:00 19.9 C 10.48 g/m*3 19.9 C 6.4 km/h
427 22-06-2014 11:30:00 19.9 C 10.14 g/m*3 19.9 C 9.7 km/h
428 22-06-2014 11:35:00 19.8 C 10.59 g/m*3 19.8 C 11.3 km/h
429 22-06-2014 11:40:00 19.5 C 10.57 g/m*3 19.5 C 11.3 km/h
430 22-06-2014 11:45:00 19.2 C 10.39 g/m*3 19.2 C 11.3 km/h
431 22-06-2014 11:50:00 19.1 C 10.33 g/m*3 19.1 C 11.3 km/h
432 22-06-2014 11:55:00 19.3 C 10.12 g/m*3 19.3 C 11.3 km/h
433 22-06-2014 12:00:00 19.8 C 10.42 g/m*3 19.8 C 12.9 km/h
434 22-06-2014 12:05:00 20.3 C 10.38 g/m*3 20.3 C 11.3 km/h
435 22-06-2014 12:10:00 20.6 C 10.38 g/m*3 20.6 C 14.5 km/h
436 22-06-2014 12:15:00 20.4 C 10.08 g/m*3 20.4 C 14.5 km/h
437 22-06-2014 12:20:00 20.2 C 10.14 g/m*3 20.2 C 12.9 km/h
438 22-06-2014 12:25:00 20.3 C 9.85 g/m*3 20.3 C 8.1 km/h
439 22-06-2014 12:30:00 20.4 C 10.26 g/m*3 20.4 C 4.8 km/h
440 22-06-2014 12:35:00 20.7 C 9.72 g/m*3 20.7 C 8.1 km/h
441 22-06-2014 12:40:00 20.9 C 9.11 g/m*3 20.9 C 19.3 km/h
442 22-06-2014 12:45:00 21.2 C 9.45 g/m*3 21.2 C 19.3 km/h
443 22-06-2014 12:50:00 21.5 C 9.43 g/m*3 21.5 C 8.1 km/h
444 22-06-2014 12:55:00 21.6 C 9.67 g/m*3 21.6 C 8.1 km/h
445 22-06-2014 13:00:00 21.8 C 9.98 g/m*3 21.8 C 9.7 km/h
446 22-06-2014 13:05:00 21.9 C 9.26 g/m*3 21.9 C 8.1 km/h
447 22-06-2014 13:10:00 22.1 C 9.76 g/m*3 22.1 C 9.7 km/h
448 22-06-2014 13:15:00 22 C 8.93 g/m*3 22 C 12.9 km/h
449 22-06-2014 13:20:00 21.6 C 9.29 g/m*3 21.6 C 12.9 km/h
450 22-06-2014 13:25:00 21.5 C 8.67 g/m*3 21.5 C 12.9 km/h
Sensor: Nr:Datum:Temp:Abs-Feuchte:Windchill:Wind:
Aussen-T/F 451 22-06-2014 13:30:00 21.4 C 8.81 g/m*3 21.4 C 14.5 km/h
452 22-06-2014 13:35:00 21.4 C 8.81 g/m*3 21.4 C 12.9 km/h
453 22-06-2014 14:00:00 21.4 C 8.62 g/m*3 21.4 C 9.7 km/h
454 22-06-2014 14:05:00 22 C 8.35 g/m*3 22 C 12.9 km/h
455 22-06-2014 14:10:00 22.6 C 9.24 g/m*3 22.6 C 9.7 km/h
456 22-06-2014 14:15:00 23.2 C 8.94 g/m*3 23.2 C 16.1 km/h
457 22-06-2014 14:20:00 23.2 C 8.11 g/m*3 23.2 C 9.7 km/h
458 22-06-2014 14:25:00 22.6 C 8.04 g/m*3 22.6 C 6.4 km/h
459 22-06-2014 14:30:00 22.7 C 8.28 g/m*3 22.7 C 11.3 km/h
460 22-06-2014 14:35:00 22.9 C 8.17 g/m*3 22.9 C 16.1 km/h
461 22-06-2014 14:40:00 22.6 C 8.04 g/m*3 22.6 C 16.1 km/h
462 22-06-2014 14:45:00 22.5 C 8.39 g/m*3 22.5 C 14.5 km/h
463 22-06-2014 14:50:00 22.6 C 8.24 g/m*3 22.6 C 12.9 km/h
464 22-06-2014 14:55:00 22.5 C 8.39 g/m*3 22.5 C 8.1 km/h
465 22-06-2014 15:00:00 22.4 C 8.74 g/m*3 22.4 C 9.7 km/h
466 22-06-2014 15:05:00 22.6 C 8.24 g/m*3 22.6 C 14.5 km/h
467 22-06-2014 15:10:00 22.7 C 8.28 g/m*3 22.7 C 9.7 km/h
468 22-06-2014 15:15:00 22.7 C 8.28 g/m*3 22.7 C 9.7 km/h
469 22-06-2014 15:20:00 22.3 C 7.9 g/m*3 22.3 C 6.4 km/h
470 22-06-2014 15:25:00 22.5 C 7.99 g/m*3 22.5 C 12.9 km/h
471 22-06-2014 15:30:00 22.9 C 7.97 g/m*3 22.9 C 12.9 km/h
472 22-06-2014 15:35:00 23.4 C 8.41 g/m*3 23.4 C 14.5 km/h
473 22-06-2014 15:40:00 23.6 C 8.29 g/m*3 23.6 C 17.7 km/h
474 22-06-2014 15:45:00 23.4 C 8.41 g/m*3 23.4 C 16.1 km/h
475 22-06-2014 15:50:00 23.7 C 8.13 g/m*3 23.7 C 12.9 km/h
Sensor: Nr:Datum:Temp:Abs-Feuchte:Windchill:Wind:
Aussen-T/F 476 22-06-2014 15:55:00 23.7 C 8.56 g/m*3 23.7 C 11.3 km/h
477 22-06-2014 16:00:00 23.9 C 8 g/m*3 23.9 C 12.9 km/h
478 22-06-2014 16:05:00 23.8 C 7.96 g/m*3 23.8 C 20.9 km/h
479 22-06-2014 16:10:00 23.8 C 8.17 g/m*3 23.8 C 9.7 km/h
480 22-06-2014 16:15:00 24 C 7.83 g/m*3 24 C 12.9 km/h
481 22-06-2014 16:20:00 23.9 C 7.79 g/m*3 23.9 C 9.7 km/h
482 22-06-2014 16:25:00 23.6 C 7.87 g/m*3 23.6 C 12.9 km/h
483 22-06-2014 16:30:00 23.4 C 7.99 g/m*3 23.4 C 6.4 km/h
484 22-06-2014 16:35:00 23.2 C 8.32 g/m*3 23.2 C 9.7 km/h
485 22-06-2014 16:40:00 23.3 C 8.36 g/m*3 23.3 C 16.1 km/h
486 22-06-2014 16:45:00 23.7 C 8.34 g/m*3 23.7 C 11.3 km/h
487 22-06-2014 16:50:00 23.9 C 8.22 g/m*3 23.9 C 11.3 km/h
488 22-06-2014 16:55:00 23.4 C 8.2 g/m*3 23.4 C 11.3 km/h
489 22-06-2014 17:00:00 23.4 C 8.2 g/m*3 23.4 C 11.3 km/h
490 22-06-2014 17:05:00 23.7 C 8.34 g/m*3 23.7 C 17.7 km/h
491 22-06-2014 17:10:00 23.6 C 8.08 g/m*3 23.6 C 16.1 km/h
492 22-06-2014 17:15:00 23.1 C 7.86 g/m*3 23.1 C 9.7 km/h
493 22-06-2014 17:20:00 22.9 C 8.38 g/m*3 22.9 C 14.5 km/h
494 22-06-2014 17:25:00 23.1 C 8.06 g/m*3 23.1 C 11.3 km/h
495 22-06-2014 17:30:00 23.1 C 8.27 g/m*3 23.1 C 9.7 km/h
496 22-06-2014 17:35:00 23.3 C 8.36 g/m*3 23.3 C 9.7 km/h
497 22-06-2014 17:40:00 23.7 C 8.34 g/m*3 23.7 C 11.3 km/h
498 22-06-2014 17:45:00 23.9 C 8.65 g/m*3 23.9 C 8.1 km/h
499 22-06-2014 17:50:00 23.9 C 8.22 g/m*3 23.9 C 8.1 km/h
500 22-06-2014 17:55:00 23.9 C 8.65 g/m*3 23.9 C 12.9 km/h
Sensor: Nr:Datum:Temp:Abs-Feuchte:Windchill:Wind:
Aussen-T/F 501 22-06-2014 18:00:00 23.6 C 8.29 g/m*3 23.6 C 14.5 km/h
502 22-06-2014 18:05:00 22.8 C 8.33 g/m*3 22.8 C 12.9 km/h
503 22-06-2014 18:10:00 22.3 C 8.29 g/m*3 22.3 C 9.7 km/h
504 22-06-2014 18:15:00 21.9 C 8.3 g/m*3 21.9 C 9.7 km/h
505 22-06-2014 18:20:00 21.8 C 8.44 g/m*3 21.8 C 8.1 km/h
506 22-06-2014 18:25:00 21.8 C 8.63 g/m*3 21.8 C 11.3 km/h
507 22-06-2014 18:30:00 21.7 C 8.58 g/m*3 21.7 C 9.7 km/h
508 22-06-2014 18:35:00 21.5 C 8.49 g/m*3 21.5 C 9.7 km/h
509 22-06-2014 18:40:00 21.6 C 8.72 g/m*3 21.6 C 9.7 km/h
510 22-06-2014 18:45:00 22.2 C 8.44 g/m*3 22.2 C 8.1 km/h
511 22-06-2014 18:50:00 22.7 C 8.89 g/m*3 22.7 C 9.7 km/h
512 22-06-2014 18:55:00 23 C 8.43 g/m*3 23 C 9.7 km/h
513 22-06-2014 19:00:00 23.2 C 8.52 g/m*3 23.2 C 8.1 km/h
514 22-06-2014 19:05:00 23.1 C 8.27 g/m*3 23.1 C 9.7 km/h
515 22-06-2014 19:10:00 22.6 C 8.44 g/m*3 22.6 C 12.9 km/h
516 22-06-2014 19:15:00 22.1 C 8.39 g/m*3 22.1 C 8.1 km/h
517 22-06-2014 19:20:00 21.7 C 8.39 g/m*3 21.7 C 14.5 km/h
518 22-06-2014 19:25:00 21.4 C 8.44 g/m*3 21.4 C 9.7 km/h
519 22-06-2014 19:30:00 21.3 C 8.39 g/m*3 21.3 C 6.4 km/h
520 22-06-2014 19:35:00 21.1 C 8.48 g/m*3 21.1 C 8.1 km/h
521 22-06-2014 19:40:00 20.9 C 8.56 g/m*3 20.9 C 4.8 km/h
522 22-06-2014 19:45:00 20.8 C 8.69 g/m*3 20.8 C 6.4 km/h
523 22-06-2014 19:50:00 20.8 C 8.69 g/m*3 20.8 C 6.4 km/h
524 22-06-2014 19:55:00 20.7 C 8.82 g/m*3 20.7 C 8.1 km/h
525 22-06-2014 20:00:00 20.6 C 8.95 g/m*3 20.6 C 8.1 km/h
Sensor: Nr:Datum:Temp:Abs-Feuchte:Windchill:Wind:
Aussen-T/F 526 22-06-2014 20:05:00 20.5 C 8.9 g/m*3 20.5 C 6.4 km/h
527 22-06-2014 20:10:00 20.4 C 8.67 g/m*3 20.4 C 4.8 km/h
528 22-06-2014 20:15:00 20.4 C 8.67 g/m*3 20.4 C 6.4 km/h
529 22-06-2014 20:20:00 20.4 C 8.67 g/m*3 20.4 C 3.2 km/h
530 22-06-2014 20:25:00 20.3 C 8.62 g/m*3 20.3 C 6.4 km/h
531 22-06-2014 20:30:00 20.2 C 8.74 g/m*3 20.2 C 6.4 km/h
532 22-06-2014 20:35:00 20.1 C 8.69 g/m*3 20.1 C 6.4 km/h
533 22-06-2014 20:40:00 19.9 C 8.59 g/m*3 19.9 C 4.8 km/h
534 22-06-2014 20:45:00 19.9 C 8.59 g/m*3 19.9 C 6.4 km/h
535 22-06-2014 20:50:00 19.8 C 8.54 g/m*3 19.8 C 4.8 km/h
536 22-06-2014 20:55:00 19.7 C 8.66 g/m*3 19.7 C 1.6 km/h
537 22-06-2014 21:00:00 19.6 C 8.78 g/m*3 19.6 C 1.6 km/h
538 22-06-2014 21:05:00 19.4 C 8.68 g/m*3 19.4 C 0 km/h
539 22-06-2014 21:10:00 19.3 C 8.96 g/m*3 19.3 C 1.6 km/h
540 22-06-2014 21:15:00 18.9 C 8.91 g/m*3 18.9 C 1.6 km/h
541 22-06-2014 21:20:00 18.5 C 9.02 g/m*3 18.5 C 0 km/h
542 22-06-2014 21:25:00 18.1 C 9.12 g/m*3 18.1 C 0 km/h
543 22-06-2014 21:30:00 17.6 C 9.15 g/m*3 17.6 C 0 km/h
544 22-06-2014 21:35:00 17.2 C 8.93 g/m*3 17.2 C 0 km/h
545 22-06-2014 21:40:00 16.9 C 9.06 g/m*3 16.9 C 0 km/h
546 22-06-2014 21:45:00 16.7 C 8.95 g/m*3 16.7 C 0 km/h
547 22-06-2014 21:50:00 16.6 C 9.04 g/m*3 16.6 C 0 km/h
548 22-06-2014 21:55:00 16.4 C 8.93 g/m*3 16.4 C 1.6 km/h
549 22-06-2014 22:00:00 16.2 C 8.96 g/m*3 16.2 C 0 km/h
550 22-06-2014 22:05:00 16.1 C 8.91 g/m*3 16.1 C 0 km/h
Sensor: Nr:Datum:Temp:Abs-Feuchte:Windchill:Wind:
Aussen-T/F 551 22-06-2014 22:10:00 16 C 8.99 g/m*3 16 C 0 km/h
552 22-06-2014 22:15:00 15.9 C 9.21 g/m*3 15.9 C 0 km/h
553 22-06-2014 22:20:00 15.8 C 9.15 g/m*3 15.8 C 1.6 km/h
554 22-06-2014 22:25:00 15.8 C 9.29 g/m*3 15.8 C 1.6 km/h
555 22-06-2014 22:30:00 15.7 C 9.23 g/m*3 15.7 C 0 km/h
556 22-06-2014 22:35:00 15.7 C 9.23 g/m*3 15.7 C 0 km/h
557 22-06-2014 22:40:00 15.7 C 9.23 g/m*3 15.7 C 0 km/h
558 22-06-2014 22:45:00 15.7 C 9.37 g/m*3 15.7 C 0 km/h
559 22-06-2014 22:50:00 15.7 C 9.37 g/m*3 15.7 C 0 km/h
560 22-06-2014 22:55:00 15.7 C 9.37 g/m*3 15.7 C 0 km/h
561 22-06-2014 23:00:00 15.6 C 9.31 g/m*3 15.6 C 0 km/h
562 22-06-2014 23:05:00 15.5 C 9.25 g/m*3 15.5 C 0 km/h
563 22-06-2014 23:10:00 15.5 C 9.25 g/m*3 15.5 C 0 km/h
564 22-06-2014 23:15:00 15.5 C 9.39 g/m*3 15.5 C 0 km/h
565 22-06-2014 23:20:00 15.5 C 9.39 g/m*3 15.5 C 0 km/h
566 22-06-2014 23:25:00 15.4 C 9.33 g/m*3 15.4 C 1.6 km/h
567 22-06-2014 23:30:00 15.3 C 9.27 g/m*3 15.3 C 0 km/h
568 22-06-2014 23:35:00 15.2 C 9.22 g/m*3 15.2 C 0 km/h
569 22-06-2014 23:40:00 15.1 C 9.16 g/m*3 15.1 C 0 km/h
570 22-06-2014 23:45:00 15 C 9.23 g/m*3 15 C 0 km/h
571 22-06-2014 23:50:00 14.8 C 9.12 g/m*3 14.8 C 0 km/h
572 22-06-2014 23:55:00 14.7 C 9.19 g/m*3 14.7 C 0 km/h
573 23-06-2014 00:00:00 14.4 C 9.15 g/m*3 14.4 C 0 km/h
574 23-06-2014 00:05:00 14.3 C 9.21 g/m*3 14.3 C 0 km/h
575 23-06-2014 00:10:00 14.3 C 9.21 g/m*3 14.3 C 0 km/h
Sensor: Nr:Datum:Temp:Abs-Feuchte:Windchill:Wind:
Aussen-T/F 576 23-06-2014 00:15:00 14.2 C 9.16 g/m*3 14.2 C 1.6 km/h
577 23-06-2014 00:20:00 14.3 C 9.21 g/m*3 14.3 C 1.6 km/h
578 23-06-2014 00:25:00 14.3 C 9.21 g/m*3 14.3 C 0 km/h
579 23-06-2014 00:30:00 14.2 C 9.16 g/m*3 14.2 C 0 km/h
580 23-06-2014 00:35:00 14.1 C 9.1 g/m*3 14.1 C 0 km/h
581 23-06-2014 00:40:00 13.9 C 9.11 g/m*3 13.9 C 0 km/h
582 23-06-2014 00:45:00 13.8 C 9.17 g/m*3 13.8 C 0 km/h
583 23-06-2014 00:50:00 13.7 C 9.24 g/m*3 13.7 C 0 km/h
584 23-06-2014 00:55:00 13.6 C 9.18 g/m*3 13.6 C 1.6 km/h
585 23-06-2014 01:00:00 13.6 C 9.18 g/m*3 13.6 C 0 km/h
586 23-06-2014 01:05:00 13.6 C 9.06 g/m*3 13.6 C 0 km/h
587 23-06-2014 01:10:00 13.4 C 9.07 g/m*3 13.4 C 0 km/h
588 23-06-2014 01:15:00 13.3 C 9.01 g/m*3 13.3 C 0 km/h
589 23-06-2014 01:20:00 13.2 C 9.07 g/m*3 13.2 C 0 km/h
590 23-06-2014 01:25:00 13.2 C 9.07 g/m*3 13.2 C 0 km/h
591 23-06-2014 01:30:00 13.1 C 9.01 g/m*3 13.1 C 0 km/h
592 23-06-2014 01:35:00 13 C 9.07 g/m*3 13 C 0 km/h
593 23-06-2014 01:40:00 12.9 C 9.02 g/m*3 12.9 C 0 km/h
594 23-06-2014 01:45:00 12.8 C 8.96 g/m*3 12.8 C 0 km/h
595 23-06-2014 01:50:00 12.6 C 8.96 g/m*3 12.6 C 0 km/h
596 23-06-2014 01:55:00 12.4 C 8.96 g/m*3 12.4 C 0 km/h
597 23-06-2014 02:00:00 12.3 C 8.9 g/m*3 12.3 C 0 km/h
598 23-06-2014 02:05:00 12.2 C 8.96 g/m*3 12.2 C 0 km/h
599 23-06-2014 02:10:00 12.1 C 9.01 g/m*3 12.1 C 0 km/h
600 23-06-2014 02:15:00 11.9 C 8.9 g/m*3 11.9 C 0 km/h
Sensor: Nr:Datum:Temp:Abs-Feuchte:Windchill:Wind:
Aussen-T/F 601 23-06-2014 02:20:00 11.8 C 8.84 g/m*3 11.8 C 0 km/h
602 23-06-2014 02:25:00 11.8 C 8.95 g/m*3 11.8 C 0 km/h
603 23-06-2014 02:30:00 11.7 C 8.89 g/m*3 11.7 C 0 km/h
604 23-06-2014 02:35:00 11.6 C 8.83 g/m*3 11.6 C 0 km/h
605 23-06-2014 02:40:00 11.6 C 8.94 g/m*3 11.6 C 0 km/h
606 23-06-2014 02:45:00 11.6 C 8.83 g/m*3 11.6 C 0 km/h
607 23-06-2014 02:50:00 11.5 C 8.88 g/m*3 11.5 C 0 km/h
608 23-06-2014 02:55:00 11.4 C 8.83 g/m*3 11.4 C 0 km/h
609 23-06-2014 03:00:00 11.3 C 8.77 g/m*3 11.3 C 0 km/h
610 23-06-2014 03:05:00 11.2 C 8.72 g/m*3 11.2 C 0 km/h
611 23-06-2014 03:10:00 11.2 C 8.82 g/m*3 11.2 C 0 km/h
612 23-06-2014 03:15:00 11.1 C 8.76 g/m*3 11.1 C 0 km/h
613 23-06-2014 03:20:00 10.9 C 8.65 g/m*3 10.9 C 0 km/h
614 23-06-2014 03:25:00 10.9 C 8.75 g/m*3 10.9 C 0 km/h
615 23-06-2014 03:30:00 10.8 C 8.7 g/m*3 10.8 C 0 km/h
616 23-06-2014 03:35:00 10.8 C 8.7 g/m*3 10.8 C 0 km/h
617 23-06-2014 03:40:00 10.7 C 8.74 g/m*3 10.7 C 0 km/h
618 23-06-2014 03:45:00 10.7 C 8.74 g/m*3 10.7 C 0 km/h
619 23-06-2014 03:50:00 10.6 C 8.69 g/m*3 10.6 C 0 km/h
620 23-06-2014 03:55:00 10.6 C 8.69 g/m*3 10.6 C 0 km/h
621 23-06-2014 04:00:00 10.5 C 8.63 g/m*3 10.5 C 0 km/h
622 23-06-2014 04:05:00 10.4 C 8.67 g/m*3 10.4 C 0 km/h
623 23-06-2014 04:10:00 10.4 C 8.67 g/m*3 10.4 C 0 km/h
624 23-06-2014 04:15:00 10.3 C 8.62 g/m*3 10.3 C 0 km/h
625 23-06-2014 04:20:00 10.3 C 8.62 g/m*3 10.3 C 0 km/h
Sensor: Nr:Datum:Temp:Abs-Feuchte:Windchill:Wind:
Aussen-T/F 626 23-06-2014 04:25:00 10.2 C 8.56 g/m*3 10.2 C 0 km/h
627 23-06-2014 04:30:00 10.2 C 8.56 g/m*3 10.2 C 0 km/h
628 23-06-2014 04:35:00 10.1 C 8.51 g/m*3 10.1 C 0 km/h
629 23-06-2014 04:40:00 10.1 C 8.51 g/m*3 10.1 C 0 km/h
630 23-06-2014 04:45:00 10 C 8.55 g/m*3 10 C 0 km/h
631 23-06-2014 04:50:00 9.9 C 8.5 g/m*3 9.9 C 0 km/h
632 23-06-2014 04:55:00 9.9 C 8.5 g/m*3 9.9 C 0 km/h
633 23-06-2014 05:00:00 9.8 C 8.44 g/m*3 9.8 C 0 km/h
634 23-06-2014 05:05:00 9.8 C 8.44 g/m*3 9.8 C 0 km/h
635 23-06-2014 05:10:00 9.8 C 8.44 g/m*3 9.8 C 0 km/h
636 23-06-2014 05:15:00 9.8 C 8.54 g/m*3 9.8 C 0 km/h
637 23-06-2014 05:20:00 9.8 C 8.54 g/m*3 9.8 C 0 km/h
638 23-06-2014 05:25:00 9.8 C 8.54 g/m*3 9.8 C 0 km/h
639 23-06-2014 05:30:00 9.8 C 8.54 g/m*3 9.8 C 1.6 km/h
640 23-06-2014 05:35:00 9.8 C 8.54 g/m*3 9.8 C 0 km/h
641 23-06-2014 05:40:00 9.8 C 8.54 g/m*3 9.8 C 0 km/h
642 23-06-2014 05:45:00 9.8 C 8.54 g/m*3 9.8 C 0 km/h
643 23-06-2014 05:50:00 9.9 C 8.59 g/m*3 9.9 C 0 km/h
644 23-06-2014 05:55:00 9.9 C 8.59 g/m*3 9.9 C 0 km/h
645 23-06-2014 06:00:00 9.9 C 8.59 g/m*3 9.9 C 0 km/h
646 23-06-2014 06:05:00 9.9 C 8.59 g/m*3 9.9 C 0 km/h
647 23-06-2014 06:10:00 9.9 C 8.59 g/m*3 9.9 C 0 km/h
648 23-06-2014 06:15:00 10 C 8.55 g/m*3 10 C 0 km/h
649 23-06-2014 06:20:00 10.1 C 8.61 g/m*3 10.1 C 0 km/h
650 23-06-2014 06:25:00 10 C 8.55 g/m*3 10 C 0 km/h
Sensor: Nr:Datum:Temp:Abs-Feuchte:Windchill:Wind:
Aussen-T/F 651 23-06-2014 06:30:00 10 C 8.55 g/m*3 10 C 0 km/h
652 23-06-2014 06:35:00 9.9 C 8.5 g/m*3 9.9 C 0 km/h
653 23-06-2014 06:40:00 9.9 C 8.59 g/m*3 9.9 C 0 km/h
654 23-06-2014 06:45:00 9.9 C 8.5 g/m*3 9.9 C 0 km/h
655 23-06-2014 06:50:00 9.9 C 8.59 g/m*3 9.9 C 0 km/h
656 23-06-2014 06:55:00 9.9 C 8.59 g/m*3 9.9 C 0 km/h
657 23-06-2014 07:00:00 9.9 C 8.59 g/m*3 9.9 C 0 km/h
658 23-06-2014 07:05:00 9.9 C 8.59 g/m*3 9.9 C 0 km/h
659 23-06-2014 07:10:00 10 C 8.64 g/m*3 10 C 0 km/h
660 23-06-2014 07:15:00 10.1 C 8.7 g/m*3 10.1 C 0 km/h
661 23-06-2014 07:20:00 10.2 C 8.76 g/m*3 10.2 C 0 km/h
662 23-06-2014 07:25:00 10.3 C 8.81 g/m*3 10.3 C 0 km/h
663 23-06-2014 07:30:00 10.6 C 9.08 g/m*3 10.6 C 0 km/h
664 23-06-2014 07:35:00 10.7 C 9.13 g/m*3 10.7 C 0 km/h
665 23-06-2014 07:40:00 10.9 C 9.15 g/m*3 10.9 C 0 km/h
666 23-06-2014 07:45:00 11.1 C 9.27 g/m*3 11.1 C 0 km/h
667 23-06-2014 07:50:00 11.2 C 9.33 g/m*3 11.2 C 0 km/h
668 23-06-2014 07:55:00 11.3 C 9.28 g/m*3 11.3 C 0 km/h
669 23-06-2014 08:00:00 11.6 C 9.46 g/m*3 11.6 C 0 km/h
670 23-06-2014 08:05:00 11.8 C 9.47 g/m*3 11.8 C 0 km/h
671 23-06-2014 08:10:00 12.1 C 9.54 g/m*3 12.1 C 0 km/h
672 23-06-2014 08:15:00 12.3 C 9.45 g/m*3 12.3 C 0 km/h
673 23-06-2014 08:20:00 12.8 C 9.63 g/m*3 12.8 C 0 km/h
674 23-06-2014 08:25:00 13.2 C 9.76 g/m*3 13.2 C 0 km/h
675 23-06-2014 08:30:00 13.5 C 9.71 g/m*3 13.5 C 1.6 km/h
Sensor: Nr:Datum:Temp:Abs-Feuchte:Windchill:Wind:
Aussen-T/F 676 23-06-2014 08:35:00 13.7 C 9.71 g/m*3 13.7 C 1.6 km/h
677 23-06-2014 08:40:00 13.9 C 9.59 g/m*3 13.9 C 0 km/h
678 23-06-2014 08:45:00 14.1 C 9.83 g/m*3 14.1 C 0 km/h
679 23-06-2014 08:50:00 14.4 C 9.89 g/m*3 14.4 C 3.2 km/h
680 23-06-2014 08:55:00 14.7 C 9.95 g/m*3 14.7 C 4.8 km/h
681 23-06-2014 09:00:00 15 C 9.87 g/m*3 15 C 4.8 km/h
682 23-06-2014 09:05:00 15.2 C 9.86 g/m*3 15.2 C 1.6 km/h
683 23-06-2014 09:10:00 15.2 C 9.86 g/m*3 15.2 C 3.2 km/h
684 23-06-2014 09:15:00 15.3 C 9.92 g/m*3 15.3 C 6.4 km/h
685 23-06-2014 09:20:00 15.2 C 9.86 g/m*3 15.2 C 6.4 km/h
686 23-06-2014 09:25:00 15.2 C 9.73 g/m*3 15.2 C 1.6 km/h
687 23-06-2014 09:30:00 15.2 C 9.73 g/m*3 15.2 C 4.8 km/h
688 23-06-2014 09:35:00 15.3 C 9.79 g/m*3 15.3 C 4.8 km/h
689 23-06-2014 09:40:00 15.5 C 9.91 g/m*3 15.5 C 3.2 km/h
690 23-06-2014 09:45:00 15.8 C 9.69 g/m*3 15.8 C 4.8 km/h
691 23-06-2014 09:50:00 15.9 C 9.62 g/m*3 15.9 C 4.8 km/h
692 23-06-2014 09:55:00 16.2 C 9.65 g/m*3 16.2 C 4.8 km/h
693 23-06-2014 10:00:00 16.5 C 9.97 g/m*3 16.5 C 6.4 km/h
694 23-06-2014 10:05:00 17.1 C 9.9 g/m*3 17.1 C 6.4 km/h
695 23-06-2014 10:10:00 17.4 C 9.63 g/m*3 17.4 C 6.4 km/h
696 23-06-2014 10:15:00 17.6 C 9.75 g/m*3 17.6 C 8.1 km/h
697 23-06-2014 10:20:00 17.9 C 9.77 g/m*3 17.9 C 8.1 km/h
698 23-06-2014 10:25:00 17.9 C 9.62 g/m*3 17.9 C 8.1 km/h
699 23-06-2014 10:30:00 17.7 C 9.35 g/m*3 17.7 C 8.1 km/h
700 23-06-2014 10:35:00 17.8 C 9.56 g/m*3 17.8 C 6.4 km/h
Sensor: Nr:Datum:Temp:Abs-Feuchte:Windchill:Wind:
Aussen-T/F 701 23-06-2014 10:40:00 17.9 C 9.47 g/m*3 17.9 C 8.1 km/h
702 23-06-2014 10:45:00 18.2 C 9.64 g/m*3 18.2 C 6.4 km/h
703 23-06-2014 10:50:00 18.5 C 9.49 g/m*3 18.5 C 8.1 km/h
704 23-06-2014 10:55:00 18.4 C 9.12 g/m*3 18.4 C 8.1 km/h
705 23-06-2014 11:00:00 18.3 C 9.54 g/m*3 18.3 C 9.7 km/h
706 23-06-2014 11:05:00 18.5 C 9.33 g/m*3 18.5 C 9.7 km/h
707 23-06-2014 11:10:00 18.6 C 9.39 g/m*3 18.6 C 8.1 km/h
708 23-06-2014 11:15:00 18.7 C 9.61 g/m*3 18.7 C 9.7 km/h
709 23-06-2014 11:20:00 18.9 C 9.4 g/m*3 18.9 C 6.4 km/h
710 23-06-2014 11:25:00 19.1 C 9.67 g/m*3 19.1 C 8.1 km/h
711 23-06-2014 11:30:00 19.3 C 9.62 g/m*3 19.3 C 4.8 km/h
712 23-06-2014 11:35:00 19.6 C 9.45 g/m*3 19.6 C 8.1 km/h
713 23-06-2014 11:40:00 19.6 C 9.28 g/m*3 19.6 C 8.1 km/h
714 23-06-2014 11:45:00 19.8 C 9.22 g/m*3 19.8 C 11.3 km/h
715 23-06-2014 11:50:00 19.9 C 9.11 g/m*3 19.9 C 9.7 km/h
716 23-06-2014 11:55:00 19.8 C 9.39 g/m*3 19.8 C 8.1 km/h
717 23-06-2014 12:00:00 19.8 C 9.39 g/m*3 19.8 C 8.1 km/h
718 23-06-2014 12:05:00 19.8 C 9.39 g/m*3 19.8 C 11.3 km/h
719 23-06-2014 12:10:00 19.8 C 9.22 g/m*3 19.8 C 12.9 km/h
720 23-06-2014 12:15:00 20.2 C 9.27 g/m*3 20.2 C 12.9 km/h
721 23-06-2014 12:20:00 20.3 C 8.97 g/m*3 20.3 C 8.1 km/h
722 23-06-2014 12:25:00 20.5 C 9.43 g/m*3 20.5 C 8.1 km/h
723 23-06-2014 12:30:00 20.6 C 9.31 g/m*3 20.6 C 9.7 km/h
724 23-06-2014 12:35:00 20.7 C 9.36 g/m*3 20.7 C 6.4 km/h
725 23-06-2014 12:40:00 20.6 C 9.13 g/m*3 20.6 C 9.7 km/h
Sensor: Nr:Datum:Temp:Abs-Feuchte:Windchill:Wind:
Aussen-T/F 726 23-06-2014 12:45:00 20.7 C 9.18 g/m*3 20.7 C 11.3 km/h
727 23-06-2014 12:50:00 21 C 8.98 g/m*3 21 C 11.3 km/h
728 23-06-2014 12:55:00 20.9 C 9.29 g/m*3 20.9 C 12.9 km/h
729 23-06-2014 13:00:00 21 C 9.53 g/m*3 21 C 8.1 km/h
730 23-06-2014 13:05:00 20.9 C 9.47 g/m*3 20.9 C 6.4 km/h
731 23-06-2014 13:10:00 20.8 C 9.23 g/m*3 20.8 C 6.4 km/h
732 23-06-2014 13:15:00 21.1 C 8.84 g/m*3 21.1 C 12.9 km/h
733 23-06-2014 13:20:00 21.3 C 8.95 g/m*3 21.3 C 12.9 km/h
734 23-06-2014 13:25:00 21.3 C 8.76 g/m*3 21.3 C 9.7 km/h
735 23-06-2014 13:30:00 21.7 C 9.92 g/m*3 21.7 C 9.7 km/h
736 23-06-2014 13:35:00 22 C 9.32 g/m*3 22 C 14.5 km/h
737 23-06-2014 13:40:00 21.8 C 9.21 g/m*3 21.8 C 11.3 km/h
738 23-06-2014 13:45:00 21.7 C 9.16 g/m*3 21.7 C 6.4 km/h
739 23-06-2014 13:50:00 21.9 C 9.07 g/m*3 21.9 C 11.3 km/h
740 23-06-2014 13:55:00 21.9 C 9.07 g/m*3 21.9 C 8.1 km/h
741 23-06-2014 14:00:00 21.9 C 9.26 g/m*3 21.9 C 9.7 km/h
742 23-06-2014 14:05:00 21.9 C 8.88 g/m*3 21.9 C 9.7 km/h
743 23-06-2014 14:10:00 21.9 C 8.88 g/m*3 21.9 C 8.1 km/h
744 23-06-2014 14:15:00 21.9 C 9.46 g/m*3 21.9 C 11.3 km/h
745 23-06-2014 14:20:00 22.3 C 9.48 g/m*3 22.3 C 9.7 km/h
746 23-06-2014 14:25:00 22.4 C 9.33 g/m*3 22.4 C 14.5 km/h
747 23-06-2014 14:30:00 22.6 C 9.44 g/m*3 22.6 C 11.3 km/h
748 23-06-2014 14:35:00 22.4 C 8.74 g/m*3 22.4 C 4.8 km/h
749 23-06-2014 14:40:00 22.3 C 9.28 g/m*3 22.3 C 8.1 km/h
750 23-06-2014 14:45:00 22.7 C 8.89 g/m*3 22.7 C 9.7 km/h
Sensor: Nr:Datum:Temp:Abs-Feuchte:Windchill:Wind:
Aussen-T/F 751 23-06-2014 14:50:00 22.9 C 8.99 g/m*3 22.9 C 9.7 km/h
752 23-06-2014 14:55:00 23.1 C 9.1 g/m*3 23.1 C 4.8 km/h
753 23-06-2014 15:00:00 23 C 8.63 g/m*3 23 C 8.1 km/h
754 23-06-2014 15:05:00 23 C 8.84 g/m*3 23 C 4.8 km/h
755 23-06-2014 15:10:00 23.1 C 8.89 g/m*3 23.1 C 3.2 km/h
756 23-06-2014 15:15:00 23.3 C 9.41 g/m*3 23.3 C 11.3 km/h
757 23-06-2014 15:20:00 23.3 C 9.41 g/m*3 23.3 C 8.1 km/h
758 23-06-2014 15:25:00 23.8 C 8.6 g/m*3 23.8 C 8.1 km/h
759 23-06-2014 15:30:00 23.9 C 8.22 g/m*3 23.9 C 8.1 km/h
760 23-06-2014 15:35:00 24.1 C 9.19 g/m*3 24.1 C 9.7 km/h
761 23-06-2014 15:40:00 24.3 C 8.63 g/m*3 24.3 C 11.3 km/h
762 23-06-2014 15:45:00 24.3 C 8.63 g/m*3 24.3 C 6.4 km/h
763 23-06-2014 15:50:00 24.2 C 8.8 g/m*3 24.2 C 11.3 km/h
764 23-06-2014 15:55:00 24.1 C 9.19 g/m*3 24.1 C 9.7 km/h
765 23-06-2014 16:00:00 23.9 C 8.65 g/m*3 23.9 C 11.3 km/h
766 23-06-2014 16:05:00 24.1 C 9.41 g/m*3 24.1 C 9.7 km/h
767 23-06-2014 16:10:00 24.3 C 8.63 g/m*3 24.3 C 9.7 km/h
768 23-06-2014 16:15:00 24.2 C 8.8 g/m*3 24.2 C 8.1 km/h
769 23-06-2014 16:20:00 24.1 C 8.75 g/m*3 24.1 C 8.1 km/h
770 23-06-2014 16:25:00 23.9 C 8.65 g/m*3 23.9 C 11.3 km/h
771 23-06-2014 16:30:00 23.9 C 8.65 g/m*3 23.9 C 11.3 km/h
772 23-06-2014 16:35:00 23.9 C 8.44 g/m*3 23.9 C 6.4 km/h
773 23-06-2014 16:40:00 24.1 C 8.97 g/m*3 24.1 C 14.5 km/h
774 23-06-2014 16:45:00 24.7 C 8.83 g/m*3 24.7 C 11.3 km/h
775 23-06-2014 16:50:00 24.6 C 8.55 g/m*3 24.6 C 14.5 km/h
Sensor: Nr:Datum:Temp:Abs-Feuchte:Windchill:Wind:
Aussen-T/F 776 23-06-2014 16:55:00 24.5 C 8.5 g/m*3 24.5 C 8.1 km/h
777 23-06-2014 17:00:00 24.4 C 8.9 g/m*3 24.4 C 8.1 km/h
778 23-06-2014 17:05:00 24.3 C 9.07 g/m*3 24.3 C 11.3 km/h
779 23-06-2014 17:10:00 24.6 C 9 g/m*3 24.6 C 8.1 km/h
780 23-06-2014 17:15:00 24.7 C 9.05 g/m*3 24.7 C 4.8 km/h
781 23-06-2014 17:20:00 24.3 C 8.85 g/m*3 24.3 C 9.7 km/h
782 23-06-2014 17:25:00 23.8 C 9.03 g/m*3 23.8 C 8.1 km/h
783 23-06-2014 17:30:00 23.8 C 8.82 g/m*3 23.8 C 12.9 km/h
784 23-06-2014 17:35:00 23.8 C 8.82 g/m*3 23.8 C 11.3 km/h
785 23-06-2014 17:40:00 24 C 9.14 g/m*3 24 C 16.1 km/h
786 23-06-2014 17:45:00 24.1 C 8.97 g/m*3 24.1 C 6.4 km/h
787 23-06-2014 17:50:00 24.1 C 8.97 g/m*3 24.1 C 9.7 km/h
788 23-06-2014 17:55:00 24.2 C 8.8 g/m*3 24.2 C 11.3 km/h
789 23-06-2014 18:00:00 23.8 C 8.82 g/m*3 23.8 C 9.7 km/h
790 23-06-2014 18:05:00 23.8 C 8.82 g/m*3 23.8 C 8.1 km/h
791 23-06-2014 18:10:00 23.6 C 8.72 g/m*3 23.6 C 9.7 km/h
792 23-06-2014 18:15:00 23.3 C 8.78 g/m*3 23.3 C 8.1 km/h
793 23-06-2014 18:20:00 23.3 C 8.78 g/m*3 23.3 C 9.7 km/h
794 23-06-2014 18:25:00 23.2 C 8.73 g/m*3 23.2 C 9.7 km/h
795 23-06-2014 18:30:00 23.2 C 8.73 g/m*3 23.2 C 9.7 km/h
796 23-06-2014 18:35:00 23.3 C 8.99 g/m*3 23.3 C 4.8 km/h
797 23-06-2014 18:40:00 23.3 C 8.99 g/m*3 23.3 C 9.7 km/h
798 23-06-2014 18:45:00 23.4 C 9.04 g/m*3 23.4 C 11.3 km/h
799 23-06-2014 18:50:00 23.4 C 8.83 g/m*3 23.4 C 11.3 km/h
800 23-06-2014 18:55:00 23.6 C 8.93 g/m*3 23.6 C 11.3 km/h
Sensor: Nr:Datum:Temp:Abs-Feuchte:Windchill:Wind:
Aussen-T/F 801 23-06-2014 19:00:00 23.6 C 8.72 g/m*3 23.6 C 12.9 km/h
802 23-06-2014 19:05:00 23.3 C 8.78 g/m*3 23.3 C 9.7 km/h
803 23-06-2014 19:10:00 22.8 C 8.74 g/m*3 22.8 C 11.3 km/h
804 23-06-2014 19:15:00 22.6 C 8.84 g/m*3 22.6 C 11.3 km/h
805 23-06-2014 19:20:00 22.6 C 8.84 g/m*3 22.6 C 12.9 km/h
806 23-06-2014 19:25:00 22.4 C 8.94 g/m*3 22.4 C 9.7 km/h
807 23-06-2014 19:30:00 22.3 C 8.89 g/m*3 22.3 C 9.7 km/h
808 23-06-2014 19:35:00 22.3 C 8.89 g/m*3 22.3 C 9.7 km/h
809 23-06-2014 19:40:00 22.1 C 8.78 g/m*3 22.1 C 11.3 km/h
810 23-06-2014 19:45:00 21.9 C 8.88 g/m*3 21.9 C 9.7 km/h
811 23-06-2014 19:50:00 21.8 C 8.63 g/m*3 21.8 C 9.7 km/h
812 23-06-2014 19:55:00 21.6 C 8.91 g/m*3 21.6 C 4.8 km/h
813 23-06-2014 20:00:00 21.6 C 8.91 g/m*3 21.6 C 9.7 km/h
814 23-06-2014 20:05:00 21.5 C 8.86 g/m*3 21.5 C 6.4 km/h
815 23-06-2014 20:10:00 21.5 C 8.86 g/m*3 21.5 C 6.4 km/h
816 23-06-2014 20:15:00 21.4 C 8.81 g/m*3 21.4 C 6.4 km/h
817 23-06-2014 20:20:00 21.5 C 9.05 g/m*3 21.5 C 9.7 km/h
818 23-06-2014 20:25:00 21.5 C 8.86 g/m*3 21.5 C 8.1 km/h
819 23-06-2014 20:30:00 21.4 C 8.81 g/m*3 21.4 C 8.1 km/h
820 23-06-2014 20:35:00 21.3 C 8.95 g/m*3 21.3 C 8.1 km/h
821 23-06-2014 20:40:00 21.1 C 9.03 g/m*3 21.1 C 9.7 km/h
822 23-06-2014 20:45:00 20.9 C 8.74 g/m*3 20.9 C 11.3 km/h
823 23-06-2014 20:50:00 20.7 C 8.82 g/m*3 20.7 C 8.1 km/h
824 23-06-2014 20:55:00 20.7 C 8.82 g/m*3 20.7 C 8.1 km/h
825 23-06-2014 21:00:00 20.6 C 8.95 g/m*3 20.6 C 11.3 km/h
Sensor: Nr:Datum:Temp:Abs-Feuchte:Windchill:Wind:
Aussen-T/F 826 23-06-2014 21:05:00 20.4 C 9.02 g/m*3 20.4 C 8.1 km/h
827 23-06-2014 21:10:00 20.4 C 9.02 g/m*3 20.4 C 4.8 km/h
828 23-06-2014 21:15:00 20.3 C 8.97 g/m*3 20.3 C 4.8 km/h
829 23-06-2014 21:20:00 20.3 C 8.97 g/m*3 20.3 C 3.2 km/h
830 23-06-2014 21:25:00 20.1 C 9.04 g/m*3 20.1 C 9.7 km/h
831 23-06-2014 21:30:00 20 C 8.99 g/m*3 20 C 3.2 km/h
832 23-06-2014 21:35:00 19.9 C 9.11 g/m*3 19.9 C 6.4 km/h
833 23-06-2014 21:40:00 19.7 C 9.17 g/m*3 19.7 C 3.2 km/h
834 23-06-2014 21:45:00 19.6 C 9.12 g/m*3 19.6 C 1.6 km/h
835 23-06-2014 21:50:00 19.3 C 9.29 g/m*3 19.3 C 0 km/h
836 23-06-2014 21:55:00 18.9 C 9.4 g/m*3 18.9 C 0 km/h
837 23-06-2014 22:00:00 18.4 C 9.44 g/m*3 18.4 C 0 km/h
838 23-06-2014 22:05:00 17.8 C 9.41 g/m*3 17.8 C 0 km/h
839 23-06-2014 22:10:00 17.4 C 9.48 g/m*3 17.4 C 0 km/h
840 23-06-2014 22:15:00 17.1 C 9.32 g/m*3 17.1 C 0 km/h
841 23-06-2014 22:20:00 16.8 C 9.29 g/m*3 16.8 C 0 km/h
842 23-06-2014 22:25:00 16.7 C 9.38 g/m*3 16.7 C 1.6 km/h
843 23-06-2014 22:30:00 16.7 C 9.38 g/m*3 16.7 C 4.8 km/h
844 23-06-2014 22:35:00 16.6 C 9.32 g/m*3 16.6 C 0 km/h
845 23-06-2014 22:40:00 16.3 C 9.3 g/m*3 16.3 C 0 km/h
846 23-06-2014 22:45:00 16.2 C 9.38 g/m*3 16.2 C 0 km/h
847 23-06-2014 22:50:00 16.1 C 9.32 g/m*3 16.1 C 0 km/h
848 23-06-2014 22:55:00 15.9 C 9.21 g/m*3 15.9 C 0 km/h
849 23-06-2014 23:00:00 15.9 C 9.34 g/m*3 15.9 C 0 km/h
850 23-06-2014 23:05:00 15.9 C 9.34 g/m*3 15.9 C 0 km/h
Sensor: Nr:Datum:Temp:Abs-Feuchte:Windchill:Wind:
Aussen-T/F 851 23-06-2014 23:10:00 15.8 C 9.29 g/m*3 15.8 C 0 km/h
852 23-06-2014 23:15:00 15.7 C 9.37 g/m*3 15.7 C 0 km/h
853 23-06-2014 23:20:00 15.6 C 9.31 g/m*3 15.6 C 0 km/h
854 23-06-2014 23:25:00 15.6 C 9.31 g/m*3 15.6 C 0 km/h
855 23-06-2014 23:30:00 15.4 C 9.33 g/m*3 15.4 C 0 km/h
856 23-06-2014 23:35:00 15.4 C 9.33 g/m*3 15.4 C 0 km/h
857 23-06-2014 23:40:00 15.3 C 9.27 g/m*3 15.3 C 0 km/h
858 23-06-2014 23:45:00 15.2 C 9.35 g/m*3 15.2 C 0 km/h
859 23-06-2014 23:50:00 15.1 C 9.29 g/m*3 15.1 C 0 km/h
860 23-06-2014 23:55:00 15.1 C 9.29 g/m*3 15.1 C 0 km/h
861 24-06-2014 00:00:00 15.1 C 9.29 g/m*3 15.1 C 0 km/h
862 24-06-2014 00:05:00 15 C 9.36 g/m*3 15 C 0 km/h
863 24-06-2014 00:10:00 14.9 C 9.3 g/m*3 14.9 C 0 km/h
864 24-06-2014 00:15:00 14.9 C 9.3 g/m*3 14.9 C 0 km/h
865 24-06-2014 00:20:00 14.8 C 9.37 g/m*3 14.8 C 0 km/h
866 24-06-2014 00:25:00 14.8 C 9.37 g/m*3 14.8 C 0 km/h
867 24-06-2014 00:30:00 14.7 C 9.44 g/m*3 14.7 C 0 km/h
868 24-06-2014 00:35:00 14.6 C 9.39 g/m*3 14.6 C 0 km/h
869 24-06-2014 00:40:00 14.5 C 9.33 g/m*3 14.5 C 0 km/h
870 24-06-2014 00:45:00 14.4 C 9.27 g/m*3 14.4 C 0 km/h
871 24-06-2014 00:50:00 14.3 C 9.34 g/m*3 14.3 C 0 km/h
872 24-06-2014 00:55:00 14.3 C 9.34 g/m*3 14.3 C 0 km/h
873 24-06-2014 01:00:00 14.2 C 9.28 g/m*3 14.2 C 0 km/h
874 24-06-2014 01:05:00 14.1 C 9.34 g/m*3 14.1 C 0 km/h
875 24-06-2014 01:10:00 13.9 C 9.23 g/m*3 13.9 C 0 km/h
Sensor: Nr:Datum:Temp:Abs-Feuchte:Windchill:Wind:
Aussen-T/F 876 24-06-2014 01:15:00 13.8 C 9.17 g/m*3 13.8 C 0 km/h
877 24-06-2014 01:20:00 13.7 C 9.24 g/m*3 13.7 C 0 km/h
878 24-06-2014 01:25:00 13.6 C 9.18 g/m*3 13.6 C 0 km/h
879 24-06-2014 01:30:00 13.5 C 9.24 g/m*3 13.5 C 0 km/h
880 24-06-2014 01:35:00 13.4 C 9.18 g/m*3 13.4 C 0 km/h
881 24-06-2014 01:40:00 13.3 C 9.24 g/m*3 13.3 C 0 km/h
882 24-06-2014 01:45:00 13.3 C 9.24 g/m*3 13.3 C 0 km/h
883 24-06-2014 01:50:00 13.2 C 9.3 g/m*3 13.2 C 0 km/h
884 24-06-2014 01:55:00 13.1 C 9.24 g/m*3 13.1 C 0 km/h
885 24-06-2014 02:00:00 13 C 9.19 g/m*3 13 C 0 km/h
886 24-06-2014 02:05:00 12.8 C 9.07 g/m*3 12.8 C 0 km/h
887 24-06-2014 02:10:00 12.8 C 9.18 g/m*3 12.8 C 0 km/h
888 24-06-2014 02:15:00 12.7 C 9.13 g/m*3 12.7 C 0 km/h
889 24-06-2014 02:20:00 12.6 C 9.07 g/m*3 12.6 C 0 km/h
890 24-06-2014 02:25:00 12.6 C 9.18 g/m*3 12.6 C 0 km/h
891 24-06-2014 02:30:00 12.5 C 9.13 g/m*3 12.5 C 0 km/h
892 24-06-2014 02:35:00 12.4 C 9.07 g/m*3 12.4 C 0 km/h
893 24-06-2014 02:40:00 12.3 C 9.01 g/m*3 12.3 C 0 km/h
894 24-06-2014 02:45:00 12.2 C 9.06 g/m*3 12.2 C 0 km/h
895 24-06-2014 02:50:00 12.1 C 9.01 g/m*3 12.1 C 0 km/h
896 24-06-2014 02:55:00 12 C 8.95 g/m*3 12 C 0 km/h
897 24-06-2014 03:00:00 11.9 C 9 g/m*3 11.9 C 0 km/h
898 24-06-2014 03:05:00 11.8 C 8.95 g/m*3 11.8 C 0 km/h
899 24-06-2014 03:10:00 11.8 C 8.95 g/m*3 11.8 C 0 km/h
900 24-06-2014 03:15:00 11.7 C 8.99 g/m*3 11.7 C 0 km/h
Sensor: Nr:Datum:Temp:Abs-Feuchte:Windchill:Wind:
Aussen-T/F 901 24-06-2014 03:20:00 11.7 C 8.99 g/m*3 11.7 C 0 km/h
902 24-06-2014 03:25:00 11.6 C 8.94 g/m*3 11.6 C 0 km/h
903 24-06-2014 03:30:00 11.6 C 8.94 g/m*3 11.6 C 0 km/h
904 24-06-2014 03:35:00 11.5 C 8.99 g/m*3 11.5 C 0 km/h
905 24-06-2014 03:40:00 11.4 C 8.93 g/m*3 11.4 C 0 km/h
906 24-06-2014 03:45:00 11.4 C 8.93 g/m*3 11.4 C 0 km/h
907 24-06-2014 03:50:00 11.3 C 8.87 g/m*3 11.3 C 0 km/h
908 24-06-2014 03:55:00 11.2 C 8.82 g/m*3 11.2 C 0 km/h
909 24-06-2014 04:00:00 11.2 C 8.92 g/m*3 11.2 C 0 km/h
910 24-06-2014 04:05:00 11.1 C 8.86 g/m*3 11.1 C 0 km/h
911 24-06-2014 04:10:00 11 C 8.81 g/m*3 11 C 0 km/h
912 24-06-2014 04:15:00 10.9 C 8.85 g/m*3 10.9 C 0 km/h
913 24-06-2014 04:20:00 10.9 C 8.85 g/m*3 10.9 C 0 km/h
914 24-06-2014 04:25:00 10.8 C 8.8 g/m*3 10.8 C 0 km/h
915 24-06-2014 04:30:00 10.8 C 8.8 g/m*3 10.8 C 0 km/h
916 24-06-2014 04:35:00 10.7 C 8.74 g/m*3 10.7 C 0 km/h
917 24-06-2014 04:40:00 10.7 C 8.84 g/m*3 10.7 C 0 km/h
918 24-06-2014 04:45:00 10.7 C 8.84 g/m*3 10.7 C 0 km/h
919 24-06-2014 04:50:00 10.6 C 8.78 g/m*3 10.6 C 0 km/h
920 24-06-2014 04:55:00 10.6 C 8.78 g/m*3 10.6 C 0 km/h
921 24-06-2014 05:00:00 10.5 C 8.83 g/m*3 10.5 C 0 km/h
922 24-06-2014 05:05:00 10.4 C 8.77 g/m*3 10.4 C 0 km/h
923 24-06-2014 05:10:00 10.4 C 8.77 g/m*3 10.4 C 0 km/h
924 24-06-2014 05:15:00 10.4 C 8.77 g/m*3 10.4 C 0 km/h
925 24-06-2014 05:20:00 10.4 C 8.77 g/m*3 10.4 C 0 km/h
Sensor: Nr:Datum:Temp:Abs-Feuchte:Windchill:Wind:
Aussen-T/F 926 24-06-2014 05:25:00 10.3 C 8.71 g/m*3 10.3 C 0 km/h
927 24-06-2014 05:30:00 10.3 C 8.71 g/m*3 10.3 C 0 km/h
928 24-06-2014 05:35:00 10.3 C 8.81 g/m*3 10.3 C 0 km/h
929 24-06-2014 05:40:00 10.3 C 8.81 g/m*3 10.3 C 0 km/h
930 24-06-2014 05:45:00 10.3 C 8.81 g/m*3 10.3 C 0 km/h
931 24-06-2014 05:50:00 10.3 C 8.81 g/m*3 10.3 C 0 km/h
932 24-06-2014 05:55:00 10.3 C 8.81 g/m*3 10.3 C 0 km/h
933 24-06-2014 06:00:00 10.2 C 8.76 g/m*3 10.2 C 0 km/h
934 24-06-2014 06:05:00 10.3 C 8.81 g/m*3 10.3 C 0 km/h
935 24-06-2014 06:10:00 10.2 C 8.76 g/m*3 10.2 C 0 km/h
936 24-06-2014 06:15:00 10.2 C 8.76 g/m*3 10.2 C 0 km/h
937 24-06-2014 06:20:00 10.3 C 8.81 g/m*3 10.3 C 0 km/h
938 24-06-2014 06:25:00 10.2 C 8.76 g/m*3 10.2 C 0 km/h
939 24-06-2014 06:30:00 10.3 C 8.81 g/m*3 10.3 C 0 km/h
940 24-06-2014 06:35:00 10.3 C 8.91 g/m*3 10.3 C 0 km/h
941 24-06-2014 06:40:00 10.3 C 8.91 g/m*3 10.3 C 0 km/h
942 24-06-2014 06:45:00 10.4 C 8.96 g/m*3 10.4 C 0 km/h
943 24-06-2014 06:50:00 10.4 C 8.87 g/m*3 10.4 C 0 km/h
944 24-06-2014 06:55:00 10.6 C 8.98 g/m*3 10.6 C 0 km/h
945 24-06-2014 07:00:00 10.6 C 9.08 g/m*3 10.6 C 3.2 km/h
946 24-06-2014 07:05:00 10.8 C 9.19 g/m*3 10.8 C 3.2 km/h
947 24-06-2014 07:10:00 10.9 C 9.15 g/m*3 10.9 C 0 km/h
948 24-06-2014 07:15:00 11.1 C 9.27 g/m*3 11.1 C 0 km/h
949 24-06-2014 07:20:00 11.1 C 9.17 g/m*3 11.1 C 0 km/h
950 24-06-2014 07:25:00 11.2 C 9.22 g/m*3 11.2 C 0 km/h
Sensor: Nr:Datum:Temp:Abs-Feuchte:Windchill:Wind:
Aussen-T/F 951 24-06-2014 07:30:00 11.2 C 9.22 g/m*3 11.2 C 0 km/h
952 24-06-2014 07:35:00 11.3 C 9.28 g/m*3 11.3 C 1.6 km/h
953 24-06-2014 07:40:00 11.5 C 9.4 g/m*3 11.5 C 0 km/h
954 24-06-2014 07:45:00 11.6 C 9.35 g/m*3 11.6 C 1.6 km/h
955 24-06-2014 07:50:00 11.8 C 9.47 g/m*3 11.8 C 0 km/h
956 24-06-2014 07:55:00 12 C 9.59 g/m*3 12 C 0 km/h
957 24-06-2014 08:00:00 12.2 C 9.6 g/m*3 12.2 C 0 km/h
958 24-06-2014 08:05:00 12.5 C 9.68 g/m*3 12.5 C 0 km/h
959 24-06-2014 08:10:00 12.8 C 9.74 g/m*3 12.8 C 0 km/h
960 24-06-2014 08:15:00 13.1 C 9.93 g/m*3 13.1 C 0 km/h
961 24-06-2014 08:20:00 13.4 C 10 g/m*3 13.4 C 0 km/h
962 24-06-2014 08:25:00 13.8 C 10.01 g/m*3 13.8 C 0 km/h
963 24-06-2014 08:30:00 14.1 C 10.07 g/m*3 14.1 C 1.6 km/h
964 24-06-2014 08:35:00 14.4 C 9.89 g/m*3 14.4 C 4.8 km/h
965 24-06-2014 08:40:00 14.8 C 9.88 g/m*3 14.8 C 3.2 km/h
966 24-06-2014 08:45:00 15.1 C 9.93 g/m*3 15.1 C 1.6 km/h
967 24-06-2014 08:50:00 15.4 C 9.99 g/m*3 15.4 C 0 km/h
968 24-06-2014 08:55:00 15.8 C 10.23 g/m*3 15.8 C 1.6 km/h
969 24-06-2014 09:00:00 16.1 C 10.42 g/m*3 16.1 C 0 km/h
970 24-06-2014 09:05:00 16.3 C 10.54 g/m*3 16.3 C 0 km/h
971 24-06-2014 09:10:00 16.6 C 10.59 g/m*3 16.6 C 0 km/h
972 24-06-2014 09:15:00 16.7 C 10.37 g/m*3 16.7 C 0 km/h
973 24-06-2014 09:20:00 16.6 C 10.45 g/m*3 16.6 C 0 km/h
974 24-06-2014 09:25:00 16.4 C 10.47 g/m*3 16.4 C 0 km/h
975 24-06-2014 09:30:00 16.3 C 10.54 g/m*3 16.3 C 1.6 km/h
Sensor: Nr:Datum:Temp:Abs-Feuchte:Windchill:Wind:
Aussen-T/F 976 24-06-2014 09:35:00 16.6 C 10.59 g/m*3 16.6 C 3.2 km/h
977 24-06-2014 09:40:00 16.9 C 10.5 g/m*3 16.9 C 1.6 km/h
978 24-06-2014 09:45:00 17.3 C 10.75 g/m*3 17.3 C 3.2 km/h
979 24-06-2014 09:50:00 17.6 C 10.8 g/m*3 17.6 C 3.2 km/h
980 24-06-2014 09:55:00 17.9 C 10.69 g/m*3 17.9 C 1.6 km/h
981 24-06-2014 10:00:00 18.2 C 11.04 g/m*3 18.2 C 1.6 km/h
982 24-06-2014 10:05:00 18.6 C 10.66 g/m*3 18.6 C 1.6 km/h
983 24-06-2014 10:10:00 19 C 11.24 g/m*3 19 C 3.2 km/h
984 24-06-2014 10:15:00 19.6 C 10.97 g/m*3 19.6 C 4.8 km/h
985 24-06-2014 10:20:00 19.9 C 10.31 g/m*3 19.9 C 3.2 km/h
986 24-06-2014 10:25:00 20.1 C 10.26 g/m*3 20.1 C 3.2 km/h
987 24-06-2014 10:30:00 20.3 C 10.55 g/m*3 20.3 C 3.2 km/h
988 24-06-2014 10:35:00 20.6 C 10.56 g/m*3 20.6 C 4.8 km/h
989 24-06-2014 10:40:00 20.7 C 10.44 g/m*3 20.7 C 3.2 km/h
990 24-06-2014 10:45:00 20.8 C 10.86 g/m*3 20.8 C 4.8 km/h
991 24-06-2014 10:50:00 20.8 C 10.14 g/m*3 20.8 C 6.4 km/h
992 24-06-2014 10:55:00 20.9 C 10.2 g/m*3 20.9 C 6.4 km/h
993 24-06-2014 11:00:00 21 C 9.89 g/m*3 21 C 6.4 km/h
994 24-06-2014 11:05:00 21 C 9.71 g/m*3 21 C 4.8 km/h
995 24-06-2014 11:10:00 21.1 C 9.95 g/m*3 21.1 C 6.4 km/h
996 24-06-2014 11:15:00 21.3 C 10.07 g/m*3 21.3 C 4.8 km/h
997 24-06-2014 11:20:00 21.4 C 9.75 g/m*3 21.4 C 8.1 km/h
998 24-06-2014 11:25:00 21.4 C 9.94 g/m*3 21.4 C 6.4 km/h
999 24-06-2014 11:30:00 21.6 C 9.48 g/m*3 21.6 C 4.8 km/h
1000 24-06-2014 11:35:00 21.8 C 9.78 g/m*3 21.8 C 4.8 km/h
Sensor: Nr:Datum:Temp:Abs-Feuchte:Windchill:Wind:
Aussen-T/F 1001 24-06-2014 11:40:00 21.7 C 8.58 g/m*3 21.7 C 4.8 km/h
1002 24-06-2014 11:45:00 21.8 C 9.4 g/m*3 21.8 C 3.2 km/h
1003 24-06-2014 11:50:00 21.8 C 9.4 g/m*3 21.8 C 4.8 km/h
1004 24-06-2014 11:55:00 21.8 C 9.59 g/m*3 21.8 C 1.6 km/h
1005 24-06-2014 12:00:00 22.1 C 9.56 g/m*3 22.1 C 4.8 km/h
1006 24-06-2014 12:05:00 22.3 C 9.48 g/m*3 22.3 C 8.1 km/h
1007 24-06-2014 12:10:00 22.5 C 9.39 g/m*3 22.5 C 8.1 km/h
1008 24-06-2014 12:15:00 22.8 C 9.55 g/m*3 22.8 C 9.7 km/h
1009 24-06-2014 12:20:00 23 C 9.25 g/m*3 23 C 6.4 km/h
1010 24-06-2014 12:25:00 23.1 C 9.3 g/m*3 23.1 C 3.2 km/h
1011 24-06-2014 12:30:00 23.2 C 9.15 g/m*3 23.2 C 6.4 km/h
1012 24-06-2014 12:35:00 23.4 C 9.67 g/m*3 23.4 C 8.1 km/h
1013 24-06-2014 12:40:00 23.3 C 9.2 g/m*3 23.3 C 6.4 km/h
1014 24-06-2014 12:45:00 23.6 C 9.57 g/m*3 23.6 C 6.4 km/h
1015 24-06-2014 12:50:00 23.9 C 9.74 g/m*3 23.9 C 11.3 km/h
1016 24-06-2014 12:55:00 23.7 C 9.2 g/m*3 23.7 C 11.3 km/h
1017 24-06-2014 13:00:00 23.4 C 9.46 g/m*3 23.4 C 3.2 km/h
1018 24-06-2014 13:05:00 23.4 C 9.25 g/m*3 23.4 C 4.8 km/h
1019 24-06-2014 13:10:00 23.4 C 9.46 g/m*3 23.4 C 11.3 km/h
1020 24-06-2014 13:15:00 23.4 C 9.04 g/m*3 23.4 C 6.4 km/h
1021 24-06-2014 13:20:00 23.3 C 8.99 g/m*3 23.3 C 6.4 km/h
1022 24-06-2014 13:25:00 23.2 C 8.73 g/m*3 23.2 C 3.2 km/h
1023 24-06-2014 13:30:00 23.3 C 9.62 g/m*3 23.3 C 6.4 km/h
1024 24-06-2014 13:35:00 23.3 C 9.2 g/m*3 23.3 C 6.4 km/h
1025 24-06-2014 13:40:00 23.1 C 8.89 g/m*3 23.1 C 1.6 km/h
Sensor: Nr:Datum:Temp:Abs-Feuchte:Windchill:Wind:
Aussen-T/F 1026 24-06-2014 13:45:00 22.9 C 8.99 g/m*3 22.9 C 9.7 km/h
1027 24-06-2014 13:50:00 22.7 C 8.89 g/m*3 22.7 C 6.4 km/h
1028 24-06-2014 13:55:00 22.6 C 9.04 g/m*3 22.6 C 6.4 km/h
1029 24-06-2014 14:00:00 22.6 C 8.84 g/m*3 22.6 C 6.4 km/h
1030 24-06-2014 14:05:00 22.8 C 9.14 g/m*3 22.8 C 8.1 km/h
1031 24-06-2014 14:10:00 22.9 C 9.4 g/m*3 22.9 C 4.8 km/h
1032 24-06-2014 14:15:00 23.1 C 9.3 g/m*3 23.1 C 4.8 km/h
1033 24-06-2014 14:20:00 23.1 C 8.89 g/m*3 23.1 C 3.2 km/h
1034 24-06-2014 14:25:00 23 C 9.04 g/m*3 23 C 8.1 km/h
1035 24-06-2014 14:30:00 23.1 C 9.3 g/m*3 23.1 C 1.6 km/h
1036 24-06-2014 14:35:00 23.2 C 9.36 g/m*3 23.2 C 4.8 km/h
1037 24-06-2014 14:40:00 23.4 C 9.46 g/m*3 23.4 C 8.1 km/h
1038 24-06-2014 14:45:00 23.3 C 8.99 g/m*3 23.3 C 8.1 km/h
1039 24-06-2014 14:50:00 23.3 C 9.62 g/m*3 23.3 C 6.4 km/h
1040 24-06-2014 14:55:00 23.3 C 9.2 g/m*3 23.3 C 4.8 km/h
1041 24-06-2014 15:00:00 23.4 C 9.25 g/m*3 23.4 C 8.1 km/h
1042 24-06-2014 15:05:00 23.4 C 9.04 g/m*3 23.4 C 6.4 km/h
1043 24-06-2014 15:10:00 23.2 C 9.15 g/m*3 23.2 C 3.2 km/h
1044 24-06-2014 15:15:00 23.1 C 9.3 g/m*3 23.1 C 3.2 km/h
1045 24-06-2014 15:20:00 23.3 C 10.04 g/m*3 23.3 C 3.2 km/h
1046 24-06-2014 15:25:00 23.8 C 9.68 g/m*3 23.8 C 3.2 km/h
1047 24-06-2014 15:30:00 24 C 9.57 g/m*3 24 C 6.4 km/h
1048 24-06-2014 15:35:00 24 C 9.57 g/m*3 24 C 9.7 km/h
1049 24-06-2014 15:40:00 24.2 C 9.68 g/m*3 24.2 C 8.1 km/h
1050 24-06-2014 15:45:00 24.3 C 9.96 g/m*3 24.3 C 6.4 km/h
Sensor: Nr:Datum:Temp:Abs-Feuchte:Windchill:Wind:
Aussen-T/F 1051 24-06-2014 15:50:00 24.5 C 9.4 g/m*3 24.5 C 3.2 km/h
1052 24-06-2014 15:55:00 24.4 C 9.12 g/m*3 24.4 C 6.4 km/h
1053 24-06-2014 16:00:00 23.9 C 9.74 g/m*3 23.9 C 1.6 km/h
1054 24-06-2014 16:05:00 23.6 C 9.36 g/m*3 23.6 C 0 km/h
1055 24-06-2014 16:10:00 23.4 C 10.93 g/m*3 23.4 C 0 km/h
1056 24-06-2014 16:15:00 23 C 10.28 g/m*3 23 C 0 km/h
1057 24-06-2014 16:20:00 22.7 C 10.71 g/m*3 22.7 C 0 km/h
1058 24-06-2014 16:25:00 22.6 C 9.04 g/m*3 22.6 C 3.2 km/h
1059 24-06-2014 16:30:00 22.6 C 9.04 g/m*3 22.6 C 3.2 km/h
1060 24-06-2014 16:35:00 22.7 C 9.09 g/m*3 22.7 C 6.4 km/h
1061 24-06-2014 16:40:00 22.8 C 9.35 g/m*3 22.8 C 4.8 km/h
1062 24-06-2014 16:45:00 22.8 C 9.14 g/m*3 22.8 C 9.7 km/h
1063 24-06-2014 16:50:00 22.7 C 9.09 g/m*3 22.7 C 9.7 km/h
1064 24-06-2014 16:55:00 22.4 C 10.13 g/m*3 22.4 C 29 km/h
1065 24-06-2014 17:00:00 20.9 C 12.2 g/m*3 20.9 C 29 km/h
1066 24-06-2014 17:05:00 20.8 C 12.31 g/m*3 20.8 C 14.5 km/h
1067 24-06-2014 17:10:00 18.7 C 12.01 g/m*3 18.7 C 8.1 km/h
1068 24-06-2014 17:15:00 17.9 C 12.37 g/m*3 17.9 C 4.8 km/h
1069 24-06-2014 17:20:00 17.4 C 12.6 g/m*3 17.4 C 3.2 km/h
1070 24-06-2014 17:25:00 17.2 C 12.74 g/m*3 17.2 C 1.6 km/h
1071 24-06-2014 17:30:00 17.1 C 12.81 g/m*3 17.1 C 1.6 km/h
1072 24-06-2014 17:35:00 17 C 12.88 g/m*3 17 C 0 km/h
1073 24-06-2014 17:40:00 17 C 13.17 g/m*3 17 C 0 km/h
1074 24-06-2014 17:45:00 16.9 C 12.94 g/m*3 16.9 C 0 km/h
1075 24-06-2014 17:50:00 16.8 C 12.87 g/m*3 16.8 C 1.6 km/h
Sensor: Nr:Datum:Temp:Abs-Feuchte:Windchill:Wind:
Aussen-T/F 1076 24-06-2014 17:55:00 16.9 C 12.66 g/m*3 16.9 C 12.9 km/h
1077 24-06-2014 18:00:00 17.3 C 12.08 g/m*3 17.3 C 11.3 km/h
1078 24-06-2014 18:05:00 17.4 C 12.3 g/m*3 17.4 C 4.8 km/h
1079 24-06-2014 18:10:00 17.2 C 12.15 g/m*3 17.2 C 3.2 km/h
1080 24-06-2014 18:15:00 16.8 C 12.44 g/m*3 16.8 C 3.2 km/h
1081 24-06-2014 18:20:00 16.6 C 12.43 g/m*3 16.6 C 0 km/h
1082 24-06-2014 18:25:00 16.3 C 12.35 g/m*3 16.3 C 0 km/h
1083 24-06-2014 18:30:00 16 C 12.26 g/m*3 16 C 0 km/h
1084 24-06-2014 18:35:00 16 C 12.26 g/m*3 16 C 0 km/h
1085 24-06-2014 19:00:00 15.2 C 12.2 g/m*3 15.2 C 1.6 km/h
1086 24-06-2014 19:05:00 15.2 C 12.2 g/m*3 15.2 C 1.6 km/h
1087 24-06-2014 22:20:00 13.5 C 11.7 g/m*3 13.5 C 0 km/h
1088 24-06-2014 22:25:00 13.5 C 11.7 g/m*3 13.5 C 1.6 km/h
1089 24-06-2014 22:30:00 13.5 C 11.7 g/m*3 13.5 C 0 km/h
1090 24-06-2014 22:35:00 13.5 C 11.7 g/m*3 13.5 C 0 km/h
1091 24-06-2014 22:40:00 13.5 C 11.7 g/m*3 13.5 C 0 km/h
1092 25-06-2014 08:20:00 14.1 C 12.14 g/m*3 14.1 C 9.7 km/h
1093 25-06-2014 08:25:00 14.2 C 12.21 g/m*3 14.2 C 9.7 km/h
1094 25-06-2014 08:30:00 14.3 C 12.29 g/m*3 14.3 C 11.3 km/h
1095 25-06-2014 08:35:00 14.3 C 12.29 g/m*3 14.3 C 14.5 km/h
1096 25-06-2014 08:40:00 14.2 C 9.65 g/m*3 14.2 C 12.9 km/h
1097 25-06-2014 08:45:00 14.2 C 9.52 g/m*3 14.2 C 17.7 km/h
1098 25-06-2014 08:50:00 14.2 C 9.52 g/m*3 14.2 C 11.3 km/h
1099 25-06-2014 08:55:00 14.1 C 9.59 g/m*3 14.1 C 8.1 km/h
1100 25-06-2014 09:00:00 13.9 C 9.35 g/m*3 13.9 C 12.9 km/h
Sensor: Nr:Datum:Temp:Abs-Feuchte:Windchill:Wind:
Aussen-T/F 1101 25-06-2014 09:05:00 13.8 C 9.65 g/m*3 13.8 C 4.8 km/h
1102 25-06-2014 09:10:00 14.1 C 9.71 g/m*3 14.1 C 6.4 km/h
1103 25-06-2014 09:15:00 14.5 C 9.58 g/m*3 14.5 C 16.1 km/h
1104 25-06-2014 09:20:00 14.7 C 9.32 g/m*3 14.7 C 17.7 km/h
1105 25-06-2014 09:25:00 14.8 C 9.37 g/m*3 14.8 C 14.5 km/h
1106 25-06-2014 09:30:00 14.9 C 9.3 g/m*3 14.9 C 17.7 km/h
1107 25-06-2014 09:35:00 15 C 9.1 g/m*3 15 C 12.9 km/h
1108 25-06-2014 09:40:00 15.1 C 9.16 g/m*3 15.1 C 9.7 km/h
1109 25-06-2014 09:45:00 15.2 C 9.35 g/m*3 15.2 C 9.7 km/h
1110 25-06-2014 09:50:00 15.4 C 9.07 g/m*3 15.4 C 16.1 km/h
1111 25-06-2014 09:55:00 15.6 C 8.91 g/m*3 15.6 C 11.3 km/h
1112 25-06-2014 10:00:00 15.6 C 8.91 g/m*3 15.6 C 14.5 km/h
1113 25-06-2014 10:05:00 15.3 C 8.75 g/m*3 15.3 C 14.5 km/h
1114 25-06-2014 10:10:00 15.2 C 8.7 g/m*3 15.2 C 12.9 km/h
1115 25-06-2014 10:15:00 15.2 C 8.7 g/m*3 15.2 C 19.3 km/h
1116 25-06-2014 10:20:00 15.2 C 8.44 g/m*3 15.2 C 17.7 km/h
1117 25-06-2014 10:25:00 15.3 C 8.62 g/m*3 15.3 C 9.7 km/h
1118 25-06-2014 10:30:00 15.7 C 8.7 g/m*3 15.7 C 14.5 km/h
1119 25-06-2014 10:35:00 15.8 C 8.48 g/m*3 15.8 C 16.1 km/h
1120 25-06-2014 10:40:00 15.7 C 8.56 g/m*3 15.7 C 9.7 km/h
1121 25-06-2014 10:45:00 16 C 8.45 g/m*3 16 C 16.1 km/h
1122 25-06-2014 10:50:00 16.1 C 8.09 g/m*3 16.1 C 19.3 km/h
1123 25-06-2014 10:55:00 16.3 C 7.63 g/m*3 16.3 C 11.3 km/h
1124 25-06-2014 11:00:00 16.8 C 8.01 g/m*3 16.8 C 12.9 km/h
1125 25-06-2014 11:05:00 17.3 C 8.84 g/m*3 17.3 C 16.1 km/h
Sensor: Nr:Datum:Temp:Abs-Feuchte:Windchill:Wind:
Aussen-T/F 1126 25-06-2014 11:10:00 17.3 C 8.1 g/m*3 17.3 C 14.5 km/h
1127 25-06-2014 11:15:00 16.8 C 8.01 g/m*3 16.8 C 12.9 km/h
1128 25-06-2014 11:20:00 16.4 C 7.82 g/m*3 16.4 C 20.9 km/h
1129 25-06-2014 11:25:00 16.1 C 8.22 g/m*3 16.1 C 12.9 km/h
1130 25-06-2014 11:30:00 16.3 C 7.91 g/m*3 16.3 C 12.9 km/h
1131 25-06-2014 11:35:00 16.9 C 8.49 g/m*3 16.9 C 11.3 km/h
1132 25-06-2014 11:40:00 17.4 C 8.45 g/m*3 17.4 C 16.1 km/h
1133 25-06-2014 11:45:00 17.7 C 8.15 g/m*3 17.7 C 11.3 km/h
1134 25-06-2014 11:50:00 17.7 C 8.15 g/m*3 17.7 C 12.9 km/h
1135 25-06-2014 11:55:00 17.9 C 8.24 g/m*3 17.9 C 12.9 km/h
1136 25-06-2014 12:00:00 18.1 C 8.19 g/m*3 18.1 C 11.3 km/h
1137 25-06-2014 12:05:00 17.9 C 7.63 g/m*3 17.9 C 17.7 km/h
1138 25-06-2014 12:10:00 17.6 C 7.65 g/m*3 17.6 C 16.1 km/h
1139 25-06-2014 12:15:00 17.8 C 7.59 g/m*3 17.8 C 12.9 km/h
1140 25-06-2014 12:20:00 18.2 C 7.77 g/m*3 18.2 C 16.1 km/h
1141 25-06-2014 12:25:00 18.4 C 7.71 g/m*3 18.4 C 16.1 km/h
1142 25-06-2014 12:30:00 18.3 C 7.97 g/m*3 18.3 C 17.7 km/h
1143 25-06-2014 12:35:00 17.7 C 7.69 g/m*3 17.7 C 16.1 km/h
1144 25-06-2014 12:40:00 17.4 C 7.71 g/m*3 17.4 C 14.5 km/h
1145 25-06-2014 12:45:00 17.3 C 7.81 g/m*3 17.3 C 14.5 km/h
1146 25-06-2014 12:50:00 17.3 C 7.96 g/m*3 17.3 C 12.9 km/h
1147 25-06-2014 12:55:00 17.4 C 7.56 g/m*3 17.4 C 12.9 km/h
1148 25-06-2014 13:00:00 17.4 C 7.85 g/m*3 17.4 C 9.7 km/h
1149 25-06-2014 13:05:00 17.7 C 8 g/m*3 17.7 C 8.1 km/h
1150 25-06-2014 13:10:00 18.1 C 8.03 g/m*3 18.1 C 14.5 km/h
Sensor: Nr:Datum:Temp:Abs-Feuchte:Windchill:Wind:
Aussen-T/F 1151 25-06-2014 13:15:00 18.1 C 7.88 g/m*3 18.1 C 11.3 km/h
1152 25-06-2014 13:20:00 18 C 7.83 g/m*3 18 C 12.9 km/h
1153 25-06-2014 13:25:00 17.9 C 7.79 g/m*3 17.9 C 11.3 km/h
1154 25-06-2014 13:30:00 17.8 C 7.89 g/m*3 17.8 C 9.7 km/h
1155 25-06-2014 13:35:00 17.9 C 7.63 g/m*3 17.9 C 12.9 km/h
1156 25-06-2014 13:40:00 17.8 C 7.74 g/m*3 17.8 C 11.3 km/h
1157 25-06-2014 13:45:00 17.6 C 7.5 g/m*3 17.6 C 6.4 km/h
1158 25-06-2014 13:50:00 17.9 C 8.24 g/m*3 17.9 C 11.3 km/h
1159 25-06-2014 13:55:00 18.2 C 7.93 g/m*3 18.2 C 6.4 km/h
1160 25-06-2014 14:00:00 18.3 C 7.51 g/m*3 18.3 C 12.9 km/h
1161 25-06-2014 14:05:00 18.3 C 7.82 g/m*3 18.3 C 9.7 km/h
1162 25-06-2014 14:10:00 18.2 C 7.77 g/m*3 18.2 C 17.7 km/h
1163 25-06-2014 14:15:00 17.8 C 7.89 g/m*3 17.8 C 11.3 km/h
1164 25-06-2014 14:20:00 17.9 C 8.24 g/m*3 17.9 C 12.9 km/h
1165 25-06-2014 14:25:00 18.7 C 7.68 g/m*3 18.7 C 16.1 km/h
1166 25-06-2014 14:30:00 18.8 C 7.89 g/m*3 18.8 C 17.7 km/h
1167 25-06-2014 14:35:00 18.9 C 8.1 g/m*3 18.9 C 14.5 km/h
1168 25-06-2014 14:40:00 18.9 C 7.78 g/m*3 18.9 C 12.9 km/h
1169 25-06-2014 14:45:00 18.9 C 7.78 g/m*3 18.9 C 9.7 km/h
1170 25-06-2014 14:50:00 18.7 C 7.68 g/m*3 18.7 C 9.7 km/h
1171 25-06-2014 14:55:00 18.4 C 7.86 g/m*3 18.4 C 11.3 km/h
1172 25-06-2014 15:00:00 18.2 C 7.62 g/m*3 18.2 C 9.7 km/h
1173 25-06-2014 15:05:00 17.9 C 7.63 g/m*3 17.9 C 9.7 km/h
1174 25-06-2014 15:10:00 17.8 C 7.74 g/m*3 17.8 C 9.7 km/h
1175 25-06-2014 15:15:00 17.8 C 7.74 g/m*3 17.8 C 9.7 km/h
Sensor: Nr:Datum:Temp:Abs-Feuchte:Windchill:Wind:
Aussen-T/F 1176 25-06-2014 15:20:00 17.9 C 7.94 g/m*3 17.9 C 9.7 km/h
1177 25-06-2014 15:25:00 18.2 C 7.93 g/m*3 18.2 C 11.3 km/h
1178 25-06-2014 15:30:00 18.6 C 7.96 g/m*3 18.6 C 8.1 km/h
1179 25-06-2014 15:35:00 18.8 C 8.05 g/m*3 18.8 C 14.5 km/h
1180 25-06-2014 15:40:00 19.3 C 7.96 g/m*3 19.3 C 19.3 km/h
1181 25-06-2014 15:45:00 19.1 C 7.7 g/m*3 19.1 C 16.1 km/h
1182 25-06-2014 15:50:00 18.8 C 7.57 g/m*3 18.8 C 9.7 km/h
1183 25-06-2014 15:55:00 18.6 C 7.48 g/m*3 18.6 C 9.7 km/h
1184 25-06-2014 16:00:00 18.7 C 7.84 g/m*3 18.7 C 11.3 km/h
1185 25-06-2014 16:05:00 19.3 C 7.46 g/m*3 19.3 C 8.1 km/h
1186 25-06-2014 16:10:00 20.1 C 7.82 g/m*3 20.1 C 12.9 km/h
1187 25-06-2014 16:15:00 20.5 C 7.47 g/m*3 20.5 C 6.4 km/h
1188 25-06-2014 16:20:00 20.1 C 7.13 g/m*3 20.1 C 11.3 km/h
1189 25-06-2014 16:25:00 19.8 C 7.34 g/m*3 19.8 C 6.4 km/h
1190 25-06-2014 16:30:00 19.5 C 7.38 g/m*3 19.5 C 9.7 km/h
1191 25-06-2014 16:35:00 19.3 C 7.46 g/m*3 19.3 C 11.3 km/h
1192 25-06-2014 16:40:00 19.8 C 7.52 g/m*3 19.8 C 8.1 km/h
1193 25-06-2014 16:45:00 20.2 C 7.34 g/m*3 20.2 C 11.3 km/h
1194 25-06-2014 16:50:00 20 C 7.09 g/m*3 20 C 8.1 km/h
1195 25-06-2014 16:55:00 19.6 C 7.26 g/m*3 19.6 C 9.7 km/h
1196 25-06-2014 17:00:00 19.2 C 7.42 g/m*3 19.2 C 11.3 km/h
1197 25-06-2014 17:05:00 18.9 C 7.13 g/m*3 18.9 C 12.9 km/h
1198 25-06-2014 17:10:00 19.1 C 7.54 g/m*3 19.1 C 9.7 km/h
1199 25-06-2014 17:15:00 19.7 C 7.3 g/m*3 19.7 C 11.3 km/h
1200 25-06-2014 17:20:00 20.1 C 7.3 g/m*3 20.1 C 12.9 km/h
Sensor: Nr:Datum:Temp:Abs-Feuchte:Windchill:Wind:
Aussen-T/F 1201 25-06-2014 17:25:00 19.8 C 7.34 g/m*3 19.8 C 11.3 km/h
1202 25-06-2014 17:30:00 19.7 C 7.81 g/m*3 19.7 C 9.7 km/h
1203 25-06-2014 17:35:00 20.3 C 7.56 g/m*3 20.3 C 14.5 km/h
1204 25-06-2014 17:40:00 20.2 C 7.34 g/m*3 20.2 C 8.1 km/h
1205 25-06-2014 17:45:00 19.7 C 7.47 g/m*3 19.7 C 11.3 km/h
1206 25-06-2014 17:50:00 19.5 C 7.89 g/m*3 19.5 C 6.4 km/h
1207 25-06-2014 17:55:00 19.8 C 7.34 g/m*3 19.8 C 4.8 km/h
1208 25-06-2014 18:00:00 20.1 C 7.3 g/m*3 20.1 C 4.8 km/h
1209 25-06-2014 18:05:00 20.2 C 7.69 g/m*3 20.2 C 6.4 km/h
1210 25-06-2014 18:10:00 20.6 C 7.52 g/m*3 20.6 C 9.7 km/h
1211 25-06-2014 18:15:00 20.7 C 7.92 g/m*3 20.7 C 12.9 km/h
1212 25-06-2014 18:20:00 20.9 C 7.65 g/m*3 20.9 C 8.1 km/h
1213 25-06-2014 18:25:00 20.8 C 7.79 g/m*3 20.8 C 8.1 km/h
1214 25-06-2014 18:30:00 21.1 C 7.19 g/m*3 21.1 C 11.3 km/h
1215 25-06-2014 18:35:00 20.9 C 7.47 g/m*3 20.9 C 9.7 km/h
1216 25-06-2014 18:40:00 20.7 C 7.56 g/m*3 20.7 C 11.3 km/h
1217 25-06-2014 18:45:00 20.8 C 7.6 g/m*3 20.8 C 9.7 km/h
1218 25-06-2014 18:50:00 21.1 C 7.37 g/m*3 21.1 C 11.3 km/h
1219 25-06-2014 18:55:00 21.1 C 7.92 g/m*3 21.1 C 12.9 km/h
1220 25-06-2014 19:00:00 21 C 7.69 g/m*3 21 C 11.3 km/h
1221 25-06-2014 19:05:00 20.8 C 7.42 g/m*3 20.8 C 9.7 km/h
1222 25-06-2014 19:10:00 20.4 C 7.43 g/m*3 20.4 C 11.3 km/h
1223 25-06-2014 19:15:00 20.1 C 7.65 g/m*3 20.1 C 9.7 km/h
1224 25-06-2014 19:20:00 20 C 7.6 g/m*3 20 C 9.7 km/h
1225 25-06-2014 19:25:00 19.7 C 7.64 g/m*3 19.7 C 9.7 km/h
Sensor: Nr:Datum:Temp:Abs-Feuchte:Windchill:Wind:
Aussen-T/F 1226 25-06-2014 19:30:00 19.4 C 7.51 g/m*3 19.4 C 11.3 km/h
1227 25-06-2014 19:35:00 19.1 C 7.54 g/m*3 19.1 C 9.7 km/h
1228 25-06-2014 19:40:00 19.1 C 7.54 g/m*3 19.1 C 9.7 km/h
1229 25-06-2014 19:45:00 19.2 C 7.59 g/m*3 19.2 C 9.7 km/h
1230 25-06-2014 19:50:00 19.3 C 7.63 g/m*3 19.3 C 8.1 km/h
1231 25-06-2014 19:55:00 19.3 C 7.63 g/m*3 19.3 C 9.7 km/h
1232 25-06-2014 20:00:00 19.3 C 7.8 g/m*3 19.3 C 11.3 km/h
1233 25-06-2014 20:05:00 19.2 C 7.91 g/m*3 19.2 C 9.7 km/h
1234 25-06-2014 20:10:00 19 C 7.66 g/m*3 19 C 11.3 km/h
1235 25-06-2014 20:15:00 18.8 C 7.89 g/m*3 18.8 C 9.7 km/h
1236 25-06-2014 20:20:00 18.8 C 7.73 g/m*3 18.8 C 6.4 km/h
1237 25-06-2014 20:25:00 18.9 C 7.94 g/m*3 18.9 C 9.7 km/h
1238 25-06-2014 20:30:00 18.8 C 7.89 g/m*3 18.8 C 8.1 km/h
1239 25-06-2014 20:35:00 18.7 C 8.01 g/m*3 18.7 C 8.1 km/h
1240 25-06-2014 20:40:00 18.6 C 7.96 g/m*3 18.6 C 11.3 km/h
1241 25-06-2014 20:45:00 18.4 C 7.86 g/m*3 18.4 C 8.1 km/h
1242 25-06-2014 20:50:00 18.3 C 7.97 g/m*3 18.3 C 14.5 km/h
1243 25-06-2014 20:55:00 18.1 C 7.88 g/m*3 18.1 C 8.1 km/h
1244 25-06-2014 21:00:00 17.8 C 7.89 g/m*3 17.8 C 8.1 km/h
1245 25-06-2014 21:05:00 17.7 C 8 g/m*3 17.7 C 8.1 km/h
1246 25-06-2014 21:10:00 17.6 C 8.1 g/m*3 17.6 C 3.2 km/h
1247 25-06-2014 21:15:00 17.5 C 8.05 g/m*3 17.5 C 3.2 km/h
1248 25-06-2014 21:20:00 17.3 C 8.1 g/m*3 17.3 C 4.8 km/h
1249 25-06-2014 21:25:00 17 C 8.39 g/m*3 17 C 0 km/h
1250 25-06-2014 21:30:00 16.5 C 8.43 g/m*3 16.5 C 0 km/h
Sensor: Nr:Datum:Temp:Abs-Feuchte:Windchill:Wind:
Aussen-T/F 1251 25-06-2014 21:35:00 15.9 C 8.26 g/m*3 15.9 C 0 km/h
1252 25-06-2014 21:40:00 15.5 C 8.33 g/m*3 15.5 C 0 km/h
1253 25-06-2014 21:45:00 15.2 C 8.31 g/m*3 15.2 C 0 km/h
1254 25-06-2014 21:50:00 14.9 C 8.41 g/m*3 14.9 C 0 km/h
1255 25-06-2014 21:55:00 14.7 C 8.44 g/m*3 14.7 C 0 km/h
1256 25-06-2014 22:00:00 14.5 C 8.46 g/m*3 14.5 C 0 km/h
1257 25-06-2014 22:05:00 14.3 C 8.48 g/m*3 14.3 C 0 km/h
1258 25-06-2014 22:10:00 14.2 C 8.67 g/m*3 14.2 C 0 km/h
1259 25-06-2014 22:15:00 14 C 8.56 g/m*3 14 C 0 km/h
1260 25-06-2014 22:20:00 13.8 C 8.58 g/m*3 13.8 C 0 km/h
1261 25-06-2014 22:25:00 13.7 C 8.53 g/m*3 13.7 C 0 km/h
1262 25-06-2014 22:30:00 13.6 C 8.47 g/m*3 13.6 C 0 km/h
1263 25-06-2014 22:35:00 13.5 C 8.54 g/m*3 13.5 C 0 km/h
1264 25-06-2014 22:40:00 13.4 C 8.49 g/m*3 13.4 C 0 km/h
1265 25-06-2014 22:45:00 13.3 C 8.43 g/m*3 13.3 C 0 km/h
1266 25-06-2014 22:50:00 13.2 C 8.5 g/m*3 13.2 C 0 km/h
1267 25-06-2014 22:55:00 13.2 C 8.5 g/m*3 13.2 C 0 km/h
1268 25-06-2014 23:00:00 13.1 C 8.44 g/m*3 13.1 C 0 km/h
1269 25-06-2014 23:05:00 13.1 C 8.44 g/m*3 13.1 C 0 km/h
1270 25-06-2014 23:10:00 13 C 8.39 g/m*3 13 C 0 km/h
1271 25-06-2014 23:15:00 12.9 C 8.45 g/m*3 12.9 C 0 km/h
1272 25-06-2014 23:20:00 12.9 C 8.45 g/m*3 12.9 C 0 km/h
1273 25-06-2014 23:25:00 12.7 C 8.35 g/m*3 12.7 C 0 km/h
1274 25-06-2014 23:30:00 12.7 C 8.46 g/m*3 12.7 C 0 km/h
1275 25-06-2014 23:35:00 12.5 C 8.47 g/m*3 12.5 C 0 km/h
Sensor: Nr:Datum:Temp:Abs-Feuchte:Windchill:Wind:
Aussen-T/F 1276 25-06-2014 23:40:00 12.3 C 8.47 g/m*3 12.3 C 0 km/h
1277 25-06-2014 23:45:00 12.1 C 8.47 g/m*3 12.1 C 0 km/h
1278 25-06-2014 23:50:00 11.9 C 8.37 g/m*3 11.9 C 0 km/h
1279 25-06-2014 23:55:00 11.8 C 8.31 g/m*3 11.8 C 0 km/h
1280 26-06-2014 00:00:00 11.7 C 8.26 g/m*3 11.7 C 0 km/h
1281 26-06-2014 00:05:00 11.6 C 8.32 g/m*3 11.6 C 0 km/h
1282 26-06-2014 00:10:00 11.5 C 8.26 g/m*3 11.5 C 0 km/h
1283 26-06-2014 00:15:00 11.4 C 8.21 g/m*3 11.4 C 0 km/h
1284 26-06-2014 00:20:00 11.2 C 8.21 g/m*3 11.2 C 0 km/h
1285 26-06-2014 00:25:00 11.2 C 8.21 g/m*3 11.2 C 0 km/h
1286 26-06-2014 00:30:00 11.1 C 8.26 g/m*3 11.1 C 0 km/h
1287 26-06-2014 00:35:00 11 C 8.21 g/m*3 11 C 0 km/h
1288 26-06-2014 00:40:00 10.9 C 8.16 g/m*3 10.9 C 0 km/h
1289 26-06-2014 00:45:00 10.9 C 8.16 g/m*3 10.9 C 0 km/h
1290 26-06-2014 00:50:00 10.8 C 8.2 g/m*3 10.8 C 0 km/h
1291 26-06-2014 00:55:00 10.7 C 8.15 g/m*3 10.7 C 0 km/h
1292 26-06-2014 01:00:00 10.6 C 8.2 g/m*3 10.6 C 0 km/h
1293 26-06-2014 01:05:00 10.5 C 8.15 g/m*3 10.5 C 0 km/h
1294 26-06-2014 01:10:00 10.5 C 8.15 g/m*3 10.5 C 0 km/h
1295 26-06-2014 01:15:00 10.4 C 8.1 g/m*3 10.4 C 0 km/h
1296 26-06-2014 01:20:00 10.4 C 8.1 g/m*3 10.4 C 0 km/h
1297 26-06-2014 01:25:00 10.3 C 8.14 g/m*3 10.3 C 0 km/h
1298 26-06-2014 01:30:00 10.3 C 8.14 g/m*3 10.3 C 0 km/h
1299 26-06-2014 01:35:00 10.2 C 8.09 g/m*3 10.2 C 0 km/h
1300 26-06-2014 01:40:00 10.2 C 8.18 g/m*3 10.2 C 0 km/h
Sensor: Nr:Datum:Temp:Abs-Feuchte:Windchill:Wind:
Aussen-T/F 1301 26-06-2014 01:45:00 10.1 C 8.13 g/m*3 10.1 C 0 km/h
1302 26-06-2014 01:50:00 9.9 C 8.03 g/m*3 9.9 C 0 km/h
1303 26-06-2014 01:55:00 9.9 C 8.03 g/m*3 9.9 C 0 km/h
1304 26-06-2014 02:00:00 9.8 C 8.07 g/m*3 9.8 C 0 km/h
1305 26-06-2014 02:05:00 9.7 C 8.02 g/m*3 9.7 C 0 km/h
1306 26-06-2014 02:10:00 9.7 C 8.02 g/m*3 9.7 C 0 km/h
1307 26-06-2014 02:15:00 9.6 C 8.06 g/m*3 9.6 C 0 km/h
1308 26-06-2014 02:20:00 9.5 C 7.92 g/m*3 9.5 C 0 km/h
1309 26-06-2014 02:25:00 9.4 C 7.96 g/m*3 9.4 C 0 km/h
1310 26-06-2014 02:30:00 9.4 C 7.96 g/m*3 9.4 C 0 km/h
1311 26-06-2014 02:35:00 9.3 C 7.91 g/m*3 9.3 C 0 km/h
1312 26-06-2014 02:40:00 9.3 C 7.91 g/m*3 9.3 C 0 km/h
1313 26-06-2014 02:45:00 9.3 C 7.91 g/m*3 9.3 C 0 km/h
1314 26-06-2014 02:50:00 9.2 C 7.86 g/m*3 9.2 C 0 km/h
1315 26-06-2014 02:55:00 9.2 C 7.95 g/m*3 9.2 C 0 km/h
1316 26-06-2014 03:00:00 9.2 C 7.95 g/m*3 9.2 C 0 km/h
1317 26-06-2014 03:05:00 9.2 C 7.95 g/m*3 9.2 C 0 km/h
1318 26-06-2014 03:10:00 9.1 C 7.81 g/m*3 9.1 C 0 km/h
1319 26-06-2014 03:15:00 9 C 7.85 g/m*3 9 C 0 km/h
1320 26-06-2014 03:20:00 8.9 C 7.8 g/m*3 8.9 C 0 km/h
1321 26-06-2014 03:25:00 8.9 C 7.8 g/m*3 8.9 C 0 km/h
1322 26-06-2014 03:30:00 8.8 C 7.75 g/m*3 8.8 C 0 km/h
1323 26-06-2014 03:35:00 8.8 C 7.75 g/m*3 8.8 C 0 km/h
1324 26-06-2014 03:40:00 8.8 C 7.83 g/m*3 8.8 C 0 km/h
1325 26-06-2014 03:45:00 8.7 C 7.78 g/m*3 8.7 C 0 km/h
Sensor: Nr:Datum:Temp:Abs-Feuchte:Windchill:Wind:
Aussen-T/F 1326 26-06-2014 03:50:00 8.7 C 7.78 g/m*3 8.7 C 0 km/h
1327 26-06-2014 03:55:00 8.7 C 7.78 g/m*3 8.7 C 0 km/h
1328 26-06-2014 04:00:00 8.7 C 7.78 g/m*3 8.7 C 0 km/h
1329 26-06-2014 04:05:00 8.6 C 7.73 g/m*3 8.6 C 0 km/h
1330 26-06-2014 04:10:00 8.6 C 7.73 g/m*3 8.6 C 0 km/h
1331 26-06-2014 04:15:00 8.6 C 7.82 g/m*3 8.6 C 0 km/h
1332 26-06-2014 04:20:00 8.5 C 7.77 g/m*3 8.5 C 0 km/h
1333 26-06-2014 04:25:00 8.5 C 7.77 g/m*3 8.5 C 0 km/h
1334 26-06-2014 04:30:00 8.6 C 7.82 g/m*3 8.6 C 0 km/h
1335 26-06-2014 04:35:00 8.6 C 7.82 g/m*3 8.6 C 0 km/h
1336 26-06-2014 04:40:00 8.6 C 7.82 g/m*3 8.6 C 0 km/h
1337 26-06-2014 04:45:00 8.6 C 7.82 g/m*3 8.6 C 0 km/h
1338 26-06-2014 04:50:00 8.6 C 7.82 g/m*3 8.6 C 0 km/h
1339 26-06-2014 04:55:00 8.5 C 7.77 g/m*3 8.5 C 0 km/h
1340 26-06-2014 05:00:00 8.5 C 7.77 g/m*3 8.5 C 0 km/h
1341 26-06-2014 05:05:00 8.4 C 7.72 g/m*3 8.4 C 0 km/h
1342 26-06-2014 05:10:00 8.5 C 7.85 g/m*3 8.5 C 0 km/h
1343 26-06-2014 05:15:00 8.5 C 7.85 g/m*3 8.5 C 0 km/h
1344 26-06-2014 05:20:00 8.5 C 7.85 g/m*3 8.5 C 0 km/h
1345 26-06-2014 05:25:00 8.5 C 7.85 g/m*3 8.5 C 0 km/h
1346 26-06-2014 05:30:00 8.5 C 7.85 g/m*3 8.5 C 3.2 km/h
1347 26-06-2014 05:35:00 8.6 C 7.91 g/m*3 8.6 C 0 km/h
1348 26-06-2014 05:40:00 8.6 C 7.91 g/m*3 8.6 C 3.2 km/h
1349 26-06-2014 05:45:00 8.6 C 7.82 g/m*3 8.6 C 0 km/h
1350 26-06-2014 05:50:00 8.6 C 7.91 g/m*3 8.6 C 0 km/h
Sensor: Nr:Datum:Temp:Abs-Feuchte:Windchill:Wind:
Aussen-T/F 1351 26-06-2014 05:55:00 8.6 C 7.91 g/m*3 8.6 C 1.6 km/h
1352 26-06-2014 06:00:00 8.6 C 7.91 g/m*3 8.6 C 0 km/h
1353 26-06-2014 06:05:00 8.6 C 7.82 g/m*3 8.6 C 0 km/h
1354 26-06-2014 06:10:00 8.6 C 7.82 g/m*3 8.6 C 0 km/h
1355 26-06-2014 06:15:00 8.6 C 7.91 g/m*3 8.6 C 0 km/h
1356 26-06-2014 06:20:00 8.6 C 7.82 g/m*3 8.6 C 0 km/h
1357 26-06-2014 06:25:00 8.6 C 7.91 g/m*3 8.6 C 0 km/h
1358 26-06-2014 06:30:00 8.6 C 7.91 g/m*3 8.6 C 0 km/h
1359 26-06-2014 06:35:00 8.5 C 7.85 g/m*3 8.5 C 0 km/h
1360 26-06-2014 06:40:00 8.4 C 7.8 g/m*3 8.4 C 0 km/h
1361 26-06-2014 06:45:00 8.4 C 7.8 g/m*3 8.4 C 0 km/h
1362 26-06-2014 06:50:00 8.4 C 7.8 g/m*3 8.4 C 0 km/h
1363 26-06-2014 06:55:00 8.4 C 7.8 g/m*3 8.4 C 0 km/h
1364 26-06-2014 07:00:00 8.5 C 7.85 g/m*3 8.5 C 0 km/h
1365 26-06-2014 07:05:00 8.6 C 7.99 g/m*3 8.6 C 0 km/h
1366 26-06-2014 07:10:00 8.6 C 7.91 g/m*3 8.6 C 0 km/h
1367 26-06-2014 07:15:00 8.7 C 7.96 g/m*3 8.7 C 0 km/h
1368 26-06-2014 07:20:00 8.9 C 8.06 g/m*3 8.9 C 3.2 km/h
1369 26-06-2014 07:25:00 9.2 C 8.13 g/m*3 9.2 C 3.2 km/h
1370 26-06-2014 07:30:00 9.4 C 8.14 g/m*3 9.4 C 1.6 km/h
1371 26-06-2014 07:35:00 9.6 C 8.24 g/m*3 9.6 C 0 km/h
1372 26-06-2014 07:40:00 9.8 C 8.26 g/m*3 9.8 C 0 km/h
1373 26-06-2014 07:45:00 10.1 C 8.32 g/m*3 10.1 C 1.6 km/h
1374 26-06-2014 07:50:00 10.2 C 8.28 g/m*3 10.2 C 1.6 km/h
1375 26-06-2014 07:55:00 10.3 C 8.33 g/m*3 10.3 C 0 km/h
Sensor: Nr:Datum:Temp:Abs-Feuchte:Windchill:Wind:
Aussen-T/F 1376 26-06-2014 08:00:00 10.5 C 8.44 g/m*3 10.5 C 1.6 km/h
1377 26-06-2014 08:05:00 10.7 C 8.45 g/m*3 10.7 C 1.6 km/h
1378 26-06-2014 08:10:00 10.8 C 8.4 g/m*3 10.8 C 3.2 km/h
1379 26-06-2014 08:15:00 10.9 C 8.45 g/m*3 10.9 C 0 km/h
1380 26-06-2014 08:20:00 11.1 C 8.56 g/m*3 11.1 C 0 km/h
1381 26-06-2014 08:25:00 11.2 C 8.51 g/m*3 11.2 C 1.6 km/h
1382 26-06-2014 08:30:00 11.3 C 8.57 g/m*3 11.3 C 1.6 km/h
1383 26-06-2014 08:35:00 11.4 C 8.72 g/m*3 11.4 C 0 km/h
1384 26-06-2014 08:40:00 11.6 C 8.63 g/m*3 11.6 C 0 km/h
1385 26-06-2014 08:45:00 11.7 C 8.58 g/m*3 11.7 C 1.6 km/h
1386 26-06-2014 08:50:00 11.9 C 8.68 g/m*3 11.9 C 0 km/h
1387 26-06-2014 08:55:00 12.3 C 8.8 g/m*3 12.3 C 1.6 km/h
1388 26-06-2014 09:00:00 12.6 C 8.85 g/m*3 12.6 C 3.2 km/h
1389 26-06-2014 09:05:00 12.8 C 8.85 g/m*3 12.8 C 1.6 km/h
1390 26-06-2014 09:10:00 13 C 8.96 g/m*3 13 C 1.6 km/h
1391 26-06-2014 09:15:00 13.3 C 9.24 g/m*3 13.3 C 3.2 km/h
1392 26-06-2014 09:20:00 13.6 C 9.18 g/m*3 13.6 C 0 km/h
1393 26-06-2014 09:25:00 13.8 C 9.17 g/m*3 13.8 C 0 km/h
1394 26-06-2014 09:30:00 13.8 C 9.17 g/m*3 13.8 C 0 km/h
1395 26-06-2014 09:35:00 13.9 C 9.23 g/m*3 13.9 C 0 km/h
1396 26-06-2014 09:40:00 14.1 C 9.34 g/m*3 14.1 C 1.6 km/h
1397 26-06-2014 09:45:00 14.3 C 9.46 g/m*3 14.3 C 3.2 km/h
1398 26-06-2014 09:50:00 14.5 C 9.58 g/m*3 14.5 C 4.8 km/h
1399 26-06-2014 09:55:00 14.8 C 9.63 g/m*3 14.8 C 1.6 km/h
1400 26-06-2014 10:00:00 15.1 C 9.68 g/m*3 15.1 C 0 km/h
Sensor: Nr:Datum:Temp:Abs-Feuchte:Windchill:Wind:
Aussen-T/F 1401 26-06-2014 10:05:00 15.6 C 9.97 g/m*3 15.6 C 3.2 km/h
1402 26-06-2014 10:10:00 16.1 C 9.87 g/m*3 16.1 C 3.2 km/h
1403 26-06-2014 10:15:00 16.4 C 9.77 g/m*3 16.4 C 3.2 km/h
1404 26-06-2014 10:20:00 16.7 C 9.95 g/m*3 16.7 C 3.2 km/h
1405 26-06-2014 10:25:00 16.9 C 9.64 g/m*3 16.9 C 4.8 km/h
1406 26-06-2014 10:30:00 17.1 C 9.32 g/m*3 17.1 C 4.8 km/h
1407 26-06-2014 10:35:00 17.3 C 9.58 g/m*3 17.3 C 3.2 km/h
1408 26-06-2014 10:40:00 17.6 C 9.45 g/m*3 17.6 C 4.8 km/h
1409 26-06-2014 10:45:00 17.7 C 9.35 g/m*3 17.7 C 1.6 km/h
1410 26-06-2014 10:50:00 17.9 C 9.01 g/m*3 17.9 C 6.4 km/h
1411 26-06-2014 10:55:00 18.2 C 9.48 g/m*3 18.2 C 8.1 km/h
1412 26-06-2014 11:00:00 18.4 C 9.12 g/m*3 18.4 C 8.1 km/h
1413 26-06-2014 11:05:00 18.6 C 8.91 g/m*3 18.6 C 6.4 km/h
1414 26-06-2014 11:10:00 18.5 C 9.18 g/m*3 18.5 C 6.4 km/h
1415 26-06-2014 11:15:00 18.7 C 9.13 g/m*3 18.7 C 9.7 km/h
1416 26-06-2014 11:20:00 18.8 C 8.7 g/m*3 18.8 C 6.4 km/h
1417 26-06-2014 11:25:00 18.9 C 8.91 g/m*3 18.9 C 6.4 km/h
1418 26-06-2014 11:30:00 19 C 8.96 g/m*3 19 C 8.1 km/h
1419 26-06-2014 11:35:00 19.2 C 9.07 g/m*3 19.2 C 8.1 km/h
1420 26-06-2014 11:40:00 19.3 C 8.29 g/m*3 19.3 C 4.8 km/h
1421 26-06-2014 11:45:00 19.3 C 8.79 g/m*3 19.3 C 6.4 km/h
1422 26-06-2014 11:50:00 19.4 C 9.01 g/m*3 19.4 C 8.1 km/h
1423 26-06-2014 11:55:00 19.5 C 8.89 g/m*3 19.5 C 8.1 km/h
1424 26-06-2014 12:00:00 19.7 C 8.83 g/m*3 19.7 C 8.1 km/h
1425 26-06-2014 12:05:00 19.6 C 8.61 g/m*3 19.6 C 6.4 km/h
Sensor: Nr:Datum:Temp:Abs-Feuchte:Windchill:Wind:
Aussen-T/F 1426 26-06-2014 12:10:00 19.6 C 9.12 g/m*3 19.6 C 6.4 km/h
1427 26-06-2014 12:15:00 19.7 C 9.34 g/m*3 19.7 C 3.2 km/h
1428 26-06-2014 12:20:00 20.2 C 9.09 g/m*3 20.2 C 8.1 km/h
1429 26-06-2014 12:25:00 20.5 C 8.54 g/m*3 20.5 C 9.7 km/h
1430 26-06-2014 12:30:00 20.4 C 8.85 g/m*3 20.4 C 6.4 km/h
1431 26-06-2014 12:35:00 20.6 C 8.77 g/m*3 20.6 C 8.1 km/h
1432 26-06-2014 12:40:00 20.7 C 8.46 g/m*3 20.7 C 6.4 km/h
1433 26-06-2014 12:45:00 20.4 C 8.49 g/m*3 20.4 C 11.3 km/h
1434 26-06-2014 12:50:00 20.3 C 8.62 g/m*3 20.3 C 9.7 km/h
1435 26-06-2014 12:55:00 20.8 C 9.05 g/m*3 20.8 C 12.9 km/h
1436 26-06-2014 13:00:00 21.2 C 8.9 g/m*3 21.2 C 4.8 km/h
1437 26-06-2014 13:05:00 21.5 C 9.43 g/m*3 21.5 C 3.2 km/h
1438 26-06-2014 13:10:00 21.6 C 8.91 g/m*3 21.6 C 11.3 km/h
1439 26-06-2014 13:15:00 21.6 C 8.72 g/m*3 21.6 C 9.7 km/h
1440 26-06-2014 13:20:00 21.7 C 8.39 g/m*3 21.7 C 6.4 km/h
1441 26-06-2014 13:25:00 21.4 C 8.62 g/m*3 21.4 C 6.4 km/h
1442 26-06-2014 13:30:00 21.6 C 8.72 g/m*3 21.6 C 11.3 km/h
1443 26-06-2014 13:35:00 21.6 C 8.91 g/m*3 21.6 C 11.3 km/h
1444 26-06-2014 13:40:00 21.7 C 9.16 g/m*3 21.7 C 9.7 km/h
1445 26-06-2014 13:45:00 21.9 C 8.88 g/m*3 21.9 C 8.1 km/h
1446 26-06-2014 13:50:00 22.2 C 8.25 g/m*3 22.2 C 8.1 km/h
1447 26-06-2014 13:55:00 22.2 C 8.83 g/m*3 22.2 C 11.3 km/h
1448 26-06-2014 14:00:00 21.9 C 8.1 g/m*3 21.9 C 4.8 km/h
1449 26-06-2014 14:05:00 21.9 C 7.53 g/m*3 21.9 C 4.8 km/h
1450 26-06-2014 14:10:00 21.7 C 8.01 g/m*3 21.7 C 6.4 km/h
Sensor: Nr:Datum:Temp:Abs-Feuchte:Windchill:Wind:
Aussen-T/F 1451 26-06-2014 14:15:00 21.7 C 8.39 g/m*3 21.7 C 4.8 km/h
1452 26-06-2014 14:20:00 22 C 9.32 g/m*3 22 C 11.3 km/h
1453 26-06-2014 14:25:00 22.3 C 8.69 g/m*3 22.3 C 8.1 km/h
1454 26-06-2014 14:30:00 22.5 C 8.79 g/m*3 22.5 C 11.3 km/h
1455 26-06-2014 14:35:00 22.6 C 8.64 g/m*3 22.6 C 8.1 km/h
1456 26-06-2014 14:40:00 22.8 C 8.94 g/m*3 22.8 C 11.3 km/h
1457 26-06-2014 14:45:00 22.8 C 8.33 g/m*3 22.8 C 6.4 km/h
1458 26-06-2014 14:50:00 22.8 C 7.92 g/m*3 22.8 C 6.4 km/h
1459 26-06-2014 14:55:00 22.7 C 8.08 g/m*3 22.7 C 6.4 km/h
1460 26-06-2014 15:00:00 22.6 C 8.04 g/m*3 22.6 C 6.4 km/h
1461 26-06-2014 15:05:00 22.7 C 8.49 g/m*3 22.7 C 11.3 km/h
1462 26-06-2014 15:10:00 23.2 C 7.9 g/m*3 23.2 C 14.5 km/h
1463 26-06-2014 15:15:00 23.3 C 8.15 g/m*3 23.3 C 6.4 km/h
1464 26-06-2014 15:20:00 23.2 C 7.69 g/m*3 23.2 C 6.4 km/h
1465 26-06-2014 15:25:00 23.1 C 7.65 g/m*3 23.1 C 4.8 km/h
1466 26-06-2014 15:30:00 23.1 C 8.27 g/m*3 23.1 C 11.3 km/h
1467 26-06-2014 15:35:00 23.2 C 8.11 g/m*3 23.2 C 6.4 km/h
1468 26-06-2014 15:40:00 23.1 C 8.27 g/m*3 23.1 C 9.7 km/h
1469 26-06-2014 15:45:00 23.2 C 8.32 g/m*3 23.2 C 12.9 km/h
1470 26-06-2014 15:50:00 23.1 C 8.27 g/m*3 23.1 C 9.7 km/h
1471 26-06-2014 15:55:00 22.9 C 8.17 g/m*3 22.9 C 4.8 km/h
1472 26-06-2014 16:00:00 22.7 C 8.08 g/m*3 22.7 C 6.4 km/h
1473 26-06-2014 16:05:00 22.8 C 7.72 g/m*3 22.8 C 4.8 km/h
1474 26-06-2014 16:10:00 23.1 C 7.65 g/m*3 23.1 C 8.1 km/h
1475 26-06-2014 16:15:00 23.3 C 7.74 g/m*3 23.3 C 6.4 km/h
Sensor: Nr:Datum:Temp:Abs-Feuchte:Windchill:Wind:
Aussen-T/F 1476 26-06-2014 16:20:00 23.7 C 7.49 g/m*3 23.7 C 11.3 km/h
1477 26-06-2014 16:25:00 23.8 C 7.74 g/m*3 23.8 C 4.8 km/h
1478 26-06-2014 16:30:00 24.2 C 7.7 g/m*3 24.2 C 9.7 km/h
1479 26-06-2014 16:35:00 24.3 C 7.52 g/m*3 24.3 C 8.1 km/h
1480 26-06-2014 16:40:00 24.2 C 7.26 g/m*3 24.2 C 6.4 km/h
1481 26-06-2014 16:45:00 24.3 C 7.75 g/m*3 24.3 C 9.7 km/h
1482 26-06-2014 16:50:00 24.4 C 7.57 g/m*3 24.4 C 9.7 km/h
1483 26-06-2014 16:55:00 24.1 C 7.44 g/m*3 24.1 C 6.4 km/h
1484 26-06-2014 17:00:00 23.7 C 7.06 g/m*3 23.7 C 6.4 km/h
1485 26-06-2014 17:05:00 23.2 C 7.28 g/m*3 23.2 C 6.4 km/h
1486 26-06-2014 17:10:00 23.1 C 7.65 g/m*3 23.1 C 4.8 km/h
1487 26-06-2014 17:15:00 23.5 C 7.82 g/m*3 23.5 C 8.1 km/h
1488 26-06-2014 17:20:00 24.2 C 7.92 g/m*3 24.2 C 6.4 km/h
1489 26-06-2014 17:25:00 24.2 C 7.48 g/m*3 24.2 C 11.3 km/h
1490 26-06-2014 17:30:00 23.8 C 7.53 g/m*3 23.8 C 8.1 km/h
1491 26-06-2014 17:35:00 23.4 C 7.36 g/m*3 23.4 C 4.8 km/h
1492 26-06-2014 17:40:00 23.4 C 7.99 g/m*3 23.4 C 8.1 km/h
1493 26-06-2014 17:45:00 23.7 C 7.49 g/m*3 23.7 C 6.4 km/h
1494 26-06-2014 17:50:00 23.9 C 7.79 g/m*3 23.9 C 9.7 km/h
1495 26-06-2014 17:55:00 24.2 C 7.7 g/m*3 24.2 C 8.1 km/h
1496 26-06-2014 18:00:00 24.2 C 7.7 g/m*3 24.2 C 8.1 km/h
1497 26-06-2014 18:05:00 24.1 C 7.44 g/m*3 24.1 C 6.4 km/h
1498 26-06-2014 18:10:00 24.1 C 7 g/m*3 24.1 C 6.4 km/h
1499 26-06-2014 18:15:00 24.1 C 7.66 g/m*3 24.1 C 3.2 km/h
1500 26-06-2014 18:20:00 24.3 C 7.75 g/m*3 24.3 C 9.7 km/h
Sensor: Nr:Datum:Temp:Abs-Feuchte:Windchill:Wind:
Aussen-T/F 1501 26-06-2014 18:25:00 24.6 C 7.43 g/m*3 24.6 C 9.7 km/h
1502 26-06-2014 18:30:00 24.6 C 7.65 g/m*3 24.6 C 8.1 km/h
1503 26-06-2014 18:35:00 24.5 C 7.39 g/m*3 24.5 C 4.8 km/h
1504 26-06-2014 18:40:00 24.6 C 7.65 g/m*3 24.6 C 6.4 km/h
1505 26-06-2014 18:45:00 24.7 C 7.7 g/m*3 24.7 C 8.1 km/h
1506 26-06-2014 18:50:00 24.7 C 7.47 g/m*3 24.7 C 8.1 km/h
1507 26-06-2014 18:55:00 24.4 C 7.34 g/m*3 24.4 C 6.4 km/h
1508 26-06-2014 19:00:00 24.4 C 7.34 g/m*3 24.4 C 6.4 km/h
1509 26-06-2014 19:05:00 24.4 C 7.57 g/m*3 24.4 C 8.1 km/h
1510 26-06-2014 19:10:00 24.3 C 6.86 g/m*3 24.3 C 4.8 km/h
1511 26-06-2014 19:15:00 24.2 C 7.26 g/m*3 24.2 C 4.8 km/h
1512 26-06-2014 19:20:00 24.1 C 7 g/m*3 24.1 C 3.2 km/h
1513 26-06-2014 19:25:00 23.7 C 7.06 g/m*3 23.7 C 4.8 km/h
1514 26-06-2014 19:30:00 23.3 C 7.32 g/m*3 23.3 C 3.2 km/h
1515 26-06-2014 19:35:00 23.1 C 6.82 g/m*3 23.1 C 3.2 km/h
1516 26-06-2014 19:40:00 22.9 C 6.95 g/m*3 22.9 C 3.2 km/h
1517 26-06-2014 19:45:00 22.8 C 6.71 g/m*3 22.8 C 3.2 km/h
1518 26-06-2014 19:50:00 22.7 C 6.87 g/m*3 22.7 C 1.6 km/h
1519 26-06-2014 19:55:00 22.6 C 7.23 g/m*3 22.6 C 4.8 km/h
1520 26-06-2014 20:00:00 22.7 C 7.07 g/m*3 22.7 C 4.8 km/h
1521 26-06-2014 20:05:00 22.7 C 7.07 g/m*3 22.7 C 3.2 km/h
1522 26-06-2014 20:10:00 22.6 C 7.03 g/m*3 22.6 C 3.2 km/h
1523 26-06-2014 20:15:00 22.4 C 7.15 g/m*3 22.4 C 4.8 km/h
1524 26-06-2014 20:20:00 22.3 C 7.11 g/m*3 22.3 C 4.8 km/h
1525 26-06-2014 20:25:00 22.2 C 8.83 g/m*3 22.2 C 1.6 km/h
Sensor: Nr:Datum:Temp:Abs-Feuchte:Windchill:Wind:
Aussen-T/F 1526 26-06-2014 20:30:00 22 C 8.93 g/m*3 22 C 1.6 km/h
1527 26-06-2014 20:35:00 21.6 C 8.91 g/m*3 21.6 C 1.6 km/h
1528 26-06-2014 20:40:00 20.9 C 8.92 g/m*3 20.9 C 0 km/h
1529 26-06-2014 20:45:00 20.3 C 8.97 g/m*3 20.3 C 0 km/h
1530 26-06-2014 20:50:00 19.7 C 9 g/m*3 19.7 C 0 km/h
1531 26-06-2014 20:55:00 19.2 C 8.9 g/m*3 19.2 C 0 km/h
1532 26-06-2014 21:00:00 19 C 9.13 g/m*3 19 C 0 km/h
1533 26-06-2014 21:05:00 18.8 C 9.18 g/m*3 18.8 C 1.6 km/h
1534 26-06-2014 21:10:00 18.7 C 9.13 g/m*3 18.7 C 0 km/h
1535 26-06-2014 21:15:00 18.4 C 9.12 g/m*3 18.4 C 0 km/h
1536 26-06-2014 21:20:00 18.1 C 8.96 g/m*3 18.1 C 0 km/h
1537 26-06-2014 21:25:00 17.8 C 8.8 g/m*3 17.8 C 0 km/h
1538 26-06-2014 21:30:00 17.6 C 8.7 g/m*3 17.6 C 1.6 km/h
1539 26-06-2014 21:35:00 17.5 C 8.65 g/m*3 17.5 C 0 km/h
1540 26-06-2014 21:40:00 17.3 C 8.54 g/m*3 17.3 C 0 km/h
1541 26-06-2014 21:45:00 17.1 C 8.44 g/m*3 17.1 C 0 km/h
1542 26-06-2014 21:50:00 16.9 C 8.34 g/m*3 16.9 C 0 km/h
1543 26-06-2014 21:55:00 16.9 C 8.49 g/m*3 16.9 C 0 km/h
1544 26-06-2014 22:00:00 16.7 C 8.53 g/m*3 16.7 C 0 km/h
1545 26-06-2014 22:05:00 16.5 C 8.43 g/m*3 16.5 C 0 km/h
1546 26-06-2014 22:10:00 16.4 C 8.37 g/m*3 16.4 C 0 km/h
1547 26-06-2014 22:15:00 16.3 C 8.46 g/m*3 16.3 C 1.6 km/h
1548 26-06-2014 22:20:00 16.2 C 8.41 g/m*3 16.2 C 0 km/h
1549 26-06-2014 22:25:00 16 C 8.45 g/m*3 16 C 0 km/h
1550 26-06-2014 22:30:00 15.9 C 8.4 g/m*3 15.9 C 0 km/h
Sensor: Nr:Datum:Temp:Abs-Feuchte:Windchill:Wind:
Aussen-T/F 1551 26-06-2014 22:35:00 15.8 C 8.35 g/m*3 15.8 C 1.6 km/h
1552 26-06-2014 22:40:00 15.8 C 8.35 g/m*3 15.8 C 0 km/h
1553 26-06-2014 22:45:00 15.7 C 8.56 g/m*3 15.7 C 0 km/h
1554 26-06-2014 22:50:00 15.5 C 8.59 g/m*3 15.5 C 0 km/h
1555 26-06-2014 22:55:00 15.4 C 8.67 g/m*3 15.4 C 0 km/h
1556 26-06-2014 23:00:00 15.3 C 8.62 g/m*3 15.3 C 1.6 km/h
1557 26-06-2014 23:05:00 15.3 C 8.49 g/m*3 15.3 C 0 km/h
1558 26-06-2014 23:10:00 15.2 C 8.44 g/m*3 15.2 C 0 km/h
1559 26-06-2014 23:15:00 15.1 C 8.51 g/m*3 15.1 C 1.6 km/h
1560 26-06-2014 23:20:00 15.1 C 8.51 g/m*3 15.1 C 0 km/h
1561 26-06-2014 23:25:00 14.9 C 8.41 g/m*3 14.9 C 0 km/h
1562 26-06-2014 23:30:00 14.9 C 8.41 g/m*3 14.9 C 0 km/h
1563 26-06-2014 23:35:00 14.8 C 8.36 g/m*3 14.8 C 0 km/h
1564 26-06-2014 23:40:00 14.7 C 8.44 g/m*3 14.7 C 0 km/h
1565 26-06-2014 23:45:00 14.6 C 8.38 g/m*3 14.6 C 0 km/h
1566 26-06-2014 23:50:00 14.5 C 8.46 g/m*3 14.5 C 0 km/h
1567 26-06-2014 23:55:00 14.4 C 8.41 g/m*3 14.4 C 0 km/h
1568 27-06-2014 00:00:00 14.3 C 8.48 g/m*3 14.3 C 0 km/h
1569 27-06-2014 00:05:00 14.2 C 8.43 g/m*3 14.2 C 0 km/h
1570 27-06-2014 00:10:00 14.1 C 8.5 g/m*3 14.1 C 0 km/h
1571 27-06-2014 00:15:00 13.9 C 8.39 g/m*3 13.9 C 0 km/h
1572 27-06-2014 00:20:00 13.8 C 8.46 g/m*3 13.8 C 0 km/h
1573 27-06-2014 00:25:00 13.7 C 8.53 g/m*3 13.7 C 0 km/h
1574 27-06-2014 00:30:00 13.6 C 8.59 g/m*3 13.6 C 0 km/h
1575 27-06-2014 00:35:00 13.5 C 8.54 g/m*3 13.5 C 0 km/h
Sensor: Nr:Datum:Temp:Abs-Feuchte:Windchill:Wind:
Aussen-T/F 1576 27-06-2014 00:40:00 13.4 C 8.49 g/m*3 13.4 C 0 km/h
1577 27-06-2014 00:45:00 13.3 C 8.55 g/m*3 13.3 C 0 km/h
1578 27-06-2014 00:50:00 13.2 C 8.61 g/m*3 13.2 C 0 km/h
1579 27-06-2014 00:55:00 13.2 C 8.61 g/m*3 13.2 C 0 km/h
1580 27-06-2014 01:00:00 13.2 C 8.61 g/m*3 13.2 C 0 km/h
1581 27-06-2014 01:05:00 13.1 C 8.67 g/m*3 13.1 C 0 km/h
1582 27-06-2014 01:10:00 13 C 8.62 g/m*3 13 C 0 km/h
1583 27-06-2014 01:15:00 12.9 C 8.57 g/m*3 12.9 C 0 km/h
1584 27-06-2014 01:20:00 12.8 C 8.51 g/m*3 12.8 C 0 km/h
1585 27-06-2014 01:25:00 12.7 C 8.57 g/m*3 12.7 C 0 km/h
1586 27-06-2014 01:30:00 12.6 C 8.52 g/m*3 12.6 C 0 km/h
1587 27-06-2014 01:35:00 12.5 C 8.47 g/m*3 12.5 C 0 km/h
1588 27-06-2014 01:40:00 12.4 C 8.52 g/m*3 12.4 C 0 km/h
1589 27-06-2014 01:45:00 12.4 C 8.63 g/m*3 12.4 C 0 km/h
1590 27-06-2014 01:50:00 12.3 C 8.58 g/m*3 12.3 C 0 km/h
1591 27-06-2014 01:55:00 12.3 C 8.58 g/m*3 12.3 C 0 km/h
1592 27-06-2014 02:00:00 12.2 C 8.52 g/m*3 12.2 C 0 km/h
1593 27-06-2014 02:05:00 12.1 C 8.47 g/m*3 12.1 C 0 km/h
1594 27-06-2014 02:10:00 11.9 C 8.37 g/m*3 11.9 C 0 km/h
1595 27-06-2014 02:15:00 11.8 C 8.42 g/m*3 11.8 C 0 km/h
1596 27-06-2014 02:20:00 11.8 C 8.42 g/m*3 11.8 C 0 km/h
1597 27-06-2014 02:25:00 11.7 C 8.47 g/m*3 11.7 C 0 km/h
1598 27-06-2014 02:30:00 11.6 C 8.42 g/m*3 11.6 C 0 km/h
1599 27-06-2014 02:35:00 11.6 C 8.42 g/m*3 11.6 C 0 km/h
1600 27-06-2014 02:40:00 11.6 C 8.42 g/m*3 11.6 C 0 km/h
Sensor: Nr:Datum:Temp:Abs-Feuchte:Windchill:Wind:
Aussen-T/F 1601 27-06-2014 02:45:00 11.6 C 8.42 g/m*3 11.6 C 0 km/h
1602 27-06-2014 02:50:00 11.6 C 8.42 g/m*3 11.6 C 0 km/h
1603 27-06-2014 02:55:00 11.5 C 8.37 g/m*3 11.5 C 0 km/h
1604 27-06-2014 03:00:00 11.4 C 8.31 g/m*3 11.4 C 0 km/h
1605 27-06-2014 03:05:00 11.4 C 8.42 g/m*3 11.4 C 0 km/h
1606 27-06-2014 03:10:00 11.4 C 8.42 g/m*3 11.4 C 0 km/h
1607 27-06-2014 03:15:00 11.3 C 8.36 g/m*3 11.3 C 0 km/h
1608 27-06-2014 03:20:00 11.2 C 8.31 g/m*3 11.2 C 0 km/h
1609 27-06-2014 03:25:00 11.2 C 8.41 g/m*3 11.2 C 0 km/h
1610 27-06-2014 03:30:00 11.1 C 8.36 g/m*3 11.1 C 0 km/h
1611 27-06-2014 03:35:00 11.1 C 8.36 g/m*3 11.1 C 0 km/h
1612 27-06-2014 03:40:00 11.1 C 8.36 g/m*3 11.1 C 0 km/h
1613 27-06-2014 03:45:00 11 C 8.31 g/m*3 11 C 0 km/h
1614 27-06-2014 03:50:00 10.9 C 8.36 g/m*3 10.9 C 0 km/h
1615 27-06-2014 03:55:00 10.8 C 8.3 g/m*3 10.8 C 0 km/h
1616 27-06-2014 04:00:00 10.8 C 8.3 g/m*3 10.8 C 0 km/h
1617 27-06-2014 04:05:00 10.7 C 8.25 g/m*3 10.7 C 0 km/h
1618 27-06-2014 04:10:00 10.6 C 8.3 g/m*3 10.6 C 0 km/h
1619 27-06-2014 04:15:00 10.6 C 8.3 g/m*3 10.6 C 0 km/h
1620 27-06-2014 04:20:00 10.5 C 8.24 g/m*3 10.5 C 0 km/h
1621 27-06-2014 04:25:00 10.4 C 8.19 g/m*3 10.4 C 0 km/h
1622 27-06-2014 04:30:00 10.4 C 8.29 g/m*3 10.4 C 0 km/h
1623 27-06-2014 04:35:00 10.3 C 8.14 g/m*3 10.3 C 0 km/h
1624 27-06-2014 04:40:00 10.3 C 8.24 g/m*3 10.3 C 0 km/h
1625 27-06-2014 04:45:00 10.2 C 8.18 g/m*3 10.2 C 0 km/h
Sensor: Nr:Datum:Temp:Abs-Feuchte:Windchill:Wind:
Aussen-T/F 1626 27-06-2014 04:50:00 10.2 C 8.18 g/m*3 10.2 C 0 km/h
1627 27-06-2014 04:55:00 10.2 C 8.28 g/m*3 10.2 C 0 km/h
1628 27-06-2014 05:00:00 10.2 C 8.28 g/m*3 10.2 C 0 km/h
1629 27-06-2014 05:05:00 10.1 C 8.13 g/m*3 10.1 C 0 km/h
1630 27-06-2014 05:10:00 10.1 C 8.23 g/m*3 10.1 C 0 km/h
1631 27-06-2014 05:15:00 10.1 C 8.23 g/m*3 10.1 C 0 km/h
1632 27-06-2014 05:20:00 10 C 8.17 g/m*3 10 C 0 km/h
1633 27-06-2014 05:25:00 9.9 C 8.12 g/m*3 9.9 C 0 km/h
1634 27-06-2014 05:30:00 9.9 C 8.22 g/m*3 9.9 C 0 km/h
1635 27-06-2014 05:35:00 10 C 8.27 g/m*3 10 C 0 km/h
1636 27-06-2014 05:40:00 10.1 C 8.32 g/m*3 10.1 C 0 km/h
1637 27-06-2014 05:45:00 10.2 C 8.37 g/m*3 10.2 C 0 km/h
1638 27-06-2014 05:50:00 10.3 C 8.43 g/m*3 10.3 C 0 km/h
1639 27-06-2014 05:55:00 10.3 C 8.33 g/m*3 10.3 C 0 km/h
1640 27-06-2014 06:00:00 10.3 C 8.33 g/m*3 10.3 C 0 km/h
1641 27-06-2014 06:05:00 10.2 C 8.28 g/m*3 10.2 C 0 km/h
1642 27-06-2014 06:10:00 10.2 C 8.28 g/m*3 10.2 C 0 km/h
1643 27-06-2014 06:15:00 10.2 C 8.37 g/m*3 10.2 C 0 km/h
1644 27-06-2014 06:20:00 10.1 C 8.32 g/m*3 10.1 C 0 km/h
1645 27-06-2014 06:25:00 10.1 C 8.32 g/m*3 10.1 C 0 km/h
1646 27-06-2014 06:30:00 10.2 C 8.37 g/m*3 10.2 C 0 km/h
1647 27-06-2014 06:35:00 10.2 C 8.37 g/m*3 10.2 C 0 km/h
1648 27-06-2014 06:40:00 10.3 C 8.43 g/m*3 10.3 C 0 km/h
1649 27-06-2014 06:45:00 10.4 C 8.48 g/m*3 10.4 C 0 km/h
1650 27-06-2014 06:50:00 10.4 C 8.48 g/m*3 10.4 C 0 km/h
Sensor: Nr:Datum:Temp:Abs-Feuchte:Windchill:Wind:
Aussen-T/F 1651 27-06-2014 06:55:00 10.6 C 8.59 g/m*3 10.6 C 0 km/h
1652 27-06-2014 07:00:00 10.7 C 8.64 g/m*3 10.7 C 0 km/h
1653 27-06-2014 07:05:00 10.8 C 8.7 g/m*3 10.8 C 3.2 km/h
1654 27-06-2014 07:10:00 11 C 8.61 g/m*3 11 C 1.6 km/h
1655 27-06-2014 07:15:00 11.2 C 8.82 g/m*3 11.2 C 0 km/h
1656 27-06-2014 07:20:00 11.3 C 8.77 g/m*3 11.3 C 0 km/h
1657 27-06-2014 07:25:00 11.4 C 8.83 g/m*3 11.4 C 0 km/h
1658 27-06-2014 07:30:00 11.5 C 8.78 g/m*3 11.5 C 1.6 km/h
1659 27-06-2014 07:35:00 11.6 C 8.83 g/m*3 11.6 C 0 km/h
1660 27-06-2014 07:40:00 11.7 C 8.79 g/m*3 11.7 C 0 km/h
1661 27-06-2014 07:45:00 11.7 C 8.89 g/m*3 11.7 C 0 km/h
1662 27-06-2014 07:50:00 11.7 C 8.89 g/m*3 11.7 C 1.6 km/h
1663 27-06-2014 07:55:00 12.2 C 8.96 g/m*3 12.2 C 1.6 km/h
1664 27-06-2014 08:00:00 12.3 C 8.9 g/m*3 12.3 C 3.2 km/h
1665 27-06-2014 08:05:00 12.4 C 8.85 g/m*3 12.4 C 1.6 km/h
1666 27-06-2014 08:10:00 12.7 C 9.13 g/m*3 12.7 C 0 km/h
1667 27-06-2014 08:15:00 13.1 C 9.13 g/m*3 13.1 C 1.6 km/h
1668 27-06-2014 08:20:00 13.5 C 9.24 g/m*3 13.5 C 1.6 km/h
1669 27-06-2014 08:25:00 13.8 C 9.06 g/m*3 13.8 C 0 km/h
1670 27-06-2014 08:30:00 14.3 C 8.97 g/m*3 14.3 C 0 km/h
1671 27-06-2014 08:35:00 14.7 C 9.19 g/m*3 14.7 C 1.6 km/h
1672 27-06-2014 08:40:00 15.2 C 9.35 g/m*3 15.2 C 0 km/h
1673 27-06-2014 08:45:00 15.7 C 9.5 g/m*3 15.7 C 1.6 km/h
1674 27-06-2014 08:50:00 15.9 C 9.34 g/m*3 15.9 C 0 km/h
1675 27-06-2014 08:55:00 16.1 C 9.87 g/m*3 16.1 C 0 km/h
Sensor: Nr:Datum:Temp:Abs-Feuchte:Windchill:Wind:
Aussen-T/F 1676 27-06-2014 09:00:00 15.9 C 9.75 g/m*3 15.9 C 0 km/h
1677 27-06-2014 09:05:00 15.8 C 9.96 g/m*3 15.8 C 0 km/h
1678 27-06-2014 09:10:00 15.7 C 10.03 g/m*3 15.7 C 0 km/h
1679 27-06-2014 09:15:00 15.7 C 9.77 g/m*3 15.7 C 1.6 km/h
1680 27-06-2014 09:20:00 15.8 C 9.56 g/m*3 15.8 C 3.2 km/h
1681 27-06-2014 09:25:00 15.9 C 9.75 g/m*3 15.9 C 3.2 km/h
1682 27-06-2014 09:30:00 16.1 C 9.73 g/m*3 16.1 C 1.6 km/h
1683 27-06-2014 09:35:00 16.2 C 9.65 g/m*3 16.2 C 1.6 km/h
1684 27-06-2014 09:40:00 16.4 C 9.77 g/m*3 16.4 C 0 km/h
1685 27-06-2014 09:45:00 16.6 C 9.89 g/m*3 16.6 C 0 km/h
1686 27-06-2014 09:50:00 16.8 C 9.87 g/m*3 16.8 C 1.6 km/h
1687 27-06-2014 09:55:00 16.9 C 10.07 g/m*3 16.9 C 0 km/h
1688 27-06-2014 10:00:00 17.1 C 10.34 g/m*3 17.1 C 0 km/h
1689 27-06-2014 10:05:00 17.2 C 9.23 g/m*3 17.2 C 1.6 km/h
1690 27-06-2014 10:10:00 17.3 C 9.43 g/m*3 17.3 C 3.2 km/h
1691 27-06-2014 10:15:00 17.4 C 9.48 g/m*3 17.4 C 0 km/h
1692 27-06-2014 10:20:00 17.7 C 9.81 g/m*3 17.7 C 1.6 km/h
1693 27-06-2014 10:25:00 17.9 C 9.92 g/m*3 17.9 C 3.2 km/h
1694 27-06-2014 10:30:00 18.1 C 10.04 g/m*3 18.1 C 1.6 km/h
1695 27-06-2014 10:35:00 18.2 C 9.48 g/m*3 18.2 C 1.6 km/h
1696 27-06-2014 10:40:00 18.3 C 10.01 g/m*3 18.3 C 0 km/h
1697 27-06-2014 10:45:00 18.8 C 10.31 g/m*3 18.8 C 3.2 km/h
1698 27-06-2014 10:50:00 19.1 C 10 g/m*3 19.1 C 3.2 km/h
1699 27-06-2014 10:55:00 19.3 C 10.28 g/m*3 19.3 C 1.6 km/h
1700 27-06-2014 11:00:00 19.5 C 9.9 g/m*3 19.5 C 3.2 km/h
Sensor: Nr:Datum:Temp:Abs-Feuchte:Windchill:Wind:
Aussen-T/F 1701 27-06-2014 11:05:00 19.7 C 9.68 g/m*3 19.7 C 3.2 km/h
1702 27-06-2014 11:10:00 19.8 C 9.91 g/m*3 19.8 C 4.8 km/h
1703 27-06-2014 11:15:00 19.9 C 9.62 g/m*3 19.9 C 4.8 km/h
1704 27-06-2014 11:20:00 20.1 C 9.91 g/m*3 20.1 C 4.8 km/h
1705 27-06-2014 11:25:00 20.2 C 9.62 g/m*3 20.2 C 6.4 km/h
1706 27-06-2014 11:30:00 20.3 C 9.5 g/m*3 20.3 C 6.4 km/h
1707 27-06-2014 11:35:00 20.3 C 9.5 g/m*3 20.3 C 4.8 km/h
1708 27-06-2014 11:40:00 20.4 C 9.73 g/m*3 20.4 C 9.7 km/h
1709 27-06-2014 11:45:00 20.6 C 9.31 g/m*3 20.6 C 4.8 km/h
1710 27-06-2014 11:50:00 20.7 C 9.36 g/m*3 20.7 C 8.1 km/h
1711 27-06-2014 11:55:00 21 C 9.16 g/m*3 21 C 8.1 km/h
1712 27-06-2014 12:00:00 21.2 C 9.08 g/m*3 21.2 C 9.7 km/h
1713 27-06-2014 12:05:00 21.5 C 9.05 g/m*3 21.5 C 9.7 km/h
1714 27-06-2014 12:10:00 21.7 C 9.54 g/m*3 21.7 C 8.1 km/h
1715 27-06-2014 12:15:00 21.8 C 9.02 g/m*3 21.8 C 12.9 km/h
1716 27-06-2014 12:20:00 21.8 C 8.83 g/m*3 21.8 C 6.4 km/h
1717 27-06-2014 12:25:00 21.8 C 8.83 g/m*3 21.8 C 11.3 km/h
1718 27-06-2014 12:30:00 21.7 C 8.77 g/m*3 21.7 C 8.1 km/h
1719 27-06-2014 12:35:00 21.6 C 8.72 g/m*3 21.6 C 8.1 km/h
1720 27-06-2014 12:40:00 21.6 C 8.72 g/m*3 21.6 C 8.1 km/h
1721 27-06-2014 12:45:00 21.7 C 8.58 g/m*3 21.7 C 6.4 km/h
1722 27-06-2014 12:50:00 22 C 8.73 g/m*3 22 C 6.4 km/h
1723 27-06-2014 12:55:00 22.6 C 8.64 g/m*3 22.6 C 11.3 km/h
1724 27-06-2014 13:00:00 22.8 C 8.53 g/m*3 22.8 C 8.1 km/h
1725 27-06-2014 13:05:00 22.9 C 8.38 g/m*3 22.9 C 8.1 km/h
Sensor: Nr:Datum:Temp:Abs-Feuchte:Windchill:Wind:
Aussen-T/F 1726 27-06-2014 13:10:00 22.9 C 8.79 g/m*3 22.9 C 6.4 km/h
1727 27-06-2014 13:15:00 23.1 C 8.48 g/m*3 23.1 C 8.1 km/h
1728 27-06-2014 13:20:00 23.2 C 8.73 g/m*3 23.2 C 8.1 km/h
1729 27-06-2014 13:25:00 23.5 C 8.46 g/m*3 23.5 C 9.7 km/h
1730 27-06-2014 13:30:00 23.8 C 8.82 g/m*3 23.8 C 8.1 km/h
1731 27-06-2014 13:35:00 24.2 C 9.02 g/m*3 24.2 C 9.7 km/h
1732 27-06-2014 13:40:00 24.4 C 8.23 g/m*3 24.4 C 9.7 km/h
1733 27-06-2014 13:45:00 24.7 C 8.6 g/m*3 24.7 C 17.7 km/h
1734 27-06-2014 13:50:00 25 C 8.75 g/m*3 25 C 17.7 km/h
1735 27-06-2014 13:55:00 25.4 C 8.48 g/m*3 25.4 C 12.9 km/h
1736 27-06-2014 14:00:00 25.8 C 8.67 g/m*3 25.8 C 16.1 km/h
1737 27-06-2014 14:05:00 25.8 C 9.15 g/m*3 25.8 C 17.7 km/h
1738 27-06-2014 14:10:00 25.7 C 8.86 g/m*3 25.7 C 17.7 km/h
1739 27-06-2014 14:15:00 25.1 C 9.03 g/m*3 25.1 C 14.5 km/h
1740 27-06-2014 14:20:00 24.9 C 9.16 g/m*3 24.9 C 8.1 km/h
1741 27-06-2014 14:25:00 25.3 C 9.36 g/m*3 25.3 C 12.9 km/h
1742 27-06-2014 14:30:00 25.8 C 9.15 g/m*3 25.8 C 16.1 km/h
1743 27-06-2014 14:35:00 25.9 C 8.96 g/m*3 25.9 C 14.5 km/h
1744 27-06-2014 14:40:00 25.8 C 9.15 g/m*3 25.8 C 14.5 km/h
1745 27-06-2014 14:45:00 25.6 C 9.05 g/m*3 25.6 C 19.3 km/h
1746 27-06-2014 14:50:00 25.3 C 9.13 g/m*3 25.3 C 11.3 km/h
1747 27-06-2014 14:55:00 25.1 C 9.03 g/m*3 25.1 C 4.8 km/h
1748 27-06-2014 15:00:00 25.1 C 9.26 g/m*3 25.1 C 11.3 km/h
1749 27-06-2014 15:05:00 25.2 C 9.08 g/m*3 25.2 C 9.7 km/h
1750 27-06-2014 15:10:00 25.4 C 8.95 g/m*3 25.4 C 8.1 km/h
Sensor: Nr:Datum:Temp:Abs-Feuchte:Windchill:Wind:
Aussen-T/F 1751 27-06-2014 15:15:00 25.5 C 9 g/m*3 25.5 C 14.5 km/h
1752 27-06-2014 15:20:00 25.4 C 8.95 g/m*3 25.4 C 11.3 km/h
1753 27-06-2014 15:25:00 25.3 C 9.13 g/m*3 25.3 C 12.9 km/h
1754 27-06-2014 15:30:00 25.4 C 9.18 g/m*3 25.4 C 6.4 km/h
1755 27-06-2014 15:35:00 25.6 C 9.05 g/m*3 25.6 C 11.3 km/h
1756 27-06-2014 15:40:00 25.6 C 8.81 g/m*3 25.6 C 9.7 km/h
1757 27-06-2014 15:45:00 25.9 C 9.2 g/m*3 25.9 C 11.3 km/h
1758 27-06-2014 15:50:00 26.4 C 8.96 g/m*3 26.4 C 9.7 km/h
1759 27-06-2014 15:55:00 26.8 C 9.16 g/m*3 26.8 C 12.9 km/h
1760 27-06-2014 16:00:00 27.1 C 9.32 g/m*3 27.1 C 9.7 km/h
1761 27-06-2014 16:05:00 27.2 C 9.11 g/m*3 27.2 C 12.9 km/h
1762 27-06-2014 16:10:00 27.1 C 9.06 g/m*3 27.1 C 12.9 km/h
1763 27-06-2014 16:15:00 27 C 8.75 g/m*3 27 C 12.9 km/h
1764 27-06-2014 16:20:00 27.1 C 9.06 g/m*3 27.1 C 12.9 km/h
1765 27-06-2014 16:25:00 27.1 C 9.06 g/m*3 27.1 C 4.8 km/h
1766 27-06-2014 16:30:00 27 C 9.01 g/m*3 27 C 11.3 km/h
1767 27-06-2014 16:35:00 26.8 C 8.91 g/m*3 26.8 C 11.3 km/h
1768 27-06-2014 16:40:00 26.6 C 9.31 g/m*3 26.6 C 11.3 km/h
1769 27-06-2014 16:45:00 26.4 C 8.71 g/m*3 26.4 C 12.9 km/h
1770 27-06-2014 16:50:00 26.2 C 8.86 g/m*3 26.2 C 14.5 km/h
1771 27-06-2014 16:55:00 25.9 C 9.2 g/m*3 25.9 C 6.4 km/h
1772 27-06-2014 17:00:00 25.8 C 8.91 g/m*3 25.8 C 8.1 km/h
1773 27-06-2014 17:05:00 25.5 C 9.23 g/m*3 25.5 C 3.2 km/h
1774 27-06-2014 17:10:00 25.1 C 9.03 g/m*3 25.1 C 11.3 km/h
1775 27-06-2014 17:15:00 24.8 C 9.1 g/m*3 24.8 C 4.8 km/h
Sensor: Nr:Datum:Temp:Abs-Feuchte:Windchill:Wind:
Aussen-T/F 1776 27-06-2014 17:20:00 24.4 C 9.12 g/m*3 24.4 C 16.1 km/h
1777 27-06-2014 17:25:00 24.1 C 9.63 g/m*3 24.1 C 17.7 km/h
1778 27-06-2014 17:30:00 23.7 C 9.84 g/m*3 23.7 C 16.1 km/h
1779 27-06-2014 17:35:00 23.2 C 9.98 g/m*3 23.2 C 12.9 km/h
1780 27-06-2014 17:40:00 23 C 10.28 g/m*3 23 C 11.3 km/h
1781 27-06-2014 17:45:00 22.7 C 10.51 g/m*3 22.7 C 16.1 km/h
1782 27-06-2014 17:50:00 22.4 C 10.53 g/m*3 22.4 C 12.9 km/h
1783 27-06-2014 17:55:00 22.3 C 10.47 g/m*3 22.3 C 11.3 km/h
1784 27-06-2014 18:00:00 22.2 C 10.41 g/m*3 22.2 C 14.5 km/h
1785 27-06-2014 18:05:00 22.2 C 10.41 g/m*3 22.2 C 8.1 km/h
1786 27-06-2014 18:10:00 22.2 C 10.41 g/m*3 22.2 C 6.4 km/h
1787 27-06-2014 18:15:00 22.2 C 10.41 g/m*3 22.2 C 8.1 km/h
1788 27-06-2014 18:20:00 22.2 C 10.41 g/m*3 22.2 C 9.7 km/h
1789 27-06-2014 18:25:00 22.2 C 10.6 g/m*3 22.2 C 8.1 km/h
1790 27-06-2014 18:30:00 22.2 C 10.41 g/m*3 22.2 C 9.7 km/h
1791 27-06-2014 18:35:00 22.2 C 10.6 g/m*3 22.2 C 8.1 km/h
1792 27-06-2014 18:40:00 22.2 C 10.6 g/m*3 22.2 C 6.4 km/h
1793 27-06-2014 18:45:00 22.2 C 10.6 g/m*3 22.2 C 3.2 km/h
1794 27-06-2014 18:50:00 22.1 C 10.54 g/m*3 22.1 C 3.2 km/h
1795 27-06-2014 18:55:00 22 C 11.65 g/m*3 22 C 6.4 km/h
1796 27-06-2014 19:00:00 21.6 C 11.76 g/m*3 21.6 C 4.8 km/h
1797 27-06-2014 19:05:00 21.2 C 11.86 g/m*3 21.2 C 4.8 km/h
1798 27-06-2014 19:10:00 20.9 C 11.84 g/m*3 20.9 C 6.4 km/h
1799 27-06-2014 19:15:00 20.7 C 11.88 g/m*3 20.7 C 4.8 km/h
1800 27-06-2014 19:20:00 20.6 C 11.99 g/m*3 20.6 C 4.8 km/h
Sensor: Nr:Datum:Temp:Abs-Feuchte:Windchill:Wind:
Aussen-T/F 1801 27-06-2014 19:25:00 20.6 C 11.99 g/m*3 20.6 C 4.8 km/h
1802 27-06-2014 19:30:00 20.5 C 11.92 g/m*3 20.5 C 3.2 km/h
1803 27-06-2014 19:35:00 20.4 C 12.03 g/m*3 20.4 C 1.6 km/h
1804 27-06-2014 19:40:00 20.4 C 12.21 g/m*3 20.4 C 1.6 km/h
1805 27-06-2014 19:45:00 20.3 C 11.96 g/m*3 20.3 C 0 km/h
1806 27-06-2014 19:50:00 20.4 C 12.03 g/m*3 20.4 C 4.8 km/h
1807 27-06-2014 19:55:00 20.5 C 12.1 g/m*3 20.5 C 3.2 km/h
1808 27-06-2014 20:00:00 20.6 C 12.17 g/m*3 20.6 C 0 km/h
1809 27-06-2014 20:05:00 20.5 C 12.1 g/m*3 20.5 C 3.2 km/h
1810 27-06-2014 20:10:00 20.4 C 12.03 g/m*3 20.4 C 1.6 km/h
1811 27-06-2014 20:15:00 20.3 C 12.31 g/m*3 20.3 C 0 km/h
1812 27-06-2014 20:20:00 20.2 C 12.41 g/m*3 20.2 C 0 km/h
1813 27-06-2014 20:25:00 20 C 12.44 g/m*3 20 C 0 km/h
1814 27-06-2014 20:30:00 19.8 C 12.47 g/m*3 19.8 C 0 km/h
1815 27-06-2014 20:35:00 19.7 C 12.4 g/m*3 19.7 C 0 km/h
1816 27-06-2014 20:40:00 19.6 C 12.49 g/m*3 19.6 C 0 km/h
1817 27-06-2014 20:45:00 19.5 C 12.42 g/m*3 19.5 C 0 km/h
1818 27-06-2014 20:50:00 19.4 C 12.51 g/m*3 19.4 C 0 km/h
1819 27-06-2014 20:55:00 19.2 C 12.37 g/m*3 19.2 C 0 km/h
1820 27-06-2014 21:00:00 19 C 12.39 g/m*3 19 C 0 km/h
1821 27-06-2014 21:05:00 18.8 C 12.24 g/m*3 18.8 C 0 km/h
1822 27-06-2014 21:10:00 18.8 C 12.24 g/m*3 18.8 C 0 km/h
1823 27-06-2014 21:15:00 18.7 C 12.17 g/m*3 18.7 C 0 km/h
1824 27-06-2014 21:20:00 18.6 C 12.1 g/m*3 18.6 C 0 km/h
1825 27-06-2014 21:25:00 18.5 C 12.02 g/m*3 18.5 C 0 km/h
Sensor: Nr:Datum:Temp:Abs-Feuchte:Windchill:Wind:
Aussen-T/F 1826 27-06-2014 21:30:00 18.4 C 12.11 g/m*3 18.4 C 0 km/h
1827 27-06-2014 21:35:00 18.3 C 12.04 g/m*3 18.3 C 0 km/h
1828 27-06-2014 21:40:00 18.3 C 12.2 g/m*3 18.3 C 0 km/h
1829 27-06-2014 21:45:00 18.2 C 12.59 g/m*3 18.2 C 0 km/h
1830 27-06-2014 21:50:00 17.9 C 12.83 g/m*3 17.9 C 0 km/h
1831 27-06-2014 21:55:00 17.7 C 12.82 g/m*3 17.7 C 1.6 km/h
1832 27-06-2014 22:00:00 17.4 C 12.89 g/m*3 17.4 C 0 km/h
1833 27-06-2014 22:05:00 17.2 C 12.74 g/m*3 17.2 C 0 km/h
1834 27-06-2014 22:10:00 16.9 C 12.51 g/m*3 16.9 C 0 km/h
1835 27-06-2014 22:15:00 16.8 C 12.44 g/m*3 16.8 C 1.6 km/h
1836 27-06-2014 22:20:00 16.6 C 12.29 g/m*3 16.6 C 1.6 km/h
1837 27-06-2014 22:25:00 16.5 C 12.22 g/m*3 16.5 C 1.6 km/h
1838 27-06-2014 22:30:00 16.5 C 12.22 g/m*3 16.5 C 1.6 km/h
1839 27-06-2014 22:35:00 16.2 C 12 g/m*3 16.2 C 0 km/h
1840 27-06-2014 22:40:00 16.2 C 12 g/m*3 16.2 C 0 km/h
1841 27-06-2014 22:45:00 16.1 C 12.06 g/m*3 16.1 C 0 km/h
1842 27-06-2014 22:50:00 16 C 11.99 g/m*3 16 C 0 km/h
1843 27-06-2014 22:55:00 15.9 C 11.92 g/m*3 15.9 C 0 km/h
1844 27-06-2014 23:00:00 15.9 C 12.05 g/m*3 15.9 C 1.6 km/h
1845 27-06-2014 23:05:00 15.8 C 11.98 g/m*3 15.8 C 0 km/h
1846 27-06-2014 23:10:00 15.8 C 11.98 g/m*3 15.8 C 0 km/h
1847 27-06-2014 23:15:00 15.7 C 11.91 g/m*3 15.7 C 0 km/h
1848 27-06-2014 23:20:00 15.7 C 11.91 g/m*3 15.7 C 0 km/h
1849 27-06-2014 23:25:00 15.7 C 11.91 g/m*3 15.7 C 0 km/h
1850 27-06-2014 23:30:00 15.7 C 11.91 g/m*3 15.7 C 0 km/h
Sensor: Nr:Datum:Temp:Abs-Feuchte:Windchill:Wind:
Aussen-T/F 1851 27-06-2014 23:35:00 15.6 C 11.84 g/m*3 15.6 C 0 km/h
1852 27-06-2014 23:40:00 15.5 C 11.9 g/m*3 15.5 C 0 km/h
1853 27-06-2014 23:45:00 15.7 C 12.04 g/m*3 15.7 C 12.9 km/h
1854 27-06-2014 23:50:00 16.2 C 12 g/m*3 16.2 C 9.7 km/h
1855 27-06-2014 23:55:00 16.6 C 12.15 g/m*3 16.6 C 8.1 km/h
1856 28-06-2014 00:00:00 16.6 C 12.01 g/m*3 16.6 C 8.1 km/h
1857 28-06-2014 00:05:00 16.7 C 12.08 g/m*3 16.7 C 0 km/h
1858 28-06-2014 00:10:00 16.6 C 12.01 g/m*3 16.6 C 3.2 km/h
1859 28-06-2014 00:15:00 16.6 C 12.15 g/m*3 16.6 C 12.9 km/h
1860 28-06-2014 00:20:00 16.5 C 12.08 g/m*3 16.5 C 3.2 km/h
1861 28-06-2014 00:25:00 16.4 C 12 g/m*3 16.4 C 11.3 km/h
1862 28-06-2014 00:30:00 16.4 C 12 g/m*3 16.4 C 8.1 km/h
1863 28-06-2014 00:35:00 16.3 C 11.93 g/m*3 16.3 C 0 km/h
1864 28-06-2014 00:40:00 16.2 C 11.86 g/m*3 16.2 C 0 km/h
1865 28-06-2014 00:45:00 16.1 C 11.79 g/m*3 16.1 C 0 km/h
1866 28-06-2014 00:50:00 16.1 C 11.93 g/m*3 16.1 C 0 km/h
1867 28-06-2014 00:55:00 15.9 C 11.78 g/m*3 15.9 C 0 km/h
1868 28-06-2014 01:00:00 15.8 C 11.71 g/m*3 15.8 C 0 km/h
1869 28-06-2014 01:05:00 15.8 C 11.71 g/m*3 15.8 C 0 km/h
1870 28-06-2014 01:10:00 15.7 C 11.64 g/m*3 15.7 C 0 km/h
1871 28-06-2014 01:15:00 15.5 C 11.63 g/m*3 15.5 C 0 km/h
1872 28-06-2014 01:20:00 15.4 C 11.56 g/m*3 15.4 C 0 km/h
1873 28-06-2014 01:25:00 15.3 C 11.49 g/m*3 15.3 C 0 km/h
1874 28-06-2014 01:30:00 15.1 C 11.35 g/m*3 15.1 C 0 km/h
1875 28-06-2014 01:35:00 15 C 11.41 g/m*3 15 C 0 km/h
Sensor: Nr:Datum:Temp:Abs-Feuchte:Windchill:Wind:
Aussen-T/F 1876 28-06-2014 01:40:00 14.9 C 11.34 g/m*3 14.9 C 0 km/h
1877 28-06-2014 01:45:00 14.7 C 11.21 g/m*3 14.7 C 0 km/h
1878 28-06-2014 01:50:00 14.6 C 11.14 g/m*3 14.6 C 0 km/h
1879 28-06-2014 01:55:00 14.5 C 11.19 g/m*3 14.5 C 0 km/h
1880 28-06-2014 02:00:00 14.4 C 11.13 g/m*3 14.4 C 0 km/h
1881 28-06-2014 02:05:00 14.4 C 11.13 g/m*3 14.4 C 0 km/h
1882 28-06-2014 02:10:00 14.3 C 11.06 g/m*3 14.3 C 0 km/h
1883 28-06-2014 02:15:00 14.3 C 11.06 g/m*3 14.3 C 0 km/h
1884 28-06-2014 02:20:00 14.3 C 11.06 g/m*3 14.3 C 0 km/h
1885 28-06-2014 02:25:00 14.3 C 11.06 g/m*3 14.3 C 0 km/h
1886 28-06-2014 02:30:00 14.2 C 11.11 g/m*3 14.2 C 0 km/h
1887 28-06-2014 02:35:00 14.2 C 11.11 g/m*3 14.2 C 0 km/h
1888 28-06-2014 02:40:00 14.3 C 11.18 g/m*3 14.3 C 0 km/h
1889 28-06-2014 02:45:00 14.3 C 11.18 g/m*3 14.3 C 1.6 km/h
1890 28-06-2014 02:50:00 14.4 C 11.37 g/m*3 14.4 C 4.8 km/h
1891 28-06-2014 02:55:00 14.5 C 11.44 g/m*3 14.5 C 0 km/h
1892 28-06-2014 03:00:00 14.5 C 11.32 g/m*3 14.5 C 0 km/h
1893 28-06-2014 03:05:00 14.4 C 11.25 g/m*3 14.4 C 0 km/h
1894 28-06-2014 03:10:00 14.4 C 11.25 g/m*3 14.4 C 0 km/h
1895 28-06-2014 03:15:00 14.3 C 11.18 g/m*3 14.3 C 0 km/h
1896 28-06-2014 03:20:00 14.2 C 11.11 g/m*3 14.2 C 0 km/h
1897 28-06-2014 03:25:00 14.1 C 11.04 g/m*3 14.1 C 0 km/h
1898 28-06-2014 03:30:00 13.9 C 10.91 g/m*3 13.9 C 0 km/h
1899 28-06-2014 03:35:00 13.9 C 11.03 g/m*3 13.9 C 0 km/h
1900 28-06-2014 03:40:00 13.9 C 11.03 g/m*3 13.9 C 0 km/h
Sensor: Nr:Datum:Temp:Abs-Feuchte:Windchill:Wind:
Aussen-T/F 1901 28-06-2014 03:45:00 14 C 11.1 g/m*3 14 C 1.6 km/h
1902 28-06-2014 03:50:00 14.1 C 11.17 g/m*3 14.1 C 1.6 km/h
1903 28-06-2014 03:55:00 14.1 C 11.17 g/m*3 14.1 C 0 km/h
1904 28-06-2014 04:00:00 14 C 11.1 g/m*3 14 C 0 km/h
1905 28-06-2014 04:05:00 13.9 C 11.03 g/m*3 13.9 C 0 km/h
1906 28-06-2014 04:10:00 13.8 C 10.96 g/m*3 13.8 C 0 km/h
1907 28-06-2014 04:15:00 13.8 C 10.96 g/m*3 13.8 C 1.6 km/h
1908 28-06-2014 04:20:00 13.7 C 10.89 g/m*3 13.7 C 0 km/h
1909 28-06-2014 04:25:00 13.7 C 10.89 g/m*3 13.7 C 0 km/h
1910 28-06-2014 04:30:00 13.7 C 10.89 g/m*3 13.7 C 0 km/h
1911 28-06-2014 04:35:00 13.7 C 10.89 g/m*3 13.7 C 0 km/h
1912 28-06-2014 04:40:00 13.6 C 10.83 g/m*3 13.6 C 0 km/h
1913 28-06-2014 04:45:00 13.4 C 10.69 g/m*3 13.4 C 0 km/h
1914 28-06-2014 04:50:00 13.3 C 10.63 g/m*3 13.3 C 0 km/h
1915 28-06-2014 04:55:00 13.2 C 10.56 g/m*3 13.2 C 0 km/h
1916 28-06-2014 05:00:00 13.1 C 10.5 g/m*3 13.1 C 0 km/h
1917 28-06-2014 05:05:00 13.1 C 10.5 g/m*3 13.1 C 0 km/h
1918 28-06-2014 05:10:00 13.1 C 10.61 g/m*3 13.1 C 0 km/h
1919 28-06-2014 05:15:00 13.1 C 10.61 g/m*3 13.1 C 0 km/h
1920 28-06-2014 05:20:00 13.1 C 10.61 g/m*3 13.1 C 0 km/h
1921 28-06-2014 05:25:00 13.2 C 10.68 g/m*3 13.2 C 0 km/h
1922 28-06-2014 05:30:00 13.2 C 10.68 g/m*3 13.2 C 0 km/h
1923 28-06-2014 05:35:00 13.2 C 10.68 g/m*3 13.2 C 0 km/h
1924 28-06-2014 05:40:00 13.2 C 10.68 g/m*3 13.2 C 0 km/h
1925 28-06-2014 05:45:00 13.2 C 10.68 g/m*3 13.2 C 0 km/h
Sensor: Nr:Datum:Temp:Abs-Feuchte:Windchill:Wind:
Aussen-T/F 1926 28-06-2014 05:50:00 13.2 C 10.68 g/m*3 13.2 C 0 km/h
1927 28-06-2014 05:55:00 13.2 C 10.68 g/m*3 13.2 C 0 km/h
1928 28-06-2014 06:00:00 13.2 C 10.68 g/m*3 13.2 C 0 km/h
1929 28-06-2014 06:05:00 13.2 C 10.68 g/m*3 13.2 C 0 km/h
1930 28-06-2014 06:10:00 13.3 C 10.74 g/m*3 13.3 C 0 km/h
1931 28-06-2014 06:15:00 13.3 C 10.74 g/m*3 13.3 C 0 km/h
1932 28-06-2014 06:20:00 13.3 C 10.74 g/m*3 13.3 C 0 km/h
1933 28-06-2014 06:25:00 13.4 C 10.81 g/m*3 13.4 C 0 km/h
1934 28-06-2014 06:30:00 13.5 C 10.76 g/m*3 13.5 C 1.6 km/h
1935 28-06-2014 06:35:00 13.6 C 10.83 g/m*3 13.6 C 0 km/h
1936 28-06-2014 06:40:00 13.6 C 10.83 g/m*3 13.6 C 1.6 km/h
1937 28-06-2014 06:45:00 13.7 C 10.89 g/m*3 13.7 C 0 km/h
1938 28-06-2014 06:50:00 13.7 C 10.78 g/m*3 13.7 C 0 km/h
1939 28-06-2014 06:55:00 13.8 C 10.96 g/m*3 13.8 C 0 km/h
1940 28-06-2014 07:00:00 13.9 C 10.91 g/m*3 13.9 C 0 km/h
1941 28-06-2014 07:05:00 13.9 C 10.91 g/m*3 13.9 C 0 km/h
1942 28-06-2014 07:10:00 14.1 C 11.04 g/m*3 14.1 C 4.8 km/h
1943 28-06-2014 07:15:00 14.2 C 10.99 g/m*3 14.2 C 1.6 km/h
1944 28-06-2014 07:20:00 14.3 C 11.06 g/m*3 14.3 C 0 km/h
1945 28-06-2014 07:25:00 14.3 C 11.06 g/m*3 14.3 C 1.6 km/h
1946 28-06-2014 07:30:00 14.4 C 11.13 g/m*3 14.4 C 0 km/h
1947 28-06-2014 07:35:00 14.6 C 11.26 g/m*3 14.6 C 0 km/h
1948 28-06-2014 07:40:00 14.7 C 11.21 g/m*3 14.7 C 0 km/h
1949 28-06-2014 07:45:00 14.8 C 11.4 g/m*3 14.8 C 0 km/h
1950 28-06-2014 07:50:00 15 C 11.41 g/m*3 15 C 1.6 km/h
Sensor: Nr:Datum:Temp:Abs-Feuchte:Windchill:Wind:
Aussen-T/F 1951 28-06-2014 07:55:00 15.2 C 11.42 g/m*3 15.2 C 3.2 km/h
1952 28-06-2014 08:00:00 15.3 C 11.49 g/m*3 15.3 C 1.6 km/h
1953 28-06-2014 08:05:00 15.4 C 11.43 g/m*3 15.4 C 1.6 km/h
1954 28-06-2014 08:10:00 15.5 C 11.5 g/m*3 15.5 C 0 km/h
1955 28-06-2014 08:15:00 15.7 C 11.64 g/m*3 15.7 C 3.2 km/h
1956 28-06-2014 08:20:00 15.7 C 11.51 g/m*3 15.7 C 3.2 km/h
1957 28-06-2014 08:25:00 15.9 C 11.65 g/m*3 15.9 C 1.6 km/h
1958 28-06-2014 08:30:00 16.1 C 11.65 g/m*3 16.1 C 0 km/h
1959 28-06-2014 08:35:00 16.2 C 11.86 g/m*3 16.2 C 1.6 km/h
1960 28-06-2014 08:40:00 16.4 C 11.72 g/m*3 16.4 C 0 km/h
1961 28-06-2014 08:45:00 16.6 C 11.72 g/m*3 16.6 C 3.2 km/h
1962 28-06-2014 08:50:00 16.7 C 11.94 g/m*3 16.7 C 3.2 km/h
1963 28-06-2014 08:55:00 16.8 C 11.72 g/m*3 16.8 C 3.2 km/h
1964 28-06-2014 09:00:00 16.9 C 11.79 g/m*3 16.9 C 3.2 km/h
1965 28-06-2014 09:05:00 17.1 C 11.94 g/m*3 17.1 C 3.2 km/h
1966 28-06-2014 09:10:00 17.1 C 11.79 g/m*3 17.1 C 4.8 km/h
1967 28-06-2014 09:15:00 17.2 C 11.86 g/m*3 17.2 C 1.6 km/h
1968 28-06-2014 09:20:00 17.3 C 11.79 g/m*3 17.3 C 4.8 km/h
1969 28-06-2014 09:25:00 17.4 C 11.71 g/m*3 17.4 C 3.2 km/h
1970 28-06-2014 09:30:00 17.6 C 11.7 g/m*3 17.6 C 3.2 km/h
1971 28-06-2014 09:35:00 17.7 C 11.62 g/m*3 17.7 C 8.1 km/h
1972 28-06-2014 09:40:00 17.9 C 11.6 g/m*3 17.9 C 6.4 km/h
1973 28-06-2014 09:45:00 18 C 11.67 g/m*3 18 C 6.4 km/h
1974 28-06-2014 09:50:00 18.2 C 11.81 g/m*3 18.2 C 4.8 km/h
1975 28-06-2014 09:55:00 18.3 C 11.88 g/m*3 18.3 C 3.2 km/h
Sensor: Nr:Datum:Temp:Abs-Feuchte:Windchill:Wind:
Aussen-T/F 1976 28-06-2014 10:00:00 18.4 C 11.64 g/m*3 18.4 C 3.2 km/h
1977 28-06-2014 10:05:00 18.5 C 11.71 g/m*3 18.5 C 4.8 km/h
1978 28-06-2014 10:10:00 18.6 C 11.78 g/m*3 18.6 C 4.8 km/h
1979 28-06-2014 10:15:00 18.8 C 12.08 g/m*3 18.8 C 4.8 km/h
1980 28-06-2014 10:20:00 19.2 C 11.87 g/m*3 19.2 C 6.4 km/h
1981 28-06-2014 10:25:00 19.3 C 11.78 g/m*3 19.3 C 8.1 km/h
1982 28-06-2014 10:30:00 19.4 C 11.68 g/m*3 19.4 C 6.4 km/h
1983 28-06-2014 10:35:00 19.4 C 11.68 g/m*3 19.4 C 6.4 km/h
1984 28-06-2014 10:40:00 19.5 C 11.75 g/m*3 19.5 C 8.1 km/h
1985 28-06-2014 10:45:00 19.7 C 12.23 g/m*3 19.7 C 4.8 km/h
1986 28-06-2014 10:50:00 19.9 C 11.85 g/m*3 19.9 C 8.1 km/h
1987 28-06-2014 10:55:00 20.1 C 11.82 g/m*3 20.1 C 6.4 km/h
1988 28-06-2014 11:00:00 20.1 C 11.65 g/m*3 20.1 C 9.7 km/h
1989 28-06-2014 11:05:00 20.2 C 11.89 g/m*3 20.2 C 9.7 km/h
1990 28-06-2014 11:10:00 20.4 C 11.85 g/m*3 20.4 C 6.4 km/h
1991 28-06-2014 11:15:00 20.6 C 11.99 g/m*3 20.6 C 9.7 km/h
1992 28-06-2014 11:20:00 20.8 C 11.95 g/m*3 20.8 C 8.1 km/h
1993 28-06-2014 11:25:00 20.9 C 11.84 g/m*3 20.9 C 9.7 km/h
1994 28-06-2014 11:30:00 21.1 C 11.98 g/m*3 21.1 C 9.7 km/h
1995 28-06-2014 11:35:00 21.2 C 12.05 g/m*3 21.2 C 6.4 km/h
1996 28-06-2014 11:40:00 21.2 C 11.86 g/m*3 21.2 C 8.1 km/h
1997 28-06-2014 11:45:00 21.2 C 12.05 g/m*3 21.2 C 6.4 km/h
1998 28-06-2014 11:50:00 21.3 C 11.56 g/m*3 21.3 C 8.1 km/h
1999 28-06-2014 11:55:00 21.6 C 11.95 g/m*3 21.6 C 6.4 km/h
2000 28-06-2014 12:00:00 21.7 C 11.83 g/m*3 21.7 C 6.4 km/h
Sensor: Nr:Datum:Temp:Abs-Feuchte:Windchill:Wind:
Aussen-T/F 2001 28-06-2014 12:05:00 21.8 C 11.9 g/m*3 21.8 C 3.2 km/h
2002 28-06-2014 12:10:00 21.8 C 11.7 g/m*3 21.8 C 6.4 km/h
2003 28-06-2014 12:15:00 21.8 C 11.51 g/m*3 21.8 C 8.1 km/h
2004 28-06-2014 12:20:00 21.9 C 11.77 g/m*3 21.9 C 8.1 km/h
2005 28-06-2014 12:25:00 22.1 C 11.71 g/m*3 22.1 C 8.1 km/h
2006 28-06-2014 12:30:00 22.2 C 11.78 g/m*3 22.2 C 9.7 km/h
2007 28-06-2014 12:35:00 22.3 C 11.65 g/m*3 22.3 C 12.9 km/h
2008 28-06-2014 12:40:00 22.2 C 11.58 g/m*3 22.2 C 9.7 km/h
2009 28-06-2014 12:45:00 22.2 C 11.58 g/m*3 22.2 C 11.3 km/h
2010 28-06-2014 12:50:00 22.2 C 11.39 g/m*3 22.2 C 11.3 km/h
2011 28-06-2014 12:55:00 22.2 C 11.39 g/m*3 22.2 C 11.3 km/h
2012 28-06-2014 13:00:00 22.3 C 11.45 g/m*3 22.3 C 8.1 km/h
2013 28-06-2014 13:05:00 22.3 C 11.45 g/m*3 22.3 C 9.7 km/h
2014 28-06-2014 13:10:00 22.2 C 11.78 g/m*3 22.2 C 3.2 km/h
2015 28-06-2014 13:15:00 21.8 C 12.47 g/m*3 21.8 C 3.2 km/h
2016 28-06-2014 13:20:00 21.8 C 12.47 g/m*3 21.8 C 1.6 km/h
2017 28-06-2014 13:25:00 20.3 C 13.37 g/m*3 20.3 C 1.6 km/h
2018 28-06-2014 13:30:00 19.5 C 13.59 g/m*3 19.5 C 1.6 km/h
2019 28-06-2014 13:35:00 18.9 C 13.61 g/m*3 18.9 C 1.6 km/h
2020 28-06-2014 13:40:00 18.7 C 13.93 g/m*3 18.7 C 1.6 km/h
2021 28-06-2014 13:45:00 18.6 C 14.01 g/m*3 18.6 C 1.6 km/h
2022 28-06-2014 13:50:00 18.5 C 14.08 g/m*3 18.5 C 1.6 km/h
2023 28-06-2014 13:55:00 18.4 C 14.16 g/m*3 18.4 C 0 km/h
2024 28-06-2014 14:00:00 18.3 C 14.07 g/m*3 18.3 C 0 km/h
2025 28-06-2014 14:05:00 18.4 C 14.31 g/m*3 18.4 C 0 km/h
Sensor: Nr:Datum:Temp:Abs-Feuchte:Windchill:Wind:
Aussen-T/F 2026 28-06-2014 14:10:00 18.4 C 14.31 g/m*3 18.4 C 0 km/h
2027 28-06-2014 14:15:00 18.4 C 13.84 g/m*3 18.4 C 0 km/h
2028 28-06-2014 14:20:00 18.7 C 14.41 g/m*3 18.7 C 0 km/h
2029 28-06-2014 14:25:00 18.8 C 14.17 g/m*3 18.8 C 0 km/h
2030 28-06-2014 14:30:00 18.9 C 14.42 g/m*3 18.9 C 0 km/h
2031 28-06-2014 14:35:00 19 C 14.5 g/m*3 19 C 0 km/h
2032 28-06-2014 14:40:00 18.9 C 14.26 g/m*3 18.9 C 0 km/h
2033 28-06-2014 14:45:00 18.9 C 14.42 g/m*3 18.9 C 0 km/h
2034 28-06-2014 14:50:00 18.8 C 14.49 g/m*3 18.8 C 0 km/h
2035 28-06-2014 14:55:00 18.8 C 14.49 g/m*3 18.8 C 0 km/h
2036 28-06-2014 15:00:00 18.7 C 14.41 g/m*3 18.7 C 0 km/h
2037 28-06-2014 15:05:00 18.4 C 14 g/m*3 18.4 C 0 km/h
2038 28-06-2014 15:10:00 18.3 C 13.76 g/m*3 18.3 C 0 km/h
2039 28-06-2014 15:15:00 18.4 C 14.16 g/m*3 18.4 C 0 km/h
2040 28-06-2014 15:20:00 18.3 C 14.23 g/m*3 18.3 C 1.6 km/h
2041 28-06-2014 15:25:00 18.2 C 13.99 g/m*3 18.2 C 1.6 km/h
2042 28-06-2014 15:30:00 18.1 C 14.06 g/m*3 18.1 C 0 km/h
2043 28-06-2014 15:35:00 17.8 C 13.66 g/m*3 17.8 C 0 km/h
2044 28-06-2014 15:40:00 17.7 C 13.73 g/m*3 17.7 C 0 km/h
2045 28-06-2014 15:45:00 17.5 C 13.72 g/m*3 17.5 C 0 km/h
2046 28-06-2014 15:50:00 17.3 C 13.55 g/m*3 17.3 C 0 km/h
2047 28-06-2014 15:55:00 17.3 C 13.55 g/m*3 17.3 C 1.6 km/h
2048 28-06-2014 16:00:00 17.2 C 13.47 g/m*3 17.2 C 0 km/h
2049 28-06-2014 16:05:00 17.2 C 13.47 g/m*3 17.2 C 0 km/h
2050 28-06-2014 16:15:00 16.8 C 13.44 g/m*3 16.8 C 0 km/h
Sensor: Nr:Datum:Temp:Abs-Feuchte:Windchill:Wind:
Aussen-T/F 2051 28-06-2014 16:20:00 16.8 C 13.44 g/m*3 16.8 C 0 km/h
2052 28-06-2014 16:25:00 16.7 C 13.36 g/m*3 16.7 C 0 km/h
2053 28-06-2014 16:30:00 16.7 C 13.36 g/m*3 16.7 C 0 km/h
2054 28-06-2014 16:35:00 16.7 C 13.36 g/m*3 16.7 C 0 km/h
2055 28-06-2014 16:40:00 16.7 C 13.36 g/m*3 16.7 C 0 km/h
2056 28-06-2014 16:45:00 16.6 C 13.28 g/m*3 16.6 C 0 km/h
2057 28-06-2014 16:50:00 16.6 C 13.28 g/m*3 16.6 C 0 km/h
2058 28-06-2014 16:55:00 16.6 C 13.28 g/m*3 16.6 C 1.6 km/h
2059 28-06-2014 17:00:00 16.6 C 13.28 g/m*3 16.6 C 0 km/h
2060 28-06-2014 17:05:00 16.6 C 13.28 g/m*3 16.6 C 0 km/h
2061 28-06-2014 17:10:00 16.6 C 13.42 g/m*3 16.6 C 0 km/h
2062 28-06-2014 17:15:00 16.6 C 13.42 g/m*3 16.6 C 0 km/h
2063 28-06-2014 17:20:00 16.6 C 13.28 g/m*3 16.6 C 3.2 km/h
2064 28-06-2014 17:25:00 16.5 C 13.2 g/m*3 16.5 C 0 km/h
2065 28-06-2014 17:30:00 16.5 C 13.2 g/m*3 16.5 C 0 km/h
2066 28-06-2014 17:55:00 16.4 C 13.26 g/m*3 16.4 C 1.6 km/h
2067 28-06-2014 18:00:00 16.4 C 13.26 g/m*3 16.4 C 1.6 km/h
2068 28-06-2014 18:05:00 16.3 C 13.04 g/m*3 16.3 C 3.2 km/h
2069 28-06-2014 18:10:00 16.2 C 12.96 g/m*3 16.2 C 3.2 km/h
2070 28-06-2014 18:15:00 16.2 C 13.1 g/m*3 16.2 C 6.4 km/h
2071 28-06-2014 18:20:00 16.1 C 13.02 g/m*3 16.1 C 3.2 km/h
2072 28-06-2014 18:25:00 15.9 C 12.73 g/m*3 15.9 C 4.8 km/h
2073 28-06-2014 18:30:00 15.7 C 12.58 g/m*3 15.7 C 3.2 km/h
2074 28-06-2014 18:35:00 15.6 C 12.5 g/m*3 15.6 C 1.6 km/h
2075 28-06-2014 18:40:00 15.6 C 12.63 g/m*3 15.6 C 1.6 km/h
Sensor: Nr:Datum:Temp:Abs-Feuchte:Windchill:Wind:
Aussen-T/F 2076 28-06-2014 18:45:00 15.6 C 12.63 g/m*3 15.6 C 1.6 km/h
2077 28-06-2014 18:50:00 15.6 C 12.63 g/m*3 15.6 C 0 km/h
2078 28-06-2014 18:55:00 15.6 C 12.63 g/m*3 15.6 C 0 km/h
2079 28-06-2014 19:00:00 15.6 C 12.63 g/m*3 15.6 C 1.6 km/h
2080 28-06-2014 19:05:00 15.6 C 12.63 g/m*3 15.6 C 0 km/h
2081 28-06-2014 19:10:00 15.6 C 12.63 g/m*3 15.6 C 0 km/h
2082 28-06-2014 19:15:00 15.5 C 12.56 g/m*3 15.5 C 0 km/h
2083 28-06-2014 19:20:00 15.5 C 12.69 g/m*3 15.5 C 4.8 km/h
2084 28-06-2014 19:25:00 15.5 C 12.69 g/m*3 15.5 C 1.6 km/h
2085 28-06-2014 19:30:00 15.5 C 12.69 g/m*3 15.5 C 1.6 km/h
2086 28-06-2014 19:35:00 15.5 C 12.69 g/m*3 15.5 C 3.2 km/h
2087 28-06-2014 19:40:00 15.4 C 12.48 g/m*3 15.4 C 1.6 km/h
2088 28-06-2014 19:45:00 15.3 C 12.41 g/m*3 15.3 C 3.2 km/h
2089 28-06-2014 19:50:00 15.3 C 12.41 g/m*3 15.3 C 1.6 km/h
2090 28-06-2014 19:55:00 15.2 C 12.33 g/m*3 15.2 C 1.6 km/h
2091 28-06-2014 20:00:00 15.2 C 12.33 g/m*3 15.2 C 1.6 km/h
2092 28-06-2014 20:05:00 15.2 C 12.33 g/m*3 15.2 C 3.2 km/h
2093 28-06-2014 20:10:00 15.1 C 12.26 g/m*3 15.1 C 1.6 km/h
2094 28-06-2014 20:15:00 15 C 12.18 g/m*3 15 C 0 km/h
2095 28-06-2014 20:20:00 15 C 12.18 g/m*3 15 C 3.2 km/h
2096 28-06-2014 20:25:00 14.8 C 12.03 g/m*3 14.8 C 0 km/h
2097 28-06-2014 20:30:00 14.8 C 12.03 g/m*3 14.8 C 1.6 km/h
2098 28-06-2014 20:35:00 14.8 C 12.03 g/m*3 14.8 C 0 km/h
2099 28-06-2014 20:40:00 14.8 C 12.16 g/m*3 14.8 C 0 km/h
2100 28-06-2014 20:45:00 14.8 C 12.16 g/m*3 14.8 C 0 km/h
Sensor: Nr:Datum:Temp:Abs-Feuchte:Windchill:Wind:
Aussen-T/F 2101 28-06-2014 20:50:00 14.8 C 12.16 g/m*3 14.8 C 0 km/h
2102 28-06-2014 20:55:00 14.7 C 12.09 g/m*3 14.7 C 0 km/h
2103 28-06-2014 21:00:00 14.8 C 12.16 g/m*3 14.8 C 0 km/h
2104 28-06-2014 21:05:00 14.8 C 12.16 g/m*3 14.8 C 0 km/h
2105 28-06-2014 21:10:00 14.8 C 12.16 g/m*3 14.8 C 0 km/h
2106 28-06-2014 21:15:00 14.8 C 12.16 g/m*3 14.8 C 0 km/h
2107 28-06-2014 21:20:00 14.8 C 12.16 g/m*3 14.8 C 0 km/h
2108 28-06-2014 21:25:00 14.7 C 12.09 g/m*3 14.7 C 0 km/h
2109 28-06-2014 21:30:00 14.7 C 12.09 g/m*3 14.7 C 0 km/h
2110 28-06-2014 21:35:00 14.7 C 12.09 g/m*3 14.7 C 0 km/h
2111 28-06-2014 21:40:00 14.7 C 12.09 g/m*3 14.7 C 0 km/h
2112 28-06-2014 21:45:00 14.7 C 12.09 g/m*3 14.7 C 0 km/h
2113 28-06-2014 21:50:00 14.7 C 12.09 g/m*3 14.7 C 0 km/h
2114 28-06-2014 21:55:00 14.6 C 12.01 g/m*3 14.6 C 0 km/h
2115 28-06-2014 22:00:00 14.6 C 12.01 g/m*3 14.6 C 0 km/h
2116 28-06-2014 22:05:00 14.6 C 12.01 g/m*3 14.6 C 0 km/h
2117 28-06-2014 22:10:00 14.5 C 11.94 g/m*3 14.5 C 0 km/h
2118 28-06-2014 22:15:00 14.4 C 11.87 g/m*3 14.4 C 0 km/h
2119 28-06-2014 22:20:00 14.4 C 11.87 g/m*3 14.4 C 0 km/h
2120 28-06-2014 22:25:00 14.4 C 11.87 g/m*3 14.4 C 0 km/h
2121 28-06-2014 22:30:00 14.4 C 11.87 g/m*3 14.4 C 0 km/h
2122 28-06-2014 22:35:00 14.4 C 11.87 g/m*3 14.4 C 0 km/h
2123 28-06-2014 22:40:00 14.4 C 11.99 g/m*3 14.4 C 0 km/h
2124 28-06-2014 22:45:00 14.4 C 11.99 g/m*3 14.4 C 0 km/h
2125 28-06-2014 22:50:00 14.4 C 11.99 g/m*3 14.4 C 0 km/h
Sensor: Nr:Datum:Temp:Abs-Feuchte:Windchill:Wind:
Aussen-T/F 2126 28-06-2014 22:55:00 14.3 C 11.92 g/m*3 14.3 C 0 km/h
2127 28-06-2014 23:00:00 14.3 C 11.92 g/m*3 14.3 C 0 km/h
2128 28-06-2014 23:05:00 14.3 C 11.92 g/m*3 14.3 C 0 km/h
2129 28-06-2014 23:10:00 14.3 C 11.92 g/m*3 14.3 C 0 km/h
2130 28-06-2014 23:15:00 14.3 C 11.92 g/m*3 14.3 C 0 km/h
2131 28-06-2014 23:20:00 14.3 C 11.92 g/m*3 14.3 C 0 km/h
2132 28-06-2014 23:25:00 14.3 C 11.92 g/m*3 14.3 C 0 km/h
2133 28-06-2014 23:30:00 14.3 C 11.92 g/m*3 14.3 C 0 km/h
2134 28-06-2014 23:35:00 14.3 C 11.92 g/m*3 14.3 C 0 km/h
2135 28-06-2014 23:40:00 14.3 C 11.92 g/m*3 14.3 C 0 km/h
2136 28-06-2014 23:45:00 14.3 C 11.92 g/m*3 14.3 C 0 km/h
2137 29-06-2014 00:10:00 14.4 C 11.99 g/m*3 14.4 C 0 km/h
2138 29-06-2014 00:15:00 14.4 C 11.99 g/m*3 14.4 C 0 km/h
2139 29-06-2014 00:20:00 14.5 C 12.06 g/m*3 14.5 C 1.6 km/h
2140 29-06-2014 00:25:00 14.5 C 12.06 g/m*3 14.5 C 1.6 km/h
2141 29-06-2014 00:30:00 14.5 C 12.06 g/m*3 14.5 C 1.6 km/h
2142 29-06-2014 00:35:00 14.5 C 12.06 g/m*3 14.5 C 0 km/h
2143 29-06-2014 00:40:00 14.5 C 12.06 g/m*3 14.5 C 0 km/h
2144 29-06-2014 00:45:00 14.4 C 11.99 g/m*3 14.4 C 0 km/h
2145 29-06-2014 00:50:00 14.4 C 11.99 g/m*3 14.4 C 0 km/h
2146 29-06-2014 00:55:00 14.4 C 11.99 g/m*3 14.4 C 0 km/h
2147 29-06-2014 01:00:00 14.4 C 11.99 g/m*3 14.4 C 0 km/h
2148 29-06-2014 01:05:00 14.4 C 11.99 g/m*3 14.4 C 0 km/h
2149 29-06-2014 01:10:00 14.4 C 11.99 g/m*3 14.4 C 0 km/h
2150 29-06-2014 01:15:00 14.4 C 11.99 g/m*3 14.4 C 0 km/h
Sensor: Nr:Datum:Temp:Abs-Feuchte:Windchill:Wind:
Aussen-T/F 2151 29-06-2014 01:20:00 14.4 C 11.99 g/m*3 14.4 C 0 km/h
2152 29-06-2014 04:45:00 14.2 C 11.97 g/m*3 14.2 C 3.2 km/h
2153 29-06-2014 04:50:00 14.1 C 11.77 g/m*3 14.1 C 0 km/h
2154 29-06-2014 04:55:00 14.1 C 11.77 g/m*3 14.1 C 1.6 km/h
2155 29-06-2014 05:00:00 14.1 C 11.77 g/m*3 14.1 C 1.6 km/h
2156 29-06-2014 05:05:00 14.1 C 11.77 g/m*3 14.1 C 11.3 km/h
2157 29-06-2014 05:10:00 13.9 C 11.63 g/m*3 13.9 C 4.8 km/h
2158 29-06-2014 05:15:00 13.8 C 11.56 g/m*3 13.8 C 6.4 km/h
2159 29-06-2014 05:20:00 13.8 C 11.56 g/m*3 13.8 C 4.8 km/h
2160 29-06-2014 05:25:00 13.8 C 11.56 g/m*3 13.8 C 3.2 km/h
2161 29-06-2014 05:30:00 13.7 C 11.49 g/m*3 13.7 C 4.8 km/h
2162 29-06-2014 05:35:00 13.7 C 11.49 g/m*3 13.7 C 4.8 km/h
2163 29-06-2014 05:40:00 13.7 C 11.49 g/m*3 13.7 C 4.8 km/h
2164 29-06-2014 05:45:00 13.7 C 11.49 g/m*3 13.7 C 0 km/h
2165 29-06-2014 05:50:00 13.7 C 11.49 g/m*3 13.7 C 6.4 km/h
2166 29-06-2014 05:55:00 13.7 C 11.49 g/m*3 13.7 C 1.6 km/h
2167 29-06-2014 06:00:00 13.7 C 11.49 g/m*3 13.7 C 3.2 km/h
2168 29-06-2014 06:05:00 13.6 C 11.42 g/m*3 13.6 C 8.1 km/h
2169 29-06-2014 06:10:00 13.7 C 11.49 g/m*3 13.7 C 6.4 km/h
2170 29-06-2014 06:15:00 13.7 C 11.49 g/m*3 13.7 C 4.8 km/h
2171 29-06-2014 06:20:00 13.7 C 11.49 g/m*3 13.7 C 3.2 km/h
2172 29-06-2014 06:25:00 13.6 C 11.42 g/m*3 13.6 C 6.4 km/h
2173 29-06-2014 06:30:00 13.6 C 11.42 g/m*3 13.6 C 6.4 km/h
2174 29-06-2014 06:35:00 13.6 C 11.42 g/m*3 13.6 C 6.4 km/h
2175 29-06-2014 06:40:00 13.5 C 11.35 g/m*3 13.5 C 3.2 km/h
Sensor: Nr:Datum:Temp:Abs-Feuchte:Windchill:Wind:
Aussen-T/F 2176 29-06-2014 06:45:00 13.4 C 11.16 g/m*3 13.4 C 3.2 km/h
2177 29-06-2014 06:50:00 13.3 C 11.09 g/m*3 13.3 C 6.4 km/h
2178 29-06-2014 06:55:00 13.3 C 11.09 g/m*3 13.3 C 3.2 km/h
2179 29-06-2014 07:00:00 13.3 C 11.09 g/m*3 13.3 C 3.2 km/h
2180 29-06-2014 07:05:00 13.3 C 11.09 g/m*3 13.3 C 0 km/h
2181 29-06-2014 07:10:00 13.3 C 11.09 g/m*3 13.3 C 0 km/h
2182 29-06-2014 07:15:00 13.3 C 11.09 g/m*3 13.3 C 1.6 km/h
2183 29-06-2014 07:20:00 13.3 C 11.09 g/m*3 13.3 C 0 km/h
2184 29-06-2014 07:25:00 13.3 C 11.09 g/m*3 13.3 C 0 km/h
2185 29-06-2014 07:30:00 13.3 C 11.09 g/m*3 13.3 C 0 km/h
2186 29-06-2014 07:35:00 13.3 C 11.09 g/m*3 13.3 C 0 km/h
2187 29-06-2014 07:40:00 13.3 C 11.09 g/m*3 13.3 C 0 km/h
2188 29-06-2014 07:45:00 13.2 C 11.02 g/m*3 13.2 C 0 km/h
2189 29-06-2014 07:50:00 13.2 C 11.02 g/m*3 13.2 C 0 km/h
2190 29-06-2014 07:55:00 13.2 C 11.02 g/m*3 13.2 C 0 km/h
2191 29-06-2014 08:00:00 13.2 C 11.02 g/m*3 13.2 C 0 km/h
2192 29-06-2014 08:05:00 13.2 C 11.02 g/m*3 13.2 C 0 km/h
2193 29-06-2014 08:10:00 13.3 C 11.09 g/m*3 13.3 C 0 km/h
2194 29-06-2014 08:15:00 13.2 C 11.02 g/m*3 13.2 C 0 km/h
2195 29-06-2014 08:20:00 13.2 C 11.02 g/m*3 13.2 C 0 km/h
2196 29-06-2014 08:25:00 13.3 C 11.09 g/m*3 13.3 C 0 km/h
2197 29-06-2014 08:30:00 13.3 C 11.09 g/m*3 13.3 C 0 km/h
2198 29-06-2014 08:35:00 13.3 C 11.09 g/m*3 13.3 C 0 km/h
2199 29-06-2014 08:40:00 13.3 C 11.09 g/m*3 13.3 C 0 km/h
2200 29-06-2014 08:45:00 13.3 C 11.09 g/m*3 13.3 C 0 km/h
Sensor: Nr:Datum:Temp:Abs-Feuchte:Windchill:Wind:
Aussen-T/F 2201 29-06-2014 08:50:00 13.3 C 11.09 g/m*3 13.3 C 0 km/h
2202 29-06-2014 08:55:00 13.3 C 11.09 g/m*3 13.3 C 0 km/h
2203 29-06-2014 09:00:00 13.3 C 11.21 g/m*3 13.3 C 0 km/h
2204 29-06-2014 09:05:00 13.3 C 11.21 g/m*3 13.3 C 0 km/h
2205 29-06-2014 09:10:00 13.3 C 11.21 g/m*3 13.3 C 0 km/h
2206 29-06-2014 09:15:00 13.3 C 11.21 g/m*3 13.3 C 0 km/h
2207 29-06-2014 09:20:00 13.3 C 11.21 g/m*3 13.3 C 0 km/h
2208 29-06-2014 09:25:00 13.3 C 11.21 g/m*3 13.3 C 0 km/h
2209 29-06-2014 09:30:00 13.3 C 11.21 g/m*3 13.3 C 0 km/h
2210 29-06-2014 09:35:00 13.3 C 11.21 g/m*3 13.3 C 0 km/h
2211 29-06-2014 09:40:00 13.3 C 11.21 g/m*3 13.3 C 0 km/h
2212 29-06-2014 09:45:00 13.3 C 11.21 g/m*3 13.3 C 3.2 km/h
2213 29-06-2014 09:50:00 13.3 C 11.21 g/m*3 13.3 C 0 km/h
2214 29-06-2014 09:55:00 13.4 C 11.28 g/m*3 13.4 C 1.6 km/h
2215 29-06-2014 10:00:00 13.4 C 11.28 g/m*3 13.4 C 4.8 km/h
2216 29-06-2014 10:05:00 13.4 C 11.28 g/m*3 13.4 C 4.8 km/h
2217 29-06-2014 10:10:00 13.5 C 11.35 g/m*3 13.5 C 1.6 km/h
2218 29-06-2014 10:15:00 13.6 C 11.42 g/m*3 13.6 C 0 km/h
2219 29-06-2014 10:20:00 13.7 C 11.49 g/m*3 13.7 C 0 km/h
2220 29-06-2014 10:25:00 13.7 C 11.49 g/m*3 13.7 C 0 km/h
2221 29-06-2014 10:30:00 13.7 C 11.49 g/m*3 13.7 C 0 km/h
2222 29-06-2014 10:35:00 13.7 C 11.49 g/m*3 13.7 C 0 km/h
2223 29-06-2014 10:40:00 13.7 C 11.49 g/m*3 13.7 C 0 km/h
2224 29-06-2014 10:45:00 13.8 C 11.56 g/m*3 13.8 C 0 km/h
2225 29-06-2014 10:50:00 13.8 C 11.56 g/m*3 13.8 C 0 km/h
Sensor: Nr:Datum:Temp:Abs-Feuchte:Windchill:Wind:
Aussen-T/F 2226 29-06-2014 10:55:00 13.9 C 11.63 g/m*3 13.9 C 0 km/h
2227 29-06-2014 11:00:00 14 C 11.7 g/m*3 14 C 0 km/h
2228 29-06-2014 11:05:00 13.9 C 11.63 g/m*3 13.9 C 3.2 km/h
2229 29-06-2014 11:10:00 13.8 C 11.56 g/m*3 13.8 C 3.2 km/h
2230 29-06-2014 11:15:00 13.8 C 11.56 g/m*3 13.8 C 0 km/h
2231 29-06-2014 11:20:00 13.8 C 11.56 g/m*3 13.8 C 0 km/h
2232 29-06-2014 11:25:00 13.8 C 11.56 g/m*3 13.8 C 3.2 km/h
2233 29-06-2014 11:30:00 13.8 C 11.56 g/m*3 13.8 C 0 km/h
2234 29-06-2014 11:35:00 13.8 C 11.56 g/m*3 13.8 C 0 km/h
2235 29-06-2014 11:40:00 13.8 C 11.56 g/m*3 13.8 C 0 km/h
2236 29-06-2014 11:45:00 13.8 C 11.56 g/m*3 13.8 C 1.6 km/h
2237 29-06-2014 11:50:00 13.9 C 11.51 g/m*3 13.9 C 1.6 km/h
2238 29-06-2014 11:55:00 13.9 C 11.51 g/m*3 13.9 C 0 km/h
2239 29-06-2014 12:00:00 14.1 C 11.65 g/m*3 14.1 C 0 km/h
2240 29-06-2014 12:05:00 14.1 C 11.77 g/m*3 14.1 C 0 km/h
2241 29-06-2014 12:10:00 14.2 C 11.84 g/m*3 14.2 C 0 km/h
2242 29-06-2014 12:15:00 14.3 C 11.92 g/m*3 14.3 C 0 km/h
2243 29-06-2014 12:20:00 14.3 C 11.79 g/m*3 14.3 C 0 km/h
2244 29-06-2014 12:25:00 14.3 C 11.79 g/m*3 14.3 C 0 km/h
2245 29-06-2014 12:30:00 14.3 C 11.79 g/m*3 14.3 C 0 km/h
2246 29-06-2014 12:35:00 14.4 C 11.87 g/m*3 14.4 C 0 km/h
2247 29-06-2014 12:40:00 14.6 C 12.01 g/m*3 14.6 C 0 km/h
2248 29-06-2014 12:45:00 14.8 C 12.16 g/m*3 14.8 C 0 km/h
2249 29-06-2014 12:50:00 14.9 C 12.11 g/m*3 14.9 C 0 km/h
2250 29-06-2014 12:55:00 15.1 C 12.13 g/m*3 15.1 C 0 km/h
Sensor: Nr:Datum:Temp:Abs-Feuchte:Windchill:Wind:
Aussen-T/F 2251 29-06-2014 13:00:00 15.7 C 12.44 g/m*3 15.7 C 3.2 km/h
2252 29-06-2014 13:05:00 16.1 C 11.79 g/m*3 16.1 C 4.8 km/h
2253 29-06-2014 13:10:00 16.3 C 11.79 g/m*3 16.3 C 4.8 km/h
2254 29-06-2014 13:15:00 16.5 C 12.22 g/m*3 16.5 C 1.6 km/h
2255 29-06-2014 13:20:00 16.6 C 11.72 g/m*3 16.6 C 3.2 km/h
2256 29-06-2014 13:25:00 16.8 C 12.58 g/m*3 16.8 C 0 km/h
2257 29-06-2014 13:30:00 16.8 C 12.44 g/m*3 16.8 C 1.6 km/h
2258 29-06-2014 13:35:00 16.9 C 12.37 g/m*3 16.9 C 1.6 km/h
2259 29-06-2014 13:40:00 17.2 C 12.3 g/m*3 17.2 C 8.1 km/h
2260 29-06-2014 13:45:00 17.2 C 11.72 g/m*3 17.2 C 6.4 km/h
2261 29-06-2014 13:50:00 17.2 C 11.72 g/m*3 17.2 C 6.4 km/h
2262 29-06-2014 13:55:00 17.4 C 11.86 g/m*3 17.4 C 3.2 km/h
2263 29-06-2014 14:50:00 18.6 C 12.41 g/m*3 18.6 C 6.4 km/h
2264 29-06-2014 14:55:00 18.8 C 12.4 g/m*3 18.8 C 4.8 km/h
2265 29-06-2014 15:00:00 18.9 C 12.8 g/m*3 18.9 C 4.8 km/h
2266 29-06-2014 15:05:00 18.9 C 12.15 g/m*3 18.9 C 6.4 km/h
2267 29-06-2014 15:10:00 18.8 C 12.56 g/m*3 18.8 C 1.6 km/h
2268 29-06-2014 15:15:00 18.6 C 12.89 g/m*3 18.6 C 1.6 km/h
2269 29-06-2014 15:20:00 18.3 C 12.98 g/m*3 18.3 C 0 km/h
2270 29-06-2014 15:25:00 18 C 13.21 g/m*3 18 C 0 km/h
2271 29-06-2014 15:30:00 17.7 C 12.98 g/m*3 17.7 C 0 km/h
2272 29-06-2014 15:35:00 17.2 C 12.89 g/m*3 17.2 C 0 km/h
2273 29-06-2014 15:40:00 16.7 C 12.79 g/m*3 16.7 C 0 km/h
2274 29-06-2014 15:45:00 16.4 C 12.7 g/m*3 16.4 C 0 km/h
2275 29-06-2014 15:50:00 16.2 C 12.69 g/m*3 16.2 C 0 km/h
Sensor: Nr:Datum:Temp:Abs-Feuchte:Windchill:Wind:
Aussen-T/F 2276 29-06-2014 15:55:00 16.1 C 12.61 g/m*3 16.1 C 0 km/h
2277 29-06-2014 16:00:00 15.8 C 12.52 g/m*3 15.8 C 0 km/h
2278 29-06-2014 16:05:00 15.7 C 12.44 g/m*3 15.7 C 0 km/h
2279 29-06-2014 16:10:00 15.6 C 12.5 g/m*3 15.6 C 0 km/h
2280 29-06-2014 16:15:00 15.4 C 12.35 g/m*3 15.4 C 3.2 km/h
2281 29-06-2014 16:20:00 15.2 C 12.2 g/m*3 15.2 C 1.6 km/h
2282 29-06-2014 16:25:00 15.2 C 12.33 g/m*3 15.2 C 1.6 km/h
2283 29-06-2014 16:30:00 15.2 C 12.33 g/m*3 15.2 C 1.6 km/h
2284 29-06-2014 16:35:00 15.3 C 12.41 g/m*3 15.3 C 4.8 km/h
2285 29-06-2014 16:40:00 15.4 C 12.22 g/m*3 15.4 C 3.2 km/h
2286 29-06-2014 16:45:00 15.7 C 12.44 g/m*3 15.7 C 3.2 km/h
2287 29-06-2014 16:50:00 16.1 C 12.47 g/m*3 16.1 C 3.2 km/h
2288 29-06-2014 16:55:00 16.4 C 12.56 g/m*3 16.4 C 4.8 km/h
2289 29-06-2014 17:00:00 16.4 C 12.56 g/m*3 16.4 C 8.1 km/h
2290 29-06-2014 17:05:00 16.6 C 12.29 g/m*3 16.6 C 9.7 km/h
2291 29-06-2014 17:10:00 16.4 C 11.58 g/m*3 16.4 C 19.3 km/h
2292 29-06-2014 17:15:00 16.6 C 11.72 g/m*3 16.6 C 12.9 km/h
2293 29-06-2014 17:20:00 16.6 C 12.15 g/m*3 16.6 C 9.7 km/h
2294 29-06-2014 17:25:00 16.4 C 12 g/m*3 16.4 C 6.4 km/h
2295 29-06-2014 17:30:00 16.3 C 11.65 g/m*3 16.3 C 11.3 km/h
2296 29-06-2014 17:35:00 16.2 C 11.03 g/m*3 16.2 C 9.7 km/h
2297 29-06-2014 17:40:00 16.1 C 10.97 g/m*3 16.1 C 8.1 km/h
2298 29-06-2014 17:45:00 15.9 C 11.1 g/m*3 15.9 C 11.3 km/h
2299 29-06-2014 17:50:00 15.7 C 11.51 g/m*3 15.7 C 6.4 km/h
2300 29-06-2014 17:55:00 15.6 C 11.7 g/m*3 15.6 C 0 km/h
Sensor: Nr:Datum:Temp:Abs-Feuchte:Windchill:Wind:
Aussen-T/F 2301 29-06-2014 18:00:00 15.4 C 11.82 g/m*3 15.4 C 0 km/h
2302 29-06-2014 18:05:00 15.3 C 11.75 g/m*3 15.3 C 0 km/h
2303 29-06-2014 18:10:00 15.3 C 11.88 g/m*3 15.3 C 3.2 km/h
2304 29-06-2014 18:15:00 15.4 C 11.56 g/m*3 15.4 C 6.4 km/h
2305 29-06-2014 18:20:00 15.6 C 11.57 g/m*3 15.6 C 6.4 km/h
2306 29-06-2014 18:25:00 15.8 C 11.85 g/m*3 15.8 C 6.4 km/h
2307 29-06-2014 18:30:00 16.3 C 11.79 g/m*3 16.3 C 3.2 km/h
2308 29-06-2014 18:35:00 16.7 C 11.8 g/m*3 16.7 C 3.2 km/h
2309 29-06-2014 18:40:00 16.8 C 11.87 g/m*3 16.8 C 0 km/h
2310 29-06-2014 18:45:00 16.5 C 11.65 g/m*3 16.5 C 3.2 km/h
2311 29-06-2014 18:50:00 16.1 C 11.93 g/m*3 16.1 C 0 km/h
2312 29-06-2014 18:55:00 15.5 C 11.76 g/m*3 15.5 C 0 km/h
2313 29-06-2014 19:00:00 15.2 C 11.81 g/m*3 15.2 C 0 km/h
2314 29-06-2014 19:05:00 14.9 C 11.6 g/m*3 14.9 C 0 km/h
2315 29-06-2014 19:10:00 14.7 C 11.58 g/m*3 14.7 C 0 km/h
2316 29-06-2014 19:15:00 14.7 C 11.58 g/m*3 14.7 C 0 km/h
2317 29-06-2014 19:20:00 14.7 C 11.71 g/m*3 14.7 C 0 km/h
2318 29-06-2014 19:25:00 14.7 C 11.71 g/m*3 14.7 C 0 km/h
2319 29-06-2014 19:30:00 14.3 C 11.55 g/m*3 14.3 C 0 km/h
2320 29-06-2014 19:35:00 14.3 C 11.67 g/m*3 14.3 C 0 km/h
2321 29-06-2014 19:40:00 14.4 C 11.74 g/m*3 14.4 C 0 km/h
2322 29-06-2014 19:45:00 14.4 C 11.74 g/m*3 14.4 C 0 km/h
2323 29-06-2014 19:50:00 14.4 C 11.74 g/m*3 14.4 C 0 km/h
2324 29-06-2014 19:55:00 14.4 C 11.87 g/m*3 14.4 C 0 km/h
2325 29-06-2014 20:00:00 14.4 C 11.87 g/m*3 14.4 C 0 km/h
Sensor: Nr:Datum:Temp:Abs-Feuchte:Windchill:Wind:
Aussen-T/F 2326 29-06-2014 20:05:00 14.4 C 11.87 g/m*3 14.4 C 0 km/h
2327 29-06-2014 20:10:00 14.4 C 11.87 g/m*3 14.4 C 0 km/h
2328 29-06-2014 20:15:00 14.3 C 11.79 g/m*3 14.3 C 0 km/h
2329 29-06-2014 20:20:00 14.3 C 11.67 g/m*3 14.3 C 0 km/h
2330 29-06-2014 20:25:00 14.2 C 11.6 g/m*3 14.2 C 0 km/h
2331 29-06-2014 20:30:00 14.2 C 11.6 g/m*3 14.2 C 0 km/h
2332 29-06-2014 20:35:00 14.2 C 11.6 g/m*3 14.2 C 1.6 km/h
2333 29-06-2014 20:40:00 14.2 C 11.6 g/m*3 14.2 C 0 km/h
2334 29-06-2014 20:45:00 14.1 C 11.65 g/m*3 14.1 C 0 km/h
2335 29-06-2014 20:50:00 14.1 C 11.65 g/m*3 14.1 C 0 km/h
2336 29-06-2014 20:55:00 13.8 C 11.32 g/m*3 13.8 C 0 km/h
2337 29-06-2014 21:00:00 13.8 C 11.32 g/m*3 13.8 C 0 km/h
2338 29-06-2014 21:05:00 13.8 C 11.32 g/m*3 13.8 C 0 km/h
2339 29-06-2014 21:10:00 13.8 C 11.32 g/m*3 13.8 C 0 km/h
2340 30-06-2014 01:15:00 12.3 C 10.86 g/m*3 12.3 C 0 km/h
2341 30-06-2014 01:20:00 12.3 C 10.86 g/m*3 12.3 C 0 km/h
2342 30-06-2014 01:25:00 12.3 C 10.86 g/m*3 12.3 C 0 km/h
2343 30-06-2014 01:30:00 12.3 C 10.86 g/m*3 12.3 C 0 km/h
2344 30-06-2014 02:25:00 12.8 C 10.98 g/m*3 12.8 C 0 km/h
2345 30-06-2014 02:30:00 12.8 C 10.98 g/m*3 12.8 C 0 km/h
2346 30-06-2014 02:35:00 12.8 C 10.98 g/m*3 12.8 C 0 km/h
2347 30-06-2014 02:40:00 12.8 C 10.87 g/m*3 12.8 C 0 km/h
2348 30-06-2014 02:45:00 12.8 C 10.87 g/m*3 12.8 C 0 km/h
2349 30-06-2014 02:50:00 12.8 C 10.87 g/m*3 12.8 C 0 km/h
2350 30-06-2014 02:55:00 12.8 C 10.87 g/m*3 12.8 C 0 km/h
Sensor: Nr:Datum:Temp:Abs-Feuchte:Windchill:Wind:
Aussen-T/F 2351 30-06-2014 03:00:00 12.8 C 10.87 g/m*3 12.8 C 0 km/h
2352 30-06-2014 03:05:00 12.8 C 10.87 g/m*3 12.8 C 0 km/h
2353 30-06-2014 03:10:00 12.8 C 10.87 g/m*3 12.8 C 0 km/h
2354 30-06-2014 03:15:00 12.8 C 10.87 g/m*3 12.8 C 0 km/h
2355 30-06-2014 03:20:00 12.8 C 10.87 g/m*3 12.8 C 0 km/h
2356 30-06-2014 03:25:00 12.8 C 10.87 g/m*3 12.8 C 0 km/h
2357 30-06-2014 03:30:00 12.7 C 10.8 g/m*3 12.7 C 0 km/h
2358 30-06-2014 03:35:00 12.7 C 10.8 g/m*3 12.7 C 0 km/h
2359 30-06-2014 03:40:00 12.7 C 10.8 g/m*3 12.7 C 0 km/h
2360 30-06-2014 03:45:00 12.7 C 10.8 g/m*3 12.7 C 0 km/h
2361 30-06-2014 03:50:00 12.7 C 10.8 g/m*3 12.7 C 0 km/h
2362 30-06-2014 03:55:00 12.7 C 10.8 g/m*3 12.7 C 0 km/h
2363 30-06-2014 04:00:00 12.7 C 10.91 g/m*3 12.7 C 0 km/h
2364 30-06-2014 04:05:00 12.7 C 10.91 g/m*3 12.7 C 0 km/h
2365 30-06-2014 04:10:00 12.6 C 10.84 g/m*3 12.6 C 0 km/h
2366 30-06-2014 04:15:00 12.6 C 10.84 g/m*3 12.6 C 0 km/h
2367 30-06-2014 04:20:00 12.6 C 10.84 g/m*3 12.6 C 0 km/h
2368 30-06-2014 04:25:00 12.6 C 10.84 g/m*3 12.6 C 0 km/h
2369 30-06-2014 04:30:00 12.5 C 10.77 g/m*3 12.5 C 0 km/h
2370 30-06-2014 04:35:00 12.5 C 10.66 g/m*3 12.5 C 0 km/h
2371 30-06-2014 04:40:00 12.5 C 10.66 g/m*3 12.5 C 0 km/h
2372 30-06-2014 04:45:00 12.4 C 10.6 g/m*3 12.4 C 0 km/h
2373 30-06-2014 04:50:00 12.4 C 10.6 g/m*3 12.4 C 0 km/h
2374 30-06-2014 04:55:00 12.3 C 10.53 g/m*3 12.3 C 0 km/h
2375 30-06-2014 05:00:00 12.3 C 10.53 g/m*3 12.3 C 0 km/h
Sensor: Nr:Datum:Temp:Abs-Feuchte:Windchill:Wind:
Aussen-T/F 2376 30-06-2014 05:05:00 12.3 C 10.64 g/m*3 12.3 C 0 km/h
2377 30-06-2014 05:10:00 12.2 C 10.58 g/m*3 12.2 C 0 km/h
2378 30-06-2014 05:15:00 12.1 C 10.4 g/m*3 12.1 C 0 km/h
2379 30-06-2014 05:20:00 12.1 C 10.4 g/m*3 12.1 C 0 km/h
2380 30-06-2014 05:25:00 11.9 C 10.27 g/m*3 11.9 C 0 km/h
2381 30-06-2014 05:30:00 11.9 C 10.27 g/m*3 11.9 C 0 km/h
2382 30-06-2014 05:35:00 11.8 C 10.21 g/m*3 11.8 C 0 km/h
2383 30-06-2014 05:40:00 11.8 C 10.21 g/m*3 11.8 C 0 km/h
2384 30-06-2014 05:45:00 11.7 C 10.15 g/m*3 11.7 C 0 km/h
2385 30-06-2014 05:50:00 11.8 C 10.21 g/m*3 11.8 C 0 km/h
2386 30-06-2014 05:55:00 11.8 C 10.21 g/m*3 11.8 C 0 km/h
2387 30-06-2014 06:00:00 11.8 C 10.21 g/m*3 11.8 C 0 km/h
2388 30-06-2014 06:05:00 11.8 C 10.21 g/m*3 11.8 C 0 km/h
2389 30-06-2014 06:10:00 11.8 C 10.21 g/m*3 11.8 C 0 km/h
2390 30-06-2014 06:15:00 11.8 C 10.31 g/m*3 11.8 C 1.6 km/h
2391 30-06-2014 06:20:00 11.8 C 10.31 g/m*3 11.8 C 0 km/h
2392 30-06-2014 06:25:00 11.8 C 10.31 g/m*3 11.8 C 0 km/h
2393 30-06-2014 06:30:00 11.9 C 10.38 g/m*3 11.9 C 0 km/h
2394 30-06-2014 06:35:00 12 C 10.44 g/m*3 12 C 0 km/h
2395 30-06-2014 06:40:00 12.1 C 10.51 g/m*3 12.1 C 0 km/h
2396 30-06-2014 06:45:00 12.2 C 10.58 g/m*3 12.2 C 0 km/h
2397 30-06-2014 06:50:00 12.2 C 10.58 g/m*3 12.2 C 0 km/h
2398 30-06-2014 06:55:00 12.3 C 10.64 g/m*3 12.3 C 3.2 km/h
2399 30-06-2014 07:00:00 12.4 C 10.71 g/m*3 12.4 C 8.1 km/h
2400 30-06-2014 07:05:00 12.4 C 10.71 g/m*3 12.4 C 4.8 km/h
Sensor: Nr:Datum:Temp:Abs-Feuchte:Windchill:Wind:
Aussen-T/F 2401 30-06-2014 07:10:00 12.4 C 10.71 g/m*3 12.4 C 1.6 km/h
2402 30-06-2014 07:15:00 12.4 C 10.71 g/m*3 12.4 C 3.2 km/h
2403 30-06-2014 07:20:00 12.4 C 10.71 g/m*3 12.4 C 0 km/h
2404 30-06-2014 07:25:00 12.5 C 10.77 g/m*3 12.5 C 1.6 km/h
2405 30-06-2014 07:30:00 12.5 C 10.66 g/m*3 12.5 C 0 km/h
2406 30-06-2014 07:35:00 12.5 C 10.66 g/m*3 12.5 C 0 km/h
2407 30-06-2014 07:40:00 12.6 C 10.73 g/m*3 12.6 C 0 km/h
2408 30-06-2014 07:45:00 12.6 C 10.84 g/m*3 12.6 C 0 km/h
2409 30-06-2014 07:50:00 12.7 C 10.91 g/m*3 12.7 C 0 km/h
2410 30-06-2014 07:55:00 12.9 C 11.05 g/m*3 12.9 C 1.6 km/h
2411 30-06-2014 08:00:00 13.1 C 11.18 g/m*3 13.1 C 3.2 km/h
2412 30-06-2014 08:05:00 13.1 C 11.07 g/m*3 13.1 C 3.2 km/h
2413 30-06-2014 08:10:00 13.3 C 11.21 g/m*3 13.3 C 3.2 km/h
2414 30-06-2014 08:15:00 13.5 C 11.23 g/m*3 13.5 C 0 km/h
2415 30-06-2014 08:20:00 13.7 C 11.37 g/m*3 13.7 C 3.2 km/h
2416 30-06-2014 08:25:00 13.9 C 11.27 g/m*3 13.9 C 1.6 km/h
2417 30-06-2014 08:30:00 14.1 C 11.29 g/m*3 14.1 C 0 km/h
2418 30-06-2014 08:35:00 14.3 C 11.3 g/m*3 14.3 C 1.6 km/h
2419 30-06-2014 08:40:00 14.6 C 11.26 g/m*3 14.6 C 0 km/h
2420 30-06-2014 08:45:00 14.7 C 11.08 g/m*3 14.7 C 3.2 km/h
2421 30-06-2014 08:50:00 14.8 C 11.15 g/m*3 14.8 C 0 km/h
2422 30-06-2014 08:55:00 14.9 C 11.47 g/m*3 14.9 C 0 km/h
2423 30-06-2014 09:00:00 14.9 C 11.47 g/m*3 14.9 C 0 km/h
2424 30-06-2014 09:05:00 14.8 C 11.53 g/m*3 14.8 C 0 km/h
2425 30-06-2014 09:10:00 14.8 C 11.53 g/m*3 14.8 C 0 km/h
Sensor: Nr:Datum:Temp:Abs-Feuchte:Windchill:Wind:
Aussen-T/F 2426 30-06-2014 09:15:00 14.8 C 11.53 g/m*3 14.8 C 1.6 km/h
2427 30-06-2014 09:20:00 14.7 C 11.46 g/m*3 14.7 C 0 km/h
2428 30-06-2014 09:25:00 14.6 C 11.51 g/m*3 14.6 C 0 km/h
2429 30-06-2014 09:30:00 14.6 C 11.51 g/m*3 14.6 C 4.8 km/h
2430 30-06-2014 09:35:00 14.6 C 11.51 g/m*3 14.6 C 1.6 km/h
2431 30-06-2014 09:40:00 14.5 C 11.07 g/m*3 14.5 C 1.6 km/h
2432 30-06-2014 09:45:00 14.7 C 11.33 g/m*3 14.7 C 3.2 km/h
2433 30-06-2014 09:50:00 14.9 C 11.34 g/m*3 14.9 C 4.8 km/h
2434 30-06-2014 09:55:00 15.3 C 10.71 g/m*3 15.3 C 12.9 km/h
2435 30-06-2014 10:00:00 15.7 C 10.84 g/m*3 15.7 C 8.1 km/h
2436 30-06-2014 10:05:00 16.1 C 10.83 g/m*3 16.1 C 6.4 km/h
2437 30-06-2014 10:10:00 16.4 C 11.03 g/m*3 16.4 C 8.1 km/h
2438 30-06-2014 10:15:00 16.6 C 10.59 g/m*3 16.6 C 14.5 km/h
2439 30-06-2014 10:20:00 16.5 C 10.39 g/m*3 16.5 C 14.5 km/h
2440 30-06-2014 10:25:00 16.6 C 10.59 g/m*3 16.6 C 11.3 km/h
2441 30-06-2014 10:30:00 16.7 C 10.37 g/m*3 16.7 C 4.8 km/h
2442 30-06-2014 10:35:00 16.9 C 11.08 g/m*3 16.9 C 4.8 km/h
2443 30-06-2014 10:40:00 17 C 11 g/m*3 17 C 6.4 km/h
2444 30-06-2014 10:45:00 17.1 C 10.19 g/m*3 17.1 C 11.3 km/h
2445 30-06-2014 10:50:00 16.9 C 11.22 g/m*3 16.9 C 4.8 km/h
2446 30-06-2014 10:55:00 16.7 C 10.23 g/m*3 16.7 C 6.4 km/h
2447 30-06-2014 11:00:00 16.8 C 10.15 g/m*3 16.8 C 9.7 km/h
2448 30-06-2014 11:05:00 17.1 C 9.9 g/m*3 17.1 C 4.8 km/h
2449 30-06-2014 11:10:00 17.6 C 10.5 g/m*3 17.6 C 6.4 km/h
2450 30-06-2014 11:15:00 17.8 C 10.78 g/m*3 17.8 C 9.7 km/h
Sensor: Nr:Datum:Temp:Abs-Feuchte:Windchill:Wind:
Aussen-T/F 2451 30-06-2014 11:20:00 17.9 C 10.23 g/m*3 17.9 C 14.5 km/h
2452 30-06-2014 11:25:00 17.4 C 10.37 g/m*3 17.4 C 16.1 km/h
2453 30-06-2014 11:30:00 17.3 C 10.31 g/m*3 17.3 C 9.7 km/h
2454 30-06-2014 11:35:00 17.1 C 10.77 g/m*3 17.1 C 8.1 km/h
2455 30-06-2014 11:40:00 16.9 C 10.64 g/m*3 16.9 C 9.7 km/h
2456 30-06-2014 11:45:00 16.7 C 10.94 g/m*3 16.7 C 3.2 km/h
2457 30-06-2014 11:50:00 16.7 C 10.94 g/m*3 16.7 C 6.4 km/h
2458 30-06-2014 11:55:00 17 C 10.71 g/m*3 17 C 8.1 km/h
2459 30-06-2014 12:00:00 17.3 C 10.46 g/m*3 17.3 C 4.8 km/h
2460 30-06-2014 12:05:00 17.3 C 10.16 g/m*3 17.3 C 9.7 km/h
2461 30-06-2014 12:10:00 17.2 C 10.25 g/m*3 17.2 C 9.7 km/h
2462 30-06-2014 12:15:00 17.1 C 10.34 g/m*3 17.1 C 16.1 km/h
2463 30-06-2014 12:20:00 16.9 C 11.36 g/m*3 16.9 C 4.8 km/h
2464 30-06-2014 12:25:00 17 C 11.58 g/m*3 17 C 3.2 km/h
2465 30-06-2014 12:30:00 17.3 C 10.75 g/m*3 17.3 C 3.2 km/h
2466 30-06-2014 12:35:00 17.8 C 11.08 g/m*3 17.8 C 4.8 km/h
2467 30-06-2014 12:40:00 18.3 C 10.16 g/m*3 18.3 C 6.4 km/h
2468 30-06-2014 12:45:00 18.7 C 11.37 g/m*3 18.7 C 1.6 km/h
2469 30-06-2014 12:50:00 19.1 C 9.67 g/m*3 19.1 C 16.1 km/h
2470 30-06-2014 12:55:00 19.2 C 9.73 g/m*3 19.2 C 11.3 km/h
2471 30-06-2014 13:00:00 19.4 C 9.18 g/m*3 19.4 C 14.5 km/h
2472 30-06-2014 13:05:00 19.7 C 9.17 g/m*3 19.7 C 12.9 km/h
2473 30-06-2014 13:10:00 19.9 C 9.28 g/m*3 19.9 C 12.9 km/h
2474 30-06-2014 13:15:00 20.2 C 9.79 g/m*3 20.2 C 14.5 km/h
2475 30-06-2014 13:20:00 20.4 C 9.2 g/m*3 20.4 C 17.7 km/h
Sensor: Nr:Datum:Temp:Abs-Feuchte:Windchill:Wind:
Aussen-T/F 2476 30-06-2014 13:25:00 20.6 C 9.49 g/m*3 20.6 C 17.7 km/h
2477 30-06-2014 13:30:00 20.6 C 9.84 g/m*3 20.6 C 16.1 km/h
2478 30-06-2014 13:35:00 20.2 C 9.62 g/m*3 20.2 C 9.7 km/h
2479 30-06-2014 13:40:00 20 C 10.2 g/m*3 20 C 9.7 km/h
2480 30-06-2014 13:45:00 20.1 C 9.56 g/m*3 20.1 C 12.9 km/h
2481 30-06-2014 13:50:00 20.1 C 9.56 g/m*3 20.1 C 14.5 km/h
2482 30-06-2014 13:55:00 20.4 C 9.73 g/m*3 20.4 C 16.1 km/h
2483 30-06-2014 14:00:00 20.8 C 8.87 g/m*3 20.8 C 11.3 km/h
2484 30-06-2014 14:05:00 21.2 C 8.9 g/m*3 21.2 C 11.3 km/h
2485 30-06-2014 14:10:00 21.1 C 8.29 g/m*3 21.1 C 11.3 km/h
2486 30-06-2014 14:15:00 20.8 C 8.33 g/m*3 20.8 C 16.1 km/h
2487 30-06-2014 14:20:00 20.6 C 8.59 g/m*3 20.6 C 11.3 km/h
2488 30-06-2014 14:25:00 20.6 C 8.59 g/m*3 20.6 C 12.9 km/h
2489 30-06-2014 14:30:00 20.4 C 8.49 g/m*3 20.4 C 14.5 km/h
2490 30-06-2014 14:35:00 20.1 C 8.87 g/m*3 20.1 C 11.3 km/h
2491 30-06-2014 14:40:00 19.9 C 8.08 g/m*3 19.9 C 8.1 km/h
2492 30-06-2014 14:45:00 19.9 C 8.93 g/m*3 19.9 C 9.7 km/h
2493 30-06-2014 14:50:00 20.1 C 8.87 g/m*3 20.1 C 12.9 km/h
2494 30-06-2014 14:55:00 20.8 C 9.42 g/m*3 20.8 C 12.9 km/h
2495 30-06-2014 15:00:00 21.5 C 9.81 g/m*3 21.5 C 12.9 km/h
2496 30-06-2014 15:05:00 21.8 C 9.59 g/m*3 21.8 C 16.1 km/h
2497 30-06-2014 15:10:00 22.1 C 9.17 g/m*3 22.1 C 17.7 km/h
2498 30-06-2014 15:15:00 22.1 C 9.17 g/m*3 22.1 C 20.9 km/h
2499 30-06-2014 15:20:00 22 C 8.93 g/m*3 22 C 12.9 km/h
2500 30-06-2014 15:25:00 21.4 C 8.44 g/m*3 21.4 C 12.9 km/h
Sensor: Nr:Datum:Temp:Abs-Feuchte:Windchill:Wind:
Aussen-T/F 2501 30-06-2014 15:30:00 20.9 C 8.56 g/m*3 20.9 C 9.7 km/h
2502 30-06-2014 15:35:00 20.8 C 9.23 g/m*3 20.8 C 17.7 km/h
2503 30-06-2014 15:40:00 21 C 8.79 g/m*3 21 C 16.1 km/h
2504 30-06-2014 15:45:00 20.7 C 8.82 g/m*3 20.7 C 22.5 km/h
2505 30-06-2014 15:50:00 20.2 C 9.27 g/m*3 20.2 C 14.5 km/h
2506 30-06-2014 15:55:00 19.9 C 9.79 g/m*3 19.9 C 14.5 km/h
2507 30-06-2014 16:00:00 19.9 C 9.62 g/m*3 19.9 C 12.9 km/h
2508 30-06-2014 16:05:00 19.9 C 9.45 g/m*3 19.9 C 9.7 km/h
2509 30-06-2014 16:10:00 20.5 C 9.96 g/m*3 20.5 C 12.9 km/h
2510 30-06-2014 16:15:00 21.1 C 9.4 g/m*3 21.1 C 14.5 km/h
2511 30-06-2014 16:20:00 20.6 C 9.13 g/m*3 20.6 C 17.7 km/h
2512 30-06-2014 16:25:00 19.9 C 9.28 g/m*3 19.9 C 14.5 km/h
2513 30-06-2014 16:30:00 19.7 C 9.68 g/m*3 19.7 C 9.7 km/h
2514 30-06-2014 16:35:00 19.6 C 9.62 g/m*3 19.6 C 17.7 km/h
2515 30-06-2014 16:40:00 19.6 C 9.45 g/m*3 19.6 C 17.7 km/h
2516 30-06-2014 16:45:00 19.7 C 9.68 g/m*3 19.7 C 17.7 km/h
2517 30-06-2014 16:50:00 19.6 C 9.28 g/m*3 19.6 C 17.7 km/h
2518 30-06-2014 16:55:00 19.5 C 9.23 g/m*3 19.5 C 17.7 km/h
2519 30-06-2014 17:00:00 19.7 C 8.66 g/m*3 19.7 C 12.9 km/h
2520 30-06-2014 17:05:00 19.6 C 9.12 g/m*3 19.6 C 14.5 km/h
2521 30-06-2014 17:10:00 19.4 C 8.68 g/m*3 19.4 C 12.9 km/h
2522 30-06-2014 17:15:00 19.3 C 8.29 g/m*3 19.3 C 12.9 km/h
2523 30-06-2014 17:20:00 19.3 C 8.46 g/m*3 19.3 C 16.1 km/h
2524 30-06-2014 17:25:00 19.3 C 8.79 g/m*3 19.3 C 14.5 km/h
2525 30-06-2014 17:30:00 19.6 C 8.61 g/m*3 19.6 C 16.1 km/h
Sensor: Nr:Datum:Temp:Abs-Feuchte:Windchill:Wind:
Aussen-T/F 2526 30-06-2014 17:35:00 19.6 C 8.44 g/m*3 19.6 C 8.1 km/h
2527 30-06-2014 17:40:00 19.3 C 8.63 g/m*3 19.3 C 11.3 km/h
2528 30-06-2014 17:45:00 19.3 C 8.46 g/m*3 19.3 C 8.1 km/h
2529 30-06-2014 17:50:00 19.3 C 8.79 g/m*3 19.3 C 8.1 km/h
2530 30-06-2014 17:55:00 19.8 C 8.71 g/m*3 19.8 C 9.7 km/h
2531 30-06-2014 18:00:00 19.8 C 8.03 g/m*3 19.8 C 14.5 km/h
2532 30-06-2014 18:05:00 20 C 8.99 g/m*3 20 C 11.3 km/h
2533 30-06-2014 18:10:00 20.6 C 9.31 g/m*3 20.6 C 12.9 km/h
2534 30-06-2014 18:15:00 20.4 C 8.67 g/m*3 20.4 C 16.1 km/h
2535 30-06-2014 18:20:00 20.2 C 9.09 g/m*3 20.2 C 20.9 km/h
2536 30-06-2014 18:25:00 20.3 C 8.79 g/m*3 20.3 C 17.7 km/h
2537 30-06-2014 18:30:00 20.1 C 8.87 g/m*3 20.1 C 12.9 km/h
2538 30-06-2014 18:35:00 19.7 C 8.32 g/m*3 19.7 C 11.3 km/h
2539 30-06-2014 18:40:00 19.2 C 7.91 g/m*3 19.2 C 11.3 km/h
2540 30-06-2014 18:45:00 18.9 C 8.26 g/m*3 18.9 C 8.1 km/h
2541 30-06-2014 18:50:00 18.8 C 8.21 g/m*3 18.8 C 8.1 km/h
2542 30-06-2014 18:55:00 18.7 C 8.01 g/m*3 18.7 C 6.4 km/h
2543 30-06-2014 19:00:00 18.8 C 8.86 g/m*3 18.8 C 14.5 km/h
2544 30-06-2014 19:05:00 18.8 C 8.7 g/m*3 18.8 C 12.9 km/h
2545 30-06-2014 19:10:00 18.9 C 8.75 g/m*3 18.9 C 11.3 km/h
2546 30-06-2014 19:15:00 18.8 C 8.86 g/m*3 18.8 C 8.1 km/h
2547 30-06-2014 19:20:00 18.8 C 8.86 g/m*3 18.8 C 11.3 km/h
2548 30-06-2014 19:25:00 18.8 C 9.02 g/m*3 18.8 C 11.3 km/h
2549 30-06-2014 19:30:00 18.7 C 8.97 g/m*3 18.7 C 9.7 km/h
2550 30-06-2014 19:35:00 18.6 C 9.07 g/m*3 18.6 C 14.5 km/h
Sensor: Nr:Datum:Temp:Abs-Feuchte:Windchill:Wind:
Aussen-T/F 2551 30-06-2014 19:40:00 18.6 C 9.07 g/m*3 18.6 C 9.7 km/h
2552 30-06-2014 19:45:00 18.4 C 8.81 g/m*3 18.4 C 11.3 km/h
2553 30-06-2014 19:50:00 18.4 C 8.81 g/m*3 18.4 C 8.1 km/h
2554 30-06-2014 19:55:00 18.3 C 9.07 g/m*3 18.3 C 12.9 km/h
2555 30-06-2014 20:00:00 18.3 C 8.91 g/m*3 18.3 C 8.1 km/h
2556 30-06-2014 20:05:00 18.1 C 8.81 g/m*3 18.1 C 4.8 km/h
2557 30-06-2014 20:10:00 17.9 C 9.01 g/m*3 17.9 C 9.7 km/h
2558 30-06-2014 20:15:00 17.7 C 8.9 g/m*3 17.7 C 9.7 km/h
2559 30-06-2014 20:20:00 17.6 C 8.85 g/m*3 17.6 C 9.7 km/h
2560 30-06-2014 20:25:00 17.6 C 8.7 g/m*3 17.6 C 8.1 km/h
2561 30-06-2014 20:30:00 17.5 C 8.65 g/m*3 17.5 C 6.4 km/h
2562 30-06-2014 20:35:00 17.4 C 8.89 g/m*3 17.4 C 6.4 km/h
2563 30-06-2014 20:40:00 17.3 C 8.69 g/m*3 17.3 C 6.4 km/h
2564 30-06-2014 20:45:00 17.2 C 8.93 g/m*3 17.2 C 6.4 km/h
2565 30-06-2014 20:50:00 17.1 C 9.46 g/m*3 17.1 C 1.6 km/h
2566 30-06-2014 20:55:00 17 C 9.69 g/m*3 17 C 1.6 km/h
2567 30-06-2014 21:00:00 16.7 C 9.81 g/m*3 16.7 C 1.6 km/h
2568 30-06-2014 21:05:00 16.3 C 9.71 g/m*3 16.3 C 0 km/h
2569 30-06-2014 21:10:00 16.1 C 10.01 g/m*3 16.1 C 3.2 km/h
2570 30-06-2014 21:15:00 15.8 C 9.96 g/m*3 15.8 C 0 km/h
2571 30-06-2014 21:20:00 15.6 C 9.97 g/m*3 15.6 C 0 km/h
2572 30-06-2014 21:25:00 15.3 C 10.19 g/m*3 15.3 C 0 km/h
2573 30-06-2014 21:30:00 15.2 C 10.25 g/m*3 15.2 C 0 km/h
2574 30-06-2014 21:35:00 15 C 10.13 g/m*3 15 C 0 km/h
2575 30-06-2014 21:40:00 14.8 C 10.01 g/m*3 14.8 C 0 km/h
Sensor: Nr:Datum:Temp:Abs-Feuchte:Windchill:Wind:
Aussen-T/F 2576 30-06-2014 21:45:00 14.6 C 10.01 g/m*3 14.6 C 0 km/h
2577 30-06-2014 21:50:00 14.5 C 10.2 g/m*3 14.5 C 0 km/h
2578 30-06-2014 21:55:00 14.3 C 10.07 g/m*3 14.3 C 0 km/h
2579 30-06-2014 22:00:00 14.2 C 9.89 g/m*3 14.2 C 0 km/h
2580 30-06-2014 22:05:00 14.1 C 9.95 g/m*3 14.1 C 1.6 km/h
2581 30-06-2014 22:10:00 13.9 C 9.95 g/m*3 13.9 C 1.6 km/h
2582 30-06-2014 22:15:00 13.7 C 9.71 g/m*3 13.7 C 1.6 km/h
2583 30-06-2014 22:20:00 13.5 C 9.71 g/m*3 13.5 C 1.6 km/h
2584 30-06-2014 22:25:00 13.3 C 9.47 g/m*3 13.3 C 1.6 km/h
2585 30-06-2014 22:30:00 13.2 C 9.42 g/m*3 13.2 C 1.6 km/h
2586 30-06-2014 22:35:00 13.1 C 9.36 g/m*3 13.1 C 0 km/h
2587 30-06-2014 22:40:00 13.1 C 9.47 g/m*3 13.1 C 0 km/h
2588 30-06-2014 22:45:00 12.9 C 9.58 g/m*3 12.9 C 1.6 km/h
2589 30-06-2014 22:50:00 12.8 C 9.41 g/m*3 12.8 C 0 km/h
2590 30-06-2014 22:55:00 12.8 C 9.3 g/m*3 12.8 C 0 km/h
2591 30-06-2014 23:00:00 12.7 C 9.35 g/m*3 12.7 C 0 km/h
2592 30-06-2014 23:05:00 12.6 C 9.29 g/m*3 12.6 C 1.6 km/h
2593 30-06-2014 23:10:00 12.6 C 9.29 g/m*3 12.6 C 0 km/h
2594 30-06-2014 23:15:00 12.5 C 9.35 g/m*3 12.5 C 0 km/h
2595 30-06-2014 23:20:00 12.4 C 9.18 g/m*3 12.4 C 0 km/h
2596 30-06-2014 23:25:00 12.3 C 9.23 g/m*3 12.3 C 0 km/h
2597 30-06-2014 23:30:00 12.2 C 9.28 g/m*3 12.2 C 0 km/h
2598 30-06-2014 23:35:00 12.1 C 9.22 g/m*3 12.1 C 0 km/h
2599 30-06-2014 23:40:00 11.9 C 9.21 g/m*3 11.9 C 0 km/h
2600 30-06-2014 23:45:00 11.9 C 9.21 g/m*3 11.9 C 0 km/h
Sensor: Nr:Datum:Temp:Abs-Feuchte:Windchill:Wind:
Aussen-T/F 2601 30-06-2014 23:50:00 11.8 C 9.16 g/m*3 11.8 C 0 km/h
2602 30-06-2014 23:55:00 11.7 C 9.1 g/m*3 11.7 C 0 km/h
2603 01-07-2014 00:00:00 11.6 C 9.15 g/m*3 11.6 C 0 km/h
2604 01-07-2014 00:05:00 11.4 C 9.03 g/m*3 11.4 C 0 km/h
2605 01-07-2014 00:10:00 11.3 C 8.98 g/m*3 11.3 C 0 km/h
2606 01-07-2014 00:15:00 11.3 C 9.08 g/m*3 11.3 C 0 km/h
2607 01-07-2014 00:20:00 11.2 C 9.12 g/m*3 11.2 C 0 km/h
2608 01-07-2014 00:25:00 11.2 C 9.12 g/m*3 11.2 C 0 km/h
2609 01-07-2014 00:30:00 11.2 C 9.02 g/m*3 11.2 C 0 km/h
2610 01-07-2014 00:35:00 11.1 C 8.86 g/m*3 11.1 C 1.6 km/h
2611 01-07-2014 00:40:00 11.1 C 8.86 g/m*3 11.1 C 0 km/h
2612 01-07-2014 00:45:00 10.9 C 8.75 g/m*3 10.9 C 0 km/h
2613 01-07-2014 00:50:00 10.8 C 8.8 g/m*3 10.8 C 0 km/h
2614 01-07-2014 00:55:00 10.7 C 8.74 g/m*3 10.7 C 0 km/h
2615 01-07-2014 01:00:00 10.6 C 8.78 g/m*3 10.6 C 0 km/h
2616 01-07-2014 01:05:00 10.5 C 8.73 g/m*3 10.5 C 0 km/h
2617 01-07-2014 01:10:00 10.4 C 8.67 g/m*3 10.4 C 0 km/h
2618 01-07-2014 01:15:00 10.4 C 8.67 g/m*3 10.4 C 0 km/h
2619 01-07-2014 01:20:00 10.3 C 8.62 g/m*3 10.3 C 0 km/h
2620 01-07-2014 01:25:00 10.3 C 8.62 g/m*3 10.3 C 0 km/h
2621 01-07-2014 01:30:00 10.3 C 8.71 g/m*3 10.3 C 0 km/h
2622 01-07-2014 01:35:00 10.2 C 8.66 g/m*3 10.2 C 0 km/h
2623 01-07-2014 01:40:00 10.2 C 8.66 g/m*3 10.2 C 0 km/h
2624 01-07-2014 01:45:00 10.2 C 8.66 g/m*3 10.2 C 0 km/h
2625 01-07-2014 01:50:00 10.2 C 8.66 g/m*3 10.2 C 0 km/h
Sensor: Nr:Datum:Temp:Abs-Feuchte:Windchill:Wind:
Aussen-T/F 2626 01-07-2014 01:55:00 10.1 C 8.7 g/m*3 10.1 C 0 km/h
2627 01-07-2014 02:00:00 10.1 C 8.7 g/m*3 10.1 C 0 km/h
2628 01-07-2014 02:05:00 10.1 C 8.61 g/m*3 10.1 C 1.6 km/h
2629 01-07-2014 02:10:00 10 C 8.55 g/m*3 10 C 0 km/h
2630 01-07-2014 02:15:00 9.9 C 8.5 g/m*3 9.9 C 0 km/h
2631 01-07-2014 02:20:00 9.8 C 8.54 g/m*3 9.8 C 0 km/h
2632 01-07-2014 02:25:00 9.8 C 8.54 g/m*3 9.8 C 0 km/h
2633 01-07-2014 02:30:00 9.7 C 8.48 g/m*3 9.7 C 0 km/h
2634 01-07-2014 02:35:00 9.7 C 8.48 g/m*3 9.7 C 1.6 km/h
2635 01-07-2014 02:40:00 9.7 C 8.48 g/m*3 9.7 C 0 km/h
2636 01-07-2014 02:45:00 9.7 C 8.57 g/m*3 9.7 C 0 km/h
2637 01-07-2014 02:50:00 9.7 C 8.57 g/m*3 9.7 C 0 km/h
2638 01-07-2014 02:55:00 9.7 C 8.57 g/m*3 9.7 C 0 km/h
2639 01-07-2014 03:00:00 9.6 C 8.52 g/m*3 9.6 C 0 km/h
2640 01-07-2014 03:05:00 9.6 C 8.52 g/m*3 9.6 C 1.6 km/h
2641 01-07-2014 03:10:00 9.6 C 8.52 g/m*3 9.6 C 0 km/h
2642 01-07-2014 03:15:00 9.5 C 8.47 g/m*3 9.5 C 0 km/h
2643 01-07-2014 03:20:00 9.4 C 8.41 g/m*3 9.4 C 0 km/h
2644 01-07-2014 03:25:00 9.4 C 8.41 g/m*3 9.4 C 0 km/h
2645 01-07-2014 03:30:00 9.3 C 8.36 g/m*3 9.3 C 0 km/h
2646 01-07-2014 03:35:00 9.3 C 8.36 g/m*3 9.3 C 0 km/h
2647 01-07-2014 03:40:00 9.2 C 8.3 g/m*3 9.2 C 0 km/h
2648 01-07-2014 03:45:00 9.2 C 8.3 g/m*3 9.2 C 0 km/h
2649 01-07-2014 03:50:00 9.1 C 8.25 g/m*3 9.1 C 0 km/h
2650 01-07-2014 03:55:00 9.1 C 8.25 g/m*3 9.1 C 0 km/h
Sensor: Nr:Datum:Temp:Abs-Feuchte:Windchill:Wind:
Aussen-T/F 2651 01-07-2014 04:00:00 9 C 8.29 g/m*3 9 C 0 km/h
2652 01-07-2014 04:05:00 9.1 C 8.34 g/m*3 9.1 C 0 km/h
2653 01-07-2014 04:10:00 9.1 C 8.34 g/m*3 9.1 C 0 km/h
2654 01-07-2014 04:15:00 9.1 C 8.34 g/m*3 9.1 C 0 km/h
2655 01-07-2014 04:20:00 9 C 8.29 g/m*3 9 C 0 km/h
2656 01-07-2014 04:25:00 9 C 8.29 g/m*3 9 C 0 km/h
2657 01-07-2014 04:30:00 9 C 8.29 g/m*3 9 C 0 km/h
2658 01-07-2014 04:35:00 8.9 C 8.23 g/m*3 8.9 C 0 km/h
2659 01-07-2014 04:40:00 8.9 C 8.23 g/m*3 8.9 C 0 km/h
2660 01-07-2014 04:45:00 8.8 C 8.18 g/m*3 8.8 C 0 km/h
2661 01-07-2014 04:50:00 8.8 C 8.18 g/m*3 8.8 C 0 km/h
2662 01-07-2014 04:55:00 8.8 C 8.18 g/m*3 8.8 C 0 km/h
2663 01-07-2014 05:00:00 8.7 C 8.13 g/m*3 8.7 C 0 km/h
2664 01-07-2014 05:05:00 8.7 C 8.22 g/m*3 8.7 C 0 km/h
2665 01-07-2014 05:10:00 8.7 C 8.22 g/m*3 8.7 C 0 km/h
2666 01-07-2014 05:15:00 8.7 C 8.22 g/m*3 8.7 C 0 km/h
2667 01-07-2014 05:20:00 8.7 C 8.22 g/m*3 8.7 C 0 km/h
2668 01-07-2014 05:25:00 8.8 C 8.27 g/m*3 8.8 C 0 km/h
2669 01-07-2014 05:30:00 8.8 C 8.27 g/m*3 8.8 C 0 km/h
2670 01-07-2014 05:35:00 8.8 C 8.27 g/m*3 8.8 C 0 km/h
2671 01-07-2014 05:40:00 8.8 C 8.27 g/m*3 8.8 C 0 km/h
2672 01-07-2014 05:45:00 8.8 C 8.27 g/m*3 8.8 C 0 km/h
2673 01-07-2014 05:50:00 8.7 C 8.22 g/m*3 8.7 C 0 km/h
2674 01-07-2014 05:55:00 8.7 C 8.22 g/m*3 8.7 C 0 km/h
2675 01-07-2014 06:00:00 8.7 C 8.22 g/m*3 8.7 C 0 km/h
Sensor: Nr:Datum:Temp:Abs-Feuchte:Windchill:Wind:
Aussen-T/F 2676 01-07-2014 06:05:00 8.7 C 8.22 g/m*3 8.7 C 0 km/h
2677 01-07-2014 06:10:00 8.7 C 8.22 g/m*3 8.7 C 0 km/h
2678 01-07-2014 06:15:00 8.7 C 8.22 g/m*3 8.7 C 0 km/h
2679 01-07-2014 06:20:00 8.8 C 8.27 g/m*3 8.8 C 0 km/h
2680 01-07-2014 06:25:00 8.8 C 8.27 g/m*3 8.8 C 0 km/h
2681 01-07-2014 06:30:00 8.8 C 8.27 g/m*3 8.8 C 0 km/h
2682 01-07-2014 06:35:00 8.8 C 8.27 g/m*3 8.8 C 0 km/h
2683 01-07-2014 06:40:00 8.9 C 8.32 g/m*3 8.9 C 0 km/h
2684 01-07-2014 06:45:00 8.9 C 8.32 g/m*3 8.9 C 0 km/h
2685 01-07-2014 06:50:00 9.1 C 8.52 g/m*3 9.1 C 0 km/h
2686 01-07-2014 06:55:00 9.2 C 8.57 g/m*3 9.2 C 0 km/h
2687 01-07-2014 07:00:00 9.3 C 8.63 g/m*3 9.3 C 0 km/h
2688 01-07-2014 07:05:00 9.4 C 8.68 g/m*3 9.4 C 0 km/h
2689 01-07-2014 07:10:00 9.6 C 8.79 g/m*3 9.6 C 1.6 km/h
2690 01-07-2014 07:15:00 9.7 C 8.85 g/m*3 9.7 C 0 km/h
2691 01-07-2014 07:20:00 9.8 C 8.91 g/m*3 9.8 C 0 km/h
2692 01-07-2014 07:25:00 9.8 C 8.91 g/m*3 9.8 C 1.6 km/h
2693 01-07-2014 07:30:00 9.9 C 8.87 g/m*3 9.9 C 0 km/h
2694 01-07-2014 07:35:00 10 C 8.93 g/m*3 10 C 0 km/h
2695 01-07-2014 07:40:00 10 C 8.93 g/m*3 10 C 0 km/h
2696 01-07-2014 07:45:00 10.1 C 8.98 g/m*3 10.1 C 0 km/h
2697 01-07-2014 07:50:00 10.2 C 9.04 g/m*3 10.2 C 0 km/h
2698 01-07-2014 07:55:00 10.3 C 9.1 g/m*3 10.3 C 0 km/h
2699 01-07-2014 08:00:00 10.4 C 9.16 g/m*3 10.4 C 0 km/h
2700 01-07-2014 08:05:00 10.8 C 9.39 g/m*3 10.8 C 0 km/h
Sensor: Nr:Datum:Temp:Abs-Feuchte:Windchill:Wind:
Aussen-T/F 2701 01-07-2014 08:10:00 11.1 C 9.47 g/m*3 11.1 C 0 km/h
2702 01-07-2014 08:15:00 11.4 C 9.55 g/m*3 11.4 C 0 km/h
2703 01-07-2014 08:20:00 11.7 C 9.62 g/m*3 11.7 C 0 km/h
2704 01-07-2014 08:25:00 11.9 C 9.64 g/m*3 11.9 C 0 km/h
2705 01-07-2014 08:30:00 12.2 C 9.6 g/m*3 12.2 C 0 km/h
2706 01-07-2014 08:35:00 12.4 C 9.83 g/m*3 12.4 C 0 km/h
2707 01-07-2014 08:40:00 12.8 C 9.86 g/m*3 12.8 C 0 km/h
2708 01-07-2014 08:45:00 13.1 C 9.93 g/m*3 13.1 C 0 km/h
2709 01-07-2014 08:50:00 13.2 C 9.99 g/m*3 13.2 C 0 km/h
2710 01-07-2014 08:55:00 13.6 C 10.12 g/m*3 13.6 C 0 km/h
2711 01-07-2014 09:00:00 13.7 C 10.18 g/m*3 13.7 C 0 km/h
2712 01-07-2014 09:05:00 14.1 C 10.32 g/m*3 14.1 C 0 km/h
2713 01-07-2014 09:10:00 14.3 C 10.2 g/m*3 14.3 C 1.6 km/h
2714 01-07-2014 09:15:00 14.6 C 10.14 g/m*3 14.6 C 0 km/h
2715 01-07-2014 09:20:00 14.5 C 10.07 g/m*3 14.5 C 0 km/h
2716 01-07-2014 09:25:00 14.5 C 10.32 g/m*3 14.5 C 0 km/h
2717 01-07-2014 09:30:00 14.6 C 10.26 g/m*3 14.6 C 0 km/h
2718 01-07-2014 09:35:00 14.5 C 10.07 g/m*3 14.5 C 3.2 km/h
2719 01-07-2014 09:40:00 14.4 C 9.89 g/m*3 14.4 C 1.6 km/h
2720 01-07-2014 09:45:00 14.4 C 9.77 g/m*3 14.4 C 1.6 km/h
2721 01-07-2014 09:50:00 14.6 C 10.01 g/m*3 14.6 C 3.2 km/h
2722 01-07-2014 09:55:00 15 C 9.87 g/m*3 15 C 3.2 km/h
2723 01-07-2014 10:00:00 15.3 C 9.92 g/m*3 15.3 C 1.6 km/h
2724 01-07-2014 10:05:00 15.8 C 9.96 g/m*3 15.8 C 3.2 km/h
2725 01-07-2014 10:10:00 16 C 9.81 g/m*3 16 C 3.2 km/h
Sensor: Nr:Datum:Temp:Abs-Feuchte:Windchill:Wind:
Aussen-T/F 2726 01-07-2014 10:15:00 16.3 C 9.99 g/m*3 16.3 C 3.2 km/h
2727 01-07-2014 10:20:00 16.7 C 10.23 g/m*3 16.7 C 4.8 km/h
2728 01-07-2014 10:25:00 16.9 C 10.07 g/m*3 16.9 C 4.8 km/h
2729 01-07-2014 10:30:00 17.1 C 10.34 g/m*3 17.1 C 3.2 km/h
2730 01-07-2014 10:35:00 17.3 C 10.46 g/m*3 17.3 C 3.2 km/h
2731 01-07-2014 10:40:00 17.5 C 10.44 g/m*3 17.5 C 4.8 km/h
2732 01-07-2014 10:45:00 17.7 C 10.11 g/m*3 17.7 C 1.6 km/h
2733 01-07-2014 10:50:00 17.9 C 9.92 g/m*3 17.9 C 4.8 km/h
2734 01-07-2014 10:55:00 18 C 9.98 g/m*3 18 C 3.2 km/h
2735 01-07-2014 11:00:00 18.1 C 10.2 g/m*3 18.1 C 3.2 km/h
2736 01-07-2014 11:05:00 18.2 C 10.1 g/m*3 18.2 C 4.8 km/h
2737 01-07-2014 11:10:00 18.2 C 9.79 g/m*3 18.2 C 4.8 km/h
2738 01-07-2014 11:15:00 18.4 C 10.54 g/m*3 18.4 C 1.6 km/h
2739 01-07-2014 11:20:00 18.7 C 10.25 g/m*3 18.7 C 4.8 km/h
2740 01-07-2014 11:25:00 18.9 C 10.04 g/m*3 18.9 C 9.7 km/h
2741 01-07-2014 11:30:00 19.1 C 10.49 g/m*3 19.1 C 4.8 km/h
2742 01-07-2014 11:35:00 19.2 C 10.22 g/m*3 19.2 C 4.8 km/h
2743 01-07-2014 11:40:00 19.3 C 10.45 g/m*3 19.3 C 4.8 km/h
2744 01-07-2014 11:45:00 19.4 C 10.18 g/m*3 19.4 C 8.1 km/h
2745 01-07-2014 11:50:00 19.6 C 10.3 g/m*3 19.6 C 6.4 km/h
2746 01-07-2014 11:55:00 19.7 C 10.53 g/m*3 19.7 C 4.8 km/h
2747 01-07-2014 12:00:00 19.7 C 10.02 g/m*3 19.7 C 8.1 km/h
2748 01-07-2014 12:05:00 19.7 C 9.85 g/m*3 19.7 C 6.4 km/h
2749 01-07-2014 12:10:00 19.9 C 10.14 g/m*3 19.9 C 6.4 km/h
2750 01-07-2014 12:15:00 20.1 C 10.6 g/m*3 20.1 C 4.8 km/h
Sensor: Nr:Datum:Temp:Abs-Feuchte:Windchill:Wind:
Aussen-T/F 2751 01-07-2014 12:20:00 20.3 C 10.38 g/m*3 20.3 C 6.4 km/h
2752 01-07-2014 12:25:00 20.3 C 10.02 g/m*3 20.3 C 12.9 km/h
2753 01-07-2014 12:30:00 20.2 C 9.79 g/m*3 20.2 C 4.8 km/h
2754 01-07-2014 12:35:00 20.3 C 10.2 g/m*3 20.3 C 6.4 km/h
2755 01-07-2014 12:40:00 20.2 C 10.32 g/m*3 20.2 C 4.8 km/h
2756 01-07-2014 12:45:00 20.4 C 10.08 g/m*3 20.4 C 9.7 km/h
2757 01-07-2014 12:50:00 20.6 C 9.84 g/m*3 20.6 C 8.1 km/h
2758 01-07-2014 12:55:00 20.7 C 9.36 g/m*3 20.7 C 9.7 km/h
2759 01-07-2014 13:00:00 20.8 C 9.6 g/m*3 20.8 C 8.1 km/h
2760 01-07-2014 13:05:00 21 C 9.89 g/m*3 21 C 6.4 km/h
2761 01-07-2014 13:10:00 21.1 C 9.21 g/m*3 21.1 C 8.1 km/h
2762 01-07-2014 13:15:00 21.3 C 9.88 g/m*3 21.3 C 8.1 km/h
2763 01-07-2014 13:20:00 21.2 C 9.45 g/m*3 21.2 C 8.1 km/h
2764 01-07-2014 13:25:00 20.7 C 9.18 g/m*3 20.7 C 11.3 km/h
2765 01-07-2014 13:30:00 20.4 C 10.44 g/m*3 20.4 C 1.6 km/h
2766 01-07-2014 13:35:00 20.2 C 10.14 g/m*3 20.2 C 4.8 km/h
2767 01-07-2014 13:40:00 20.3 C 9.67 g/m*3 20.3 C 4.8 km/h
2768 01-07-2014 13:45:00 21.1 C 9.77 g/m*3 21.1 C 6.4 km/h
2769 01-07-2014 13:50:00 21.7 C 9.54 g/m*3 21.7 C 3.2 km/h
2770 01-07-2014 13:55:00 21.7 C 9.54 g/m*3 21.7 C 6.4 km/h
2771 01-07-2014 14:00:00 21.7 C 9.16 g/m*3 21.7 C 8.1 km/h
2772 01-07-2014 14:05:00 21.5 C 8.86 g/m*3 21.5 C 6.4 km/h
2773 01-07-2014 14:10:00 21.1 C 9.03 g/m*3 21.1 C 4.8 km/h
2774 01-07-2014 14:15:00 20.9 C 9.47 g/m*3 20.9 C 8.1 km/h
2775 01-07-2014 14:20:00 20.9 C 8.92 g/m*3 20.9 C 3.2 km/h
Sensor: Nr:Datum:Temp:Abs-Feuchte:Windchill:Wind:
Aussen-T/F 2776 01-07-2014 14:25:00 21.3 C 9.51 g/m*3 21.3 C 8.1 km/h
2777 01-07-2014 14:30:00 21.7 C 9.16 g/m*3 21.7 C 3.2 km/h
2778 01-07-2014 14:35:00 22.1 C 9.37 g/m*3 22.1 C 11.3 km/h
2779 01-07-2014 14:40:00 21.9 C 8.68 g/m*3 21.9 C 6.4 km/h
2780 01-07-2014 14:45:00 21.4 C 9.56 g/m*3 21.4 C 3.2 km/h
2781 01-07-2014 14:50:00 21.3 C 9.13 g/m*3 21.3 C 6.4 km/h
2782 01-07-2014 14:55:00 21.7 C 9.35 g/m*3 21.7 C 8.1 km/h
2783 01-07-2014 15:00:00 22.2 C 8.83 g/m*3 22.2 C 14.5 km/h
2784 01-07-2014 15:05:00 22.6 C 9.04 g/m*3 22.6 C 4.8 km/h
2785 01-07-2014 15:10:00 22.7 C 8.89 g/m*3 22.7 C 8.1 km/h
2786 01-07-2014 15:15:00 22.9 C 8.79 g/m*3 22.9 C 11.3 km/h
2787 01-07-2014 15:20:00 23.1 C 8.48 g/m*3 23.1 C 11.3 km/h
2788 01-07-2014 15:25:00 22.7 C 8.49 g/m*3 22.7 C 8.1 km/h
2789 01-07-2014 15:30:00 22.2 C 8.05 g/m*3 22.2 C 4.8 km/h
2790 01-07-2014 15:35:00 21.9 C 7.72 g/m*3 21.9 C 4.8 km/h
2791 01-07-2014 15:40:00 21.8 C 8.06 g/m*3 21.8 C 1.6 km/h
2792 01-07-2014 15:45:00 22 C 8.93 g/m*3 22 C 6.4 km/h
2793 01-07-2014 15:50:00 22.2 C 8.25 g/m*3 22.2 C 12.9 km/h
2794 01-07-2014 15:55:00 22.1 C 8.39 g/m*3 22.1 C 11.3 km/h
2795 01-07-2014 16:00:00 21.8 C 8.06 g/m*3 21.8 C 6.4 km/h
2796 01-07-2014 16:05:00 21.6 C 8.53 g/m*3 21.6 C 6.4 km/h
2797 01-07-2014 16:10:00 21.3 C 8.02 g/m*3 21.3 C 6.4 km/h
2798 01-07-2014 16:15:00 21.2 C 8.34 g/m*3 21.2 C 8.1 km/h
2799 01-07-2014 16:20:00 21.3 C 8.57 g/m*3 21.3 C 11.3 km/h
2800 01-07-2014 16:25:00 21.6 C 8.16 g/m*3 21.6 C 6.4 km/h
Sensor: Nr:Datum:Temp:Abs-Feuchte:Windchill:Wind:
Aussen-T/F 2801 01-07-2014 16:30:00 21.4 C 8.81 g/m*3 21.4 C 8.1 km/h
2802 01-07-2014 16:35:00 21.2 C 8.52 g/m*3 21.2 C 4.8 km/h
2803 01-07-2014 16:40:00 21.1 C 8.48 g/m*3 21.1 C 9.7 km/h
2804 01-07-2014 16:45:00 21.1 C 8.29 g/m*3 21.1 C 6.4 km/h
2805 01-07-2014 16:50:00 21.1 C 8.29 g/m*3 21.1 C 6.4 km/h
2806 01-07-2014 16:55:00 21.1 C 8.48 g/m*3 21.1 C 9.7 km/h
2807 01-07-2014 17:00:00 21.1 C 8.29 g/m*3 21.1 C 6.4 km/h
2808 01-07-2014 17:05:00 20.9 C 8.2 g/m*3 20.9 C 8.1 km/h
2809 01-07-2014 17:10:00 20.7 C 8.28 g/m*3 20.7 C 4.8 km/h
2810 01-07-2014 17:15:00 20.5 C 8.01 g/m*3 20.5 C 8.1 km/h
2811 01-07-2014 17:20:00 20.5 C 8.54 g/m*3 20.5 C 8.1 km/h
2812 01-07-2014 17:25:00 20.6 C 8.23 g/m*3 20.6 C 9.7 km/h
2813 01-07-2014 17:30:00 20.6 C 8.41 g/m*3 20.6 C 4.8 km/h
2814 01-07-2014 17:35:00 20.6 C 8.23 g/m*3 20.6 C 6.4 km/h
2815 01-07-2014 17:40:00 20.9 C 8.56 g/m*3 20.9 C 6.4 km/h
2816 01-07-2014 17:45:00 21.2 C 8.15 g/m*3 21.2 C 9.7 km/h
2817 01-07-2014 17:50:00 21.1 C 8.29 g/m*3 21.1 C 8.1 km/h
2818 01-07-2014 17:55:00 20.9 C 8.56 g/m*3 20.9 C 4.8 km/h
2819 01-07-2014 18:00:00 20.8 C 8.33 g/m*3 20.8 C 4.8 km/h
2820 01-07-2014 18:05:00 20.7 C 8.28 g/m*3 20.7 C 4.8 km/h
2821 01-07-2014 18:10:00 20.8 C 8.87 g/m*3 20.8 C 3.2 km/h
2822 01-07-2014 18:15:00 20.8 C 8.51 g/m*3 20.8 C 3.2 km/h
2823 01-07-2014 18:20:00 20.8 C 8.33 g/m*3 20.8 C 6.4 km/h
2824 01-07-2014 18:25:00 20.6 C 8.59 g/m*3 20.6 C 4.8 km/h
2825 01-07-2014 18:30:00 20.7 C 8.46 g/m*3 20.7 C 4.8 km/h
Sensor: Nr:Datum:Temp:Abs-Feuchte:Windchill:Wind:
Aussen-T/F 2826 01-07-2014 18:35:00 20.7 C 8.46 g/m*3 20.7 C 9.7 km/h
2827 01-07-2014 18:40:00 20.6 C 8.23 g/m*3 20.6 C 11.3 km/h
2828 01-07-2014 18:45:00 20.6 C 8.59 g/m*3 20.6 C 4.8 km/h
2829 01-07-2014 18:50:00 20.8 C 8.87 g/m*3 20.8 C 8.1 km/h
2830 01-07-2014 18:55:00 21.2 C 8.34 g/m*3 21.2 C 8.1 km/h
2831 01-07-2014 19:00:00 21.6 C 8.91 g/m*3 21.6 C 4.8 km/h
2832 01-07-2014 19:05:00 21.8 C 8.63 g/m*3 21.8 C 6.4 km/h
2833 01-07-2014 19:10:00 22.1 C 8.78 g/m*3 22.1 C 4.8 km/h
2834 01-07-2014 19:15:00 22.2 C 8.83 g/m*3 22.2 C 9.7 km/h
2835 01-07-2014 19:20:00 21.9 C 8.68 g/m*3 21.9 C 8.1 km/h
2836 01-07-2014 19:25:00 21.7 C 8.39 g/m*3 21.7 C 8.1 km/h
2837 01-07-2014 19:30:00 21.4 C 8.06 g/m*3 21.4 C 8.1 km/h
2838 01-07-2014 19:35:00 21.3 C 8.2 g/m*3 21.3 C 9.7 km/h
2839 01-07-2014 19:40:00 21.2 C 7.97 g/m*3 21.2 C 11.3 km/h
2840 01-07-2014 19:45:00 21.2 C 8.15 g/m*3 21.2 C 9.7 km/h
2841 01-07-2014 19:50:00 21.2 C 8.15 g/m*3 21.2 C 9.7 km/h
2842 01-07-2014 19:55:00 21.1 C 8.11 g/m*3 21.1 C 11.3 km/h
2843 01-07-2014 20:00:00 20.9 C 8.01 g/m*3 20.9 C 6.4 km/h
2844 01-07-2014 20:05:00 20.9 C 8.38 g/m*3 20.9 C 9.7 km/h
2845 01-07-2014 20:10:00 20.9 C 8.2 g/m*3 20.9 C 6.4 km/h
2846 01-07-2014 20:15:00 20.8 C 8.15 g/m*3 20.8 C 6.4 km/h
2847 01-07-2014 20:20:00 20.6 C 7.87 g/m*3 20.6 C 8.1 km/h
2848 01-07-2014 20:25:00 20.6 C 8.23 g/m*3 20.6 C 4.8 km/h
2849 01-07-2014 20:30:00 20.5 C 8.36 g/m*3 20.5 C 4.8 km/h
2850 01-07-2014 20:35:00 20.5 C 8.19 g/m*3 20.5 C 6.4 km/h
Sensor: Nr:Datum:Temp:Abs-Feuchte:Windchill:Wind:
Aussen-T/F 2851 01-07-2014 20:40:00 20.4 C 7.96 g/m*3 20.4 C 4.8 km/h
2852 01-07-2014 20:45:00 20.3 C 8.27 g/m*3 20.3 C 4.8 km/h
2853 01-07-2014 20:50:00 20.1 C 8.17 g/m*3 20.1 C 8.1 km/h
2854 01-07-2014 20:55:00 20 C 8.12 g/m*3 20 C 6.4 km/h
2855 01-07-2014 21:00:00 19.9 C 8.08 g/m*3 19.9 C 6.4 km/h
2856 01-07-2014 21:05:00 19.7 C 8.15 g/m*3 19.7 C 6.4 km/h
2857 01-07-2014 21:10:00 19.6 C 8.61 g/m*3 19.6 C 3.2 km/h
2858 01-07-2014 21:15:00 19.3 C 8.29 g/m*3 19.3 C 3.2 km/h
2859 01-07-2014 21:20:00 18.9 C 9.23 g/m*3 18.9 C 1.6 km/h
2860 01-07-2014 21:25:00 18.3 C 9.07 g/m*3 18.3 C 1.6 km/h
2861 01-07-2014 21:30:00 17.7 C 9.05 g/m*3 17.7 C 0 km/h
2862 01-07-2014 21:35:00 17.3 C 8.84 g/m*3 17.3 C 3.2 km/h
2863 01-07-2014 21:40:00 16.9 C 8.92 g/m*3 16.9 C 0 km/h
2864 01-07-2014 21:45:00 16.5 C 8.85 g/m*3 16.5 C 0 km/h
2865 01-07-2014 21:50:00 16.2 C 9.38 g/m*3 16.2 C 1.6 km/h
2866 01-07-2014 21:55:00 16 C 9.54 g/m*3 16 C 0 km/h
2867 01-07-2014 22:00:00 15.8 C 9.69 g/m*3 15.8 C 0 km/h
2868 01-07-2014 22:05:00 15.5 C 9.39 g/m*3 15.5 C 1.6 km/h
2869 01-07-2014 22:10:00 15.3 C 9.27 g/m*3 15.3 C 1.6 km/h
2870 01-07-2014 22:15:00 15.1 C 9.16 g/m*3 15.1 C 3.2 km/h
2871 01-07-2014 22:20:00 14.8 C 9.25 g/m*3 14.8 C 3.2 km/h
2872 01-07-2014 22:25:00 14.7 C 9.07 g/m*3 14.7 C 0 km/h
2873 01-07-2014 22:30:00 14.6 C 9.13 g/m*3 14.6 C 3.2 km/h
2874 01-07-2014 22:35:00 14.4 C 9.02 g/m*3 14.4 C 1.6 km/h
2875 01-07-2014 22:40:00 14.3 C 9.09 g/m*3 14.3 C 1.6 km/h
Sensor: Nr:Datum:Temp:Abs-Feuchte:Windchill:Wind:
Aussen-T/F 2876 01-07-2014 22:45:00 14.2 C 9.28 g/m*3 14.2 C 0 km/h
2877 01-07-2014 22:50:00 14.1 C 9.1 g/m*3 14.1 C 1.6 km/h
2878 01-07-2014 22:55:00 14 C 9.05 g/m*3 14 C 1.6 km/h
2879 01-07-2014 23:00:00 14 C 9.05 g/m*3 14 C 0 km/h
2880 01-07-2014 23:05:00 14 C 8.93 g/m*3 14 C 1.6 km/h
2881 01-07-2014 23:10:00 14 C 9.05 g/m*3 14 C 1.6 km/h
2882 01-07-2014 23:15:00 13.9 C 8.99 g/m*3 13.9 C 0 km/h
2883 01-07-2014 23:20:00 13.8 C 9.17 g/m*3 13.8 C 0 km/h
2884 01-07-2014 23:25:00 13.7 C 9.12 g/m*3 13.7 C 0 km/h
2885 01-07-2014 23:30:00 13.6 C 8.94 g/m*3 13.6 C 0 km/h
2886 01-07-2014 23:35:00 13.4 C 8.83 g/m*3 13.4 C 0 km/h
2887 01-07-2014 23:40:00 13.3 C 8.9 g/m*3 13.3 C 0 km/h
2888 01-07-2014 23:45:00 13.3 C 9.01 g/m*3 13.3 C 0 km/h
2889 01-07-2014 23:50:00 13.2 C 8.96 g/m*3 13.2 C 0 km/h
2890 01-07-2014 23:55:00 13.1 C 8.79 g/m*3 13.1 C 0 km/h
2891 02-07-2014 00:00:00 13 C 8.73 g/m*3 13 C 0 km/h
2892 02-07-2014 00:05:00 13 C 8.73 g/m*3 13 C 0 km/h
2893 02-07-2014 00:10:00 12.9 C 8.68 g/m*3 12.9 C 0 km/h
2894 02-07-2014 00:15:00 12.8 C 8.85 g/m*3 12.8 C 0 km/h
2895 02-07-2014 00:20:00 12.7 C 8.91 g/m*3 12.7 C 1.6 km/h
2896 02-07-2014 00:25:00 12.6 C 8.74 g/m*3 12.6 C 0 km/h
2897 02-07-2014 00:30:00 12.6 C 8.85 g/m*3 12.6 C 0 km/h
2898 02-07-2014 00:35:00 12.3 C 8.69 g/m*3 12.3 C 0 km/h
2899 02-07-2014 00:40:00 12.2 C 8.74 g/m*3 12.2 C 0 km/h
2900 02-07-2014 00:45:00 12.1 C 8.79 g/m*3 12.1 C 0 km/h
Sensor: Nr:Datum:Temp:Abs-Feuchte:Windchill:Wind:
Aussen-T/F 2901 02-07-2014 00:50:00 11.9 C 8.58 g/m*3 11.9 C 0 km/h
2902 02-07-2014 00:55:00 11.8 C 8.63 g/m*3 11.8 C 0 km/h
2903 02-07-2014 01:00:00 11.7 C 8.58 g/m*3 11.7 C 0 km/h
2904 02-07-2014 01:05:00 11.5 C 8.47 g/m*3 11.5 C 0 km/h
2905 02-07-2014 01:10:00 11.4 C 8.52 g/m*3 11.4 C 0 km/h
2906 02-07-2014 01:15:00 11.3 C 8.47 g/m*3 11.3 C 0 km/h
2907 02-07-2014 01:20:00 11.2 C 8.41 g/m*3 11.2 C 0 km/h
2908 02-07-2014 01:25:00 11.1 C 8.46 g/m*3 11.1 C 0 km/h
2909 02-07-2014 01:30:00 10.9 C 8.36 g/m*3 10.9 C 0 km/h
2910 02-07-2014 01:35:00 10.8 C 8.4 g/m*3 10.8 C 0 km/h
2911 02-07-2014 01:40:00 10.8 C 8.4 g/m*3 10.8 C 0 km/h
2912 02-07-2014 01:45:00 10.7 C 8.35 g/m*3 10.7 C 0 km/h
2913 02-07-2014 01:50:00 10.6 C 8.3 g/m*3 10.6 C 0 km/h
2914 02-07-2014 01:55:00 10.6 C 8.3 g/m*3 10.6 C 0 km/h
2915 02-07-2014 02:00:00 10.6 C 8.3 g/m*3 10.6 C 0 km/h
2916 02-07-2014 02:05:00 10.6 C 8.3 g/m*3 10.6 C 0 km/h
2917 02-07-2014 02:10:00 10.5 C 8.24 g/m*3 10.5 C 0 km/h
2918 02-07-2014 02:15:00 10.5 C 8.34 g/m*3 10.5 C 0 km/h
2919 02-07-2014 02:20:00 10.4 C 8.29 g/m*3 10.4 C 0 km/h
2920 02-07-2014 02:25:00 10.3 C 8.24 g/m*3 10.3 C 0 km/h
2921 02-07-2014 02:30:00 10.3 C 8.33 g/m*3 10.3 C 0 km/h
2922 02-07-2014 02:35:00 10.2 C 8.18 g/m*3 10.2 C 0 km/h
2923 02-07-2014 02:40:00 10.2 C 8.18 g/m*3 10.2 C 0 km/h
2924 02-07-2014 02:45:00 10.1 C 8.13 g/m*3 10.1 C 0 km/h
2925 02-07-2014 02:50:00 10.1 C 8.23 g/m*3 10.1 C 0 km/h
Sensor: Nr:Datum:Temp:Abs-Feuchte:Windchill:Wind:
Aussen-T/F 2926 02-07-2014 02:55:00 9.9 C 8.12 g/m*3 9.9 C 0 km/h
2927 02-07-2014 03:00:00 9.9 C 8.12 g/m*3 9.9 C 0 km/h
2928 02-07-2014 03:05:00 9.8 C 8.16 g/m*3 9.8 C 0 km/h
2929 02-07-2014 03:10:00 9.7 C 8.11 g/m*3 9.7 C 0 km/h
2930 02-07-2014 03:15:00 9.7 C 8.2 g/m*3 9.7 C 0 km/h
2931 02-07-2014 03:20:00 9.6 C 8.15 g/m*3 9.6 C 0 km/h
2932 02-07-2014 03:25:00 9.6 C 8.15 g/m*3 9.6 C 0 km/h
2933 02-07-2014 03:30:00 9.6 C 8.15 g/m*3 9.6 C 0 km/h
2934 02-07-2014 03:35:00 9.5 C 8.1 g/m*3 9.5 C 0 km/h
2935 02-07-2014 03:40:00 9.5 C 8.1 g/m*3 9.5 C 0 km/h
2936 02-07-2014 03:45:00 9.5 C 8.1 g/m*3 9.5 C 0 km/h
2937 02-07-2014 03:50:00 9.4 C 8.14 g/m*3 9.4 C 0 km/h
2938 02-07-2014 03:55:00 9.3 C 8.09 g/m*3 9.3 C 0 km/h
2939 02-07-2014 04:00:00 9.3 C 8.09 g/m*3 9.3 C 0 km/h
2940 02-07-2014 04:05:00 9.3 C 8.18 g/m*3 9.3 C 0 km/h
2941 02-07-2014 04:10:00 9.2 C 8.04 g/m*3 9.2 C 0 km/h
2942 02-07-2014 04:15:00 9.2 C 8.13 g/m*3 9.2 C 0 km/h
2943 02-07-2014 04:20:00 9.2 C 8.13 g/m*3 9.2 C 0 km/h
2944 02-07-2014 04:25:00 9.1 C 8.07 g/m*3 9.1 C 0 km/h
2945 02-07-2014 04:30:00 9.1 C 8.07 g/m*3 9.1 C 0 km/h
2946 02-07-2014 04:35:00 9 C 8.02 g/m*3 9 C 0 km/h
2947 02-07-2014 04:40:00 8.9 C 7.97 g/m*3 8.9 C 0 km/h
2948 02-07-2014 04:45:00 8.9 C 8.06 g/m*3 8.9 C 0 km/h
2949 02-07-2014 04:50:00 8.9 C 8.06 g/m*3 8.9 C 0 km/h
2950 02-07-2014 04:55:00 8.8 C 8.01 g/m*3 8.8 C 0 km/h
Sensor: Nr:Datum:Temp:Abs-Feuchte:Windchill:Wind:
Aussen-T/F 2951 02-07-2014 05:00:00 8.8 C 8.01 g/m*3 8.8 C 0 km/h
2952 02-07-2014 05:05:00 8.8 C 8.01 g/m*3 8.8 C 0 km/h
2953 02-07-2014 05:10:00 8.8 C 8.01 g/m*3 8.8 C 0 km/h
2954 02-07-2014 05:15:00 8.7 C 7.96 g/m*3 8.7 C 0 km/h
2955 02-07-2014 05:20:00 8.7 C 7.96 g/m*3 8.7 C 0 km/h
2956 02-07-2014 05:25:00 8.7 C 7.96 g/m*3 8.7 C 0 km/h
2957 02-07-2014 05:30:00 8.6 C 7.99 g/m*3 8.6 C 0 km/h
2958 02-07-2014 05:35:00 8.6 C 7.99 g/m*3 8.6 C 0 km/h
2959 02-07-2014 05:40:00 8.6 C 7.99 g/m*3 8.6 C 0 km/h
2960 02-07-2014 05:45:00 8.6 C 7.99 g/m*3 8.6 C 0 km/h
2961 02-07-2014 05:50:00 8.6 C 7.99 g/m*3 8.6 C 0 km/h
2962 02-07-2014 05:55:00 8.6 C 7.99 g/m*3 8.6 C 0 km/h
2963 02-07-2014 06:00:00 8.6 C 7.99 g/m*3 8.6 C 0 km/h
2964 02-07-2014 06:05:00 8.6 C 7.99 g/m*3 8.6 C 0 km/h
2965 02-07-2014 06:10:00 8.6 C 7.99 g/m*3 8.6 C 0 km/h
2966 02-07-2014 06:15:00 8.6 C 7.99 g/m*3 8.6 C 0 km/h
2967 02-07-2014 06:20:00 8.6 C 8.08 g/m*3 8.6 C 0 km/h
2968 02-07-2014 06:25:00 8.6 C 8.08 g/m*3 8.6 C 0 km/h
2969 02-07-2014 06:30:00 8.7 C 8.13 g/m*3 8.7 C 0 km/h
2970 02-07-2014 06:35:00 8.7 C 8.13 g/m*3 8.7 C 0 km/h
2971 02-07-2014 06:40:00 8.7 C 8.13 g/m*3 8.7 C 0 km/h
2972 02-07-2014 06:45:00 8.8 C 8.18 g/m*3 8.8 C 0 km/h
2973 02-07-2014 06:50:00 8.8 C 8.18 g/m*3 8.8 C 0 km/h
2974 02-07-2014 06:55:00 8.9 C 8.23 g/m*3 8.9 C 0 km/h
2975 02-07-2014 07:00:00 8.9 C 8.23 g/m*3 8.9 C 0 km/h
Sensor: Nr:Datum:Temp:Abs-Feuchte:Windchill:Wind:
Aussen-T/F 2976 02-07-2014 07:05:00 9 C 8.29 g/m*3 9 C 0 km/h
2977 02-07-2014 07:10:00 9.1 C 8.34 g/m*3 9.1 C 0 km/h
2978 02-07-2014 07:15:00 9.2 C 8.39 g/m*3 9.2 C 0 km/h
2979 02-07-2014 07:20:00 9.3 C 8.45 g/m*3 9.3 C 0 km/h
2980 02-07-2014 07:25:00 9.3 C 8.45 g/m*3 9.3 C 0 km/h
2981 02-07-2014 07:30:00 9.5 C 8.56 g/m*3 9.5 C 0 km/h
2982 02-07-2014 07:35:00 9.6 C 8.52 g/m*3 9.6 C 1.6 km/h
2983 02-07-2014 07:40:00 9.7 C 8.67 g/m*3 9.7 C 0 km/h
2984 02-07-2014 07:45:00 9.8 C 8.63 g/m*3 9.8 C 0 km/h
2985 02-07-2014 07:50:00 9.9 C 8.68 g/m*3 9.9 C 0 km/h
2986 02-07-2014 07:55:00 10.1 C 8.79 g/m*3 10.1 C 0 km/h
2987 02-07-2014 08:00:00 10.3 C 8.91 g/m*3 10.3 C 0 km/h
2988 02-07-2014 08:05:00 10.7 C 9.13 g/m*3 10.7 C 0 km/h
2989 02-07-2014 08:10:00 11.1 C 9.17 g/m*3 11.1 C 0 km/h
2990 02-07-2014 08:15:00 11.5 C 9.3 g/m*3 11.5 C 0 km/h
2991 02-07-2014 08:20:00 11.8 C 9.37 g/m*3 11.8 C 0 km/h
2992 02-07-2014 08:25:00 12.1 C 9.44 g/m*3 12.1 C 0 km/h
2993 02-07-2014 08:30:00 12.3 C 9.56 g/m*3 12.3 C 0 km/h
2994 02-07-2014 08:35:00 12.8 C 9.74 g/m*3 12.8 C 0 km/h
2995 02-07-2014 08:40:00 13.2 C 9.76 g/m*3 13.2 C 1.6 km/h
2996 02-07-2014 08:45:00 13.6 C 9.89 g/m*3 13.6 C 3.2 km/h
2997 02-07-2014 08:50:00 13.8 C 10.01 g/m*3 13.8 C 0 km/h
2998 02-07-2014 08:55:00 14 C 9.89 g/m*3 14 C 0 km/h
2999 02-07-2014 09:00:00 14.3 C 9.95 g/m*3 14.3 C 1.6 km/h
3000 02-07-2014 09:05:00 14.4 C 9.89 g/m*3 14.4 C 0 km/h
Sensor: Nr:Datum:Temp:Abs-Feuchte:Windchill:Wind:
Aussen-T/F 3001 02-07-2014 09:10:00 14.7 C 10.07 g/m*3 14.7 C 0 km/h
3002 02-07-2014 09:15:00 14.7 C 9.95 g/m*3 14.7 C 0 km/h
3003 02-07-2014 09:20:00 14.6 C 9.89 g/m*3 14.6 C 0 km/h
3004 02-07-2014 09:25:00 14.4 C 9.52 g/m*3 14.4 C 1.6 km/h
3005 02-07-2014 09:30:00 14.3 C 9.83 g/m*3 14.3 C 0 km/h
3006 02-07-2014 09:35:00 14.3 C 9.83 g/m*3 14.3 C 1.6 km/h
3007 02-07-2014 09:40:00 14.3 C 9.83 g/m*3 14.3 C 0 km/h
3008 02-07-2014 09:45:00 14.4 C 9.89 g/m*3 14.4 C 3.2 km/h
3009 02-07-2014 09:50:00 14.6 C 9.76 g/m*3 14.6 C 3.2 km/h
3010 02-07-2014 09:55:00 14.9 C 10.2 g/m*3 14.9 C 1.6 km/h
3011 02-07-2014 10:00:00 15.4 C 10.12 g/m*3 15.4 C 0 km/h
3012 02-07-2014 10:05:00 15.9 C 10.02 g/m*3 15.9 C 4.8 km/h
3013 02-07-2014 10:10:00 16.5 C 9.83 g/m*3 16.5 C 4.8 km/h
3014 02-07-2014 10:15:00 16.9 C 9.78 g/m*3 16.9 C 3.2 km/h
3015 02-07-2014 10:20:00 17.2 C 10.25 g/m*3 17.2 C 3.2 km/h
3016 02-07-2014 10:25:00 17.5 C 10.44 g/m*3 17.5 C 1.6 km/h
3017 02-07-2014 10:30:00 17.8 C 10.17 g/m*3 17.8 C 1.6 km/h
3018 02-07-2014 10:35:00 18.2 C 10.26 g/m*3 18.2 C 3.2 km/h
3019 02-07-2014 10:40:00 18.6 C 9.55 g/m*3 18.6 C 4.8 km/h
3020 02-07-2014 10:45:00 18.9 C 10.04 g/m*3 18.9 C 4.8 km/h
3021 02-07-2014 10:50:00 19.2 C 9.89 g/m*3 19.2 C 4.8 km/h
3022 02-07-2014 10:55:00 19.4 C 10.01 g/m*3 19.4 C 4.8 km/h
3023 02-07-2014 11:00:00 19.7 C 9.85 g/m*3 19.7 C 8.1 km/h
3024 02-07-2014 11:05:00 19.8 C 9.57 g/m*3 19.8 C 6.4 km/h
3025 02-07-2014 11:10:00 20 C 9.68 g/m*3 20 C 8.1 km/h
Sensor: Nr:Datum:Temp:Abs-Feuchte:Windchill:Wind:
Aussen-T/F 3026 02-07-2014 11:15:00 20.1 C 10.08 g/m*3 20.1 C 3.2 km/h
3027 02-07-2014 11:20:00 20.2 C 9.62 g/m*3 20.2 C 8.1 km/h
3028 02-07-2014 11:25:00 20.3 C 9.85 g/m*3 20.3 C 6.4 km/h
3029 02-07-2014 11:30:00 20.3 C 9.67 g/m*3 20.3 C 3.2 km/h
3030 02-07-2014 11:35:00 20.4 C 9.55 g/m*3 20.4 C 6.4 km/h
3031 02-07-2014 11:40:00 20.6 C 10.38 g/m*3 20.6 C 8.1 km/h
3032 02-07-2014 11:45:00 20.7 C 10.08 g/m*3 20.7 C 8.1 km/h
3033 02-07-2014 11:50:00 20.8 C 9.42 g/m*3 20.8 C 6.4 km/h
3034 02-07-2014 11:55:00 20.8 C 9.78 g/m*3 20.8 C 6.4 km/h
3035 02-07-2014 12:00:00 21 C 10.26 g/m*3 21 C 6.4 km/h
3036 02-07-2014 12:05:00 21.3 C 9.51 g/m*3 21.3 C 8.1 km/h
3037 02-07-2014 12:10:00 21.4 C 9.37 g/m*3 21.4 C 8.1 km/h
3038 02-07-2014 12:15:00 21.4 C 9.37 g/m*3 21.4 C 9.7 km/h
3039 02-07-2014 12:20:00 21.4 C 9.37 g/m*3 21.4 C 9.7 km/h
3040 02-07-2014 12:25:00 21.5 C 9.62 g/m*3 21.5 C 4.8 km/h
3041 02-07-2014 12:30:00 21.8 C 9.98 g/m*3 21.8 C 9.7 km/h
3042 02-07-2014 12:35:00 22.1 C 9.56 g/m*3 22.1 C 9.7 km/h
3043 02-07-2014 12:40:00 21.8 C 9.02 g/m*3 21.8 C 4.8 km/h
3044 02-07-2014 12:45:00 21.6 C 9.48 g/m*3 21.6 C 4.8 km/h
3045 02-07-2014 12:50:00 21.8 C 9.4 g/m*3 21.8 C 4.8 km/h
3046 02-07-2014 12:55:00 21.9 C 9.65 g/m*3 21.9 C 4.8 km/h
3047 02-07-2014 13:00:00 22.1 C 9.56 g/m*3 22.1 C 8.1 km/h
3048 02-07-2014 13:05:00 22.3 C 9.48 g/m*3 22.3 C 8.1 km/h
3049 02-07-2014 13:10:00 22.3 C 9.28 g/m*3 22.3 C 6.4 km/h
3050 02-07-2014 13:15:00 22.3 C 9.08 g/m*3 22.3 C 9.7 km/h
Sensor: Nr:Datum:Temp:Abs-Feuchte:Windchill:Wind:
Aussen-T/F 3051 02-07-2014 13:20:00 22.3 C 9.08 g/m*3 22.3 C 11.3 km/h
3052 02-07-2014 13:25:00 22.4 C 8.94 g/m*3 22.4 C 6.4 km/h
3053 02-07-2014 13:30:00 22.6 C 9.44 g/m*3 22.6 C 9.7 km/h
3054 02-07-2014 13:35:00 22.7 C 10.51 g/m*3 22.7 C 9.7 km/h
3055 02-07-2014 13:40:00 22.9 C 9.2 g/m*3 22.9 C 6.4 km/h
3056 02-07-2014 13:45:00 23.1 C 9.1 g/m*3 23.1 C 8.1 km/h
3057 02-07-2014 13:50:00 22.9 C 9.2 g/m*3 22.9 C 8.1 km/h
3058 02-07-2014 13:55:00 22.8 C 9.35 g/m*3 22.8 C 12.9 km/h
3059 02-07-2014 14:00:00 22.7 C 9.09 g/m*3 22.7 C 9.7 km/h
3060 02-07-2014 14:05:00 22.6 C 9.44 g/m*3 22.6 C 6.4 km/h
3061 02-07-2014 14:10:00 22.8 C 9.55 g/m*3 22.8 C 4.8 km/h
3062 02-07-2014 14:15:00 23 C 9.45 g/m*3 23 C 12.9 km/h
3063 02-07-2014 14:20:00 22.9 C 8.99 g/m*3 22.9 C 8.1 km/h
3064 02-07-2014 14:25:00 23.1 C 9.72 g/m*3 23.1 C 12.9 km/h
3065 02-07-2014 14:30:00 23.3 C 9.62 g/m*3 23.3 C 8.1 km/h
3066 02-07-2014 14:35:00 23.6 C 9.78 g/m*3 23.6 C 14.5 km/h
3067 02-07-2014 14:40:00 23.6 C 9.36 g/m*3 23.6 C 11.3 km/h
3068 02-07-2014 14:45:00 23.7 C 9.2 g/m*3 23.7 C 8.1 km/h
3069 02-07-2014 14:50:00 23.7 C 9.63 g/m*3 23.7 C 9.7 km/h
3070 02-07-2014 14:55:00 23.9 C 9.95 g/m*3 23.9 C 11.3 km/h
3071 02-07-2014 15:00:00 23.8 C 9.46 g/m*3 23.8 C 9.7 km/h
3072 02-07-2014 15:05:00 23.7 C 9.41 g/m*3 23.7 C 12.9 km/h
3073 02-07-2014 15:10:00 23.8 C 9.25 g/m*3 23.8 C 14.5 km/h
3074 02-07-2014 15:15:00 23.8 C 8.82 g/m*3 23.8 C 14.5 km/h
3075 02-07-2014 15:20:00 23.6 C 8.29 g/m*3 23.6 C 6.4 km/h
Sensor: Nr:Datum:Temp:Abs-Feuchte:Windchill:Wind:
Aussen-T/F 3076 02-07-2014 15:25:00 23.7 C 8.77 g/m*3 23.7 C 9.7 km/h
3077 02-07-2014 15:30:00 23.7 C 9.2 g/m*3 23.7 C 8.1 km/h
3078 02-07-2014 15:35:00 23.7 C 8.98 g/m*3 23.7 C 11.3 km/h
3079 02-07-2014 15:40:00 23.8 C 9.03 g/m*3 23.8 C 8.1 km/h
3080 02-07-2014 15:45:00 24 C 8.7 g/m*3 24 C 11.3 km/h
3081 02-07-2014 15:50:00 23.9 C 8.65 g/m*3 23.9 C 9.7 km/h
3082 02-07-2014 15:55:00 24.3 C 8.41 g/m*3 24.3 C 6.4 km/h
3083 02-07-2014 16:00:00 24.4 C 8.46 g/m*3 24.4 C 3.2 km/h
3084 02-07-2014 16:05:00 24.4 C 8.46 g/m*3 24.4 C 8.1 km/h
3085 02-07-2014 16:10:00 24.6 C 7.88 g/m*3 24.6 C 9.7 km/h
3086 02-07-2014 16:15:00 24.5 C 7.83 g/m*3 24.5 C 6.4 km/h
3087 02-07-2014 16:20:00 24.7 C 8.83 g/m*3 24.7 C 9.7 km/h
3088 02-07-2014 16:25:00 25 C 8.52 g/m*3 25 C 9.7 km/h
3089 02-07-2014 16:30:00 25.1 C 8.1 g/m*3 25.1 C 11.3 km/h
3090 02-07-2014 16:35:00 25.1 C 8.8 g/m*3 25.1 C 11.3 km/h
3091 02-07-2014 16:40:00 25.1 C 8.33 g/m*3 25.1 C 8.1 km/h
3092 02-07-2014 16:45:00 25 C 7.83 g/m*3 25 C 4.8 km/h
3093 02-07-2014 16:50:00 24.9 C 8.47 g/m*3 24.9 C 6.4 km/h
3094 02-07-2014 16:55:00 24.7 C 8.6 g/m*3 24.7 C 6.4 km/h
3095 02-07-2014 17:00:00 24.8 C 8.65 g/m*3 24.8 C 12.9 km/h
3096 02-07-2014 17:05:00 24.9 C 7.55 g/m*3 24.9 C 8.1 km/h
3097 02-07-2014 17:10:00 24.9 C 7.78 g/m*3 24.9 C 8.1 km/h
3098 02-07-2014 17:15:00 24.9 C 7.78 g/m*3 24.9 C 9.7 km/h
3099 02-07-2014 17:20:00 25 C 8.29 g/m*3 25 C 8.1 km/h
3100 02-07-2014 17:25:00 25.2 C 8.85 g/m*3 25.2 C 11.3 km/h
Sensor: Nr:Datum:Temp:Abs-Feuchte:Windchill:Wind:
Aussen-T/F 3101 02-07-2014 17:30:00 25.3 C 8.19 g/m*3 25.3 C 12.9 km/h
3102 02-07-2014 17:35:00 25.2 C 8.85 g/m*3 25.2 C 6.4 km/h
3103 02-07-2014 17:40:00 25.1 C 8.1 g/m*3 25.1 C 6.4 km/h
3104 02-07-2014 17:45:00 25.1 C 7.64 g/m*3 25.1 C 8.1 km/h
3105 02-07-2014 17:50:00 25.1 C 8.33 g/m*3 25.1 C 8.1 km/h
3106 02-07-2014 17:55:00 25.4 C 7.53 g/m*3 25.4 C 8.1 km/h
3107 02-07-2014 18:00:00 25.4 C 7.77 g/m*3 25.4 C 9.7 km/h
3108 02-07-2014 18:05:00 25.2 C 7.68 g/m*3 25.2 C 9.7 km/h
3109 02-07-2014 18:10:00 24.9 C 7.78 g/m*3 24.9 C 11.3 km/h
3110 02-07-2014 18:15:00 25 C 8.29 g/m*3 25 C 4.8 km/h
3111 02-07-2014 18:20:00 25.2 C 7.45 g/m*3 25.2 C 11.3 km/h
3112 02-07-2014 18:25:00 25.1 C 7.41 g/m*3 25.1 C 8.1 km/h
3113 02-07-2014 18:30:00 25.1 C 7.64 g/m*3 25.1 C 9.7 km/h
3114 02-07-2014 18:35:00 24.8 C 7.97 g/m*3 24.8 C 9.7 km/h
3115 02-07-2014 18:40:00 24.8 C 7.74 g/m*3 24.8 C 6.4 km/h
3116 02-07-2014 18:45:00 24.7 C 7.92 g/m*3 24.7 C 6.4 km/h
3117 02-07-2014 18:50:00 24.7 C 7.7 g/m*3 24.7 C 11.3 km/h
3118 02-07-2014 18:55:00 24.6 C 7.65 g/m*3 24.6 C 8.1 km/h
3119 02-07-2014 19:00:00 24.3 C 7.97 g/m*3 24.3 C 8.1 km/h
3120 02-07-2014 19:05:00 24.3 C 7.97 g/m*3 24.3 C 9.7 km/h
3121 02-07-2014 19:10:00 24.6 C 8.1 g/m*3 24.6 C 11.3 km/h
3122 02-07-2014 19:15:00 24.5 C 8.06 g/m*3 24.5 C 11.3 km/h
3123 02-07-2014 19:20:00 24.2 C 7.92 g/m*3 24.2 C 6.4 km/h
3124 02-07-2014 19:25:00 24 C 7.83 g/m*3 24 C 9.7 km/h
3125 02-07-2014 19:30:00 23.7 C 7.7 g/m*3 23.7 C 6.4 km/h
Sensor: Nr:Datum:Temp:Abs-Feuchte:Windchill:Wind:
Aussen-T/F 3126 02-07-2014 19:35:00 23.6 C 7.44 g/m*3 23.6 C 9.7 km/h
3127 02-07-2014 19:40:00 23.4 C 7.36 g/m*3 23.4 C 6.4 km/h
3128 02-07-2014 19:45:00 23.4 C 7.36 g/m*3 23.4 C 11.3 km/h
3129 02-07-2014 19:50:00 23.3 C 7.32 g/m*3 23.3 C 8.1 km/h
3130 02-07-2014 19:55:00 23.2 C 7.48 g/m*3 23.2 C 6.4 km/h
3131 02-07-2014 20:00:00 23.1 C 7.44 g/m*3 23.1 C 8.1 km/h
3132 02-07-2014 20:05:00 22.9 C 7.77 g/m*3 22.9 C 6.4 km/h
3133 02-07-2014 20:10:00 22.9 C 7.77 g/m*3 22.9 C 8.1 km/h
3134 02-07-2014 20:15:00 22.8 C 7.92 g/m*3 22.8 C 6.4 km/h
3135 02-07-2014 20:20:00 22.7 C 7.88 g/m*3 22.7 C 6.4 km/h
3136 02-07-2014 20:25:00 22.6 C 7.63 g/m*3 22.6 C 4.8 km/h
3137 02-07-2014 20:30:00 22.4 C 7.94 g/m*3 22.4 C 4.8 km/h
3138 02-07-2014 20:35:00 22.3 C 7.9 g/m*3 22.3 C 3.2 km/h
3139 02-07-2014 20:40:00 22.2 C 8.05 g/m*3 22.2 C 4.8 km/h
3140 02-07-2014 20:45:00 22.1 C 8.59 g/m*3 22.1 C 4.8 km/h
3141 02-07-2014 20:50:00 21.8 C 8.63 g/m*3 21.8 C 1.6 km/h
3142 02-07-2014 20:55:00 21.4 C 9 g/m*3 21.4 C 1.6 km/h
3143 02-07-2014 21:00:00 20.8 C 8.33 g/m*3 20.8 C 3.2 km/h
3144 02-07-2014 21:05:00 20.1 C 9.21 g/m*3 20.1 C 0 km/h
3145 02-07-2014 21:10:00 19.3 C 9.79 g/m*3 19.3 C 0 km/h
3146 02-07-2014 21:15:00 18.6 C 9.71 g/m*3 18.6 C 1.6 km/h
3147 02-07-2014 21:20:00 18.1 C 9.73 g/m*3 18.1 C 0 km/h
3148 02-07-2014 21:25:00 17.7 C 9.35 g/m*3 17.7 C 1.6 km/h
3149 02-07-2014 21:30:00 17.4 C 9.34 g/m*3 17.4 C 1.6 km/h
3150 02-07-2014 21:35:00 17.1 C 9.46 g/m*3 17.1 C 1.6 km/h
Sensor: Nr:Datum:Temp:Abs-Feuchte:Windchill:Wind:
Aussen-T/F 3151 02-07-2014 21:40:00 16.8 C 9.29 g/m*3 16.8 C 1.6 km/h
3152 02-07-2014 21:45:00 16.6 C 9.46 g/m*3 16.6 C 1.6 km/h
3153 02-07-2014 21:50:00 16.4 C 9.35 g/m*3 16.4 C 1.6 km/h
3154 02-07-2014 21:55:00 16.3 C 9.57 g/m*3 16.3 C 1.6 km/h
3155 02-07-2014 22:00:00 16.1 C 9.32 g/m*3 16.1 C 1.6 km/h
3156 02-07-2014 22:05:00 16 C 9.26 g/m*3 16 C 1.6 km/h
3157 02-07-2014 22:10:00 15.9 C 9.48 g/m*3 15.9 C 1.6 km/h
3158 02-07-2014 22:15:00 15.8 C 9.56 g/m*3 15.8 C 0 km/h
3159 02-07-2014 22:20:00 15.8 C 9.56 g/m*3 15.8 C 0 km/h
3160 02-07-2014 22:25:00 15.7 C 9.5 g/m*3 15.7 C 0 km/h
3161 02-07-2014 22:30:00 15.7 C 9.63 g/m*3 15.7 C 0 km/h
3162 02-07-2014 22:35:00 15.6 C 9.31 g/m*3 15.6 C 0 km/h
3163 02-07-2014 22:40:00 15.6 C 9.58 g/m*3 15.6 C 1.6 km/h
3164 02-07-2014 22:45:00 15.5 C 9.39 g/m*3 15.5 C 1.6 km/h
3165 02-07-2014 22:50:00 15.4 C 9.46 g/m*3 15.4 C 0 km/h
3166 02-07-2014 22:55:00 15.4 C 9.59 g/m*3 15.4 C 0 km/h
3167 02-07-2014 23:00:00 15.3 C 9.53 g/m*3 15.3 C 0 km/h
3168 02-07-2014 23:05:00 15.2 C 9.48 g/m*3 15.2 C 0 km/h
3169 02-07-2014 23:10:00 15.2 C 9.61 g/m*3 15.2 C 0 km/h
3170 02-07-2014 23:15:00 15.1 C 9.55 g/m*3 15.1 C 0 km/h
3171 02-07-2014 23:20:00 14.9 C 9.43 g/m*3 14.9 C 0 km/h
3172 02-07-2014 23:25:00 14.7 C 9.44 g/m*3 14.7 C 0 km/h
3173 02-07-2014 23:30:00 14.5 C 9.58 g/m*3 14.5 C 0 km/h
3174 02-07-2014 23:35:00 14.4 C 9.52 g/m*3 14.4 C 0 km/h
3175 02-07-2014 23:40:00 14.3 C 9.34 g/m*3 14.3 C 0 km/h
Sensor: Nr:Datum:Temp:Abs-Feuchte:Windchill:Wind:
Aussen-T/F 3176 02-07-2014 23:45:00 14.3 C 9.34 g/m*3 14.3 C 0 km/h
3177 02-07-2014 23:50:00 14.2 C 9.52 g/m*3 14.2 C 0 km/h
3178 02-07-2014 23:55:00 14.1 C 9.47 g/m*3 14.1 C 0 km/h
3179 03-07-2014 00:00:00 13.9 C 9.23 g/m*3 13.9 C 0 km/h
3180 03-07-2014 00:05:00 13.8 C 9.17 g/m*3 13.8 C 0 km/h
3181 03-07-2014 00:10:00 13.8 C 9.29 g/m*3 13.8 C 0 km/h
3182 03-07-2014 00:15:00 13.7 C 9.35 g/m*3 13.7 C 0 km/h
3183 03-07-2014 00:20:00 13.5 C 9.24 g/m*3 13.5 C 0 km/h
3184 03-07-2014 00:25:00 13.4 C 9.3 g/m*3 13.4 C 0 km/h
3185 03-07-2014 00:30:00 13.3 C 9.13 g/m*3 13.3 C 0 km/h
3186 03-07-2014 00:35:00 13.3 C 9.13 g/m*3 13.3 C 0 km/h
3187 03-07-2014 00:40:00 13.2 C 9.19 g/m*3 13.2 C 0 km/h
3188 03-07-2014 00:45:00 13.2 C 9.07 g/m*3 13.2 C 0 km/h
3189 03-07-2014 00:50:00 13.1 C 9.01 g/m*3 13.1 C 0 km/h
3190 03-07-2014 00:55:00 13.1 C 9.13 g/m*3 13.1 C 0 km/h
3191 03-07-2014 01:00:00 13 C 8.96 g/m*3 13 C 0 km/h
3192 03-07-2014 01:05:00 12.9 C 8.9 g/m*3 12.9 C 0 km/h
3193 03-07-2014 01:10:00 12.9 C 8.9 g/m*3 12.9 C 0 km/h
3194 03-07-2014 01:15:00 12.8 C 8.96 g/m*3 12.8 C 0 km/h
3195 03-07-2014 01:20:00 12.8 C 8.96 g/m*3 12.8 C 0 km/h
3196 03-07-2014 01:25:00 12.7 C 9.02 g/m*3 12.7 C 0 km/h
3197 03-07-2014 01:30:00 12.6 C 8.96 g/m*3 12.6 C 0 km/h
3198 03-07-2014 01:35:00 12.5 C 8.91 g/m*3 12.5 C 0 km/h
3199 03-07-2014 01:40:00 12.4 C 8.96 g/m*3 12.4 C 0 km/h
3200 03-07-2014 01:45:00 12.3 C 8.9 g/m*3 12.3 C 0 km/h
Sensor: Nr:Datum:Temp:Abs-Feuchte:Windchill:Wind:
Aussen-T/F 3201 03-07-2014 01:50:00 12.3 C 8.9 g/m*3 12.3 C 0 km/h
3202 03-07-2014 01:55:00 12.2 C 8.85 g/m*3 12.2 C 0 km/h
3203 03-07-2014 02:00:00 12.1 C 8.9 g/m*3 12.1 C 0 km/h
3204 03-07-2014 02:05:00 12 C 8.85 g/m*3 12 C 0 km/h
3205 03-07-2014 02:10:00 12 C 8.74 g/m*3 12 C 0 km/h
3206 03-07-2014 02:15:00 11.9 C 8.79 g/m*3 11.9 C 0 km/h
3207 03-07-2014 02:20:00 11.8 C 8.74 g/m*3 11.8 C 0 km/h
3208 03-07-2014 02:25:00 11.8 C 8.84 g/m*3 11.8 C 0 km/h
3209 03-07-2014 02:30:00 11.7 C 8.79 g/m*3 11.7 C 0 km/h
3210 03-07-2014 02:35:00 11.6 C 8.73 g/m*3 11.6 C 0 km/h
3211 03-07-2014 02:40:00 11.6 C 8.83 g/m*3 11.6 C 0 km/h
3212 03-07-2014 02:45:00 11.6 C 8.83 g/m*3 11.6 C 0 km/h
3213 03-07-2014 02:50:00 11.5 C 8.78 g/m*3 11.5 C 0 km/h
3214 03-07-2014 02:55:00 11.5 C 8.78 g/m*3 11.5 C 1.6 km/h
3215 03-07-2014 03:00:00 11.4 C 8.72 g/m*3 11.4 C 0 km/h
3216 03-07-2014 03:05:00 11.4 C 8.72 g/m*3 11.4 C 0 km/h
3217 03-07-2014 03